<?xml version="1.0" encoding="UTF-8" standalone="no" ?>
<gpx xmlns="http://www.topografix.com/GPX/1/1" xmlns:xsi="http://www.w3.org/2001/XMLSchema-instance" xsi:schemaLocation="http://www.topografix.com/GPX/1/1 http://www.topografix.com/GPX/1/1/gpx.xsd" version="1.1" creator="VisuGPX - https://www.visugpx.com">
  <metadata>
    <name>Brouzet lès Alès</name>
    <desc><![CDATA[Randonnée facile si ce n\'est la longue côte du début. Superbe vue.]]></desc>
  </metadata>
  <trk>
    <name><![CDATA[28-DEC-11 04:22:30 PM]]></name>
    <trkseg>
      <trkpt lat="44.1382" lon="4.24533">
        <ele>165.96</ele>
        <time>2011-12-28T12:47:20Z</time>
      </trkpt>
      <trkpt lat="44.1382" lon="4.24532">
        <ele>169.33</ele>
        <time>2011-12-28T12:47:24Z</time>
      </trkpt>
      <trkpt lat="44.1382" lon="4.24532">
        <ele>170.77</ele>
        <time>2011-12-28T12:47:26Z</time>
      </trkpt>
      <trkpt lat="44.1382" lon="4.24531">
        <ele>173.17</ele>
        <time>2011-12-28T12:47:30Z</time>
      </trkpt>
      <trkpt lat="44.13822" lon="4.24532">
        <ele>176.54</ele>
        <time>2011-12-28T12:47:37Z</time>
      </trkpt>
      <trkpt lat="44.13821" lon="4.24535">
        <ele>180.38</ele>
        <time>2011-12-28T12:47:45Z</time>
      </trkpt>
      <trkpt lat="44.13822" lon="4.24533">
        <ele>183.27</ele>
        <time>2011-12-28T12:47:54Z</time>
      </trkpt>
      <trkpt lat="44.13823" lon="4.24531">
        <ele>186.63</ele>
        <time>2011-12-28T12:48:07Z</time>
      </trkpt>
      <trkpt lat="44.13823" lon="4.24531">
        <ele>189.52</ele>
        <time>2011-12-28T12:48:31Z</time>
      </trkpt>
      <trkpt lat="44.13823" lon="4.24533">
        <ele>189.52</ele>
        <time>2011-12-28T12:49:00Z</time>
      </trkpt>
      <trkpt lat="44.13823" lon="4.24533">
        <ele>189.04</ele>
        <time>2011-12-28T12:49:19Z</time>
      </trkpt>
      <trkpt lat="44.13823" lon="4.24533">
        <ele>189.52</ele>
        <time>2011-12-28T12:49:41Z</time>
      </trkpt>
      <trkpt lat="44.13822" lon="4.24524">
        <ele>189.52</ele>
        <time>2011-12-28T12:49:52Z</time>
      </trkpt>
      <trkpt lat="44.13821" lon="4.24525">
        <ele>189.52</ele>
        <time>2011-12-28T12:50:05Z</time>
      </trkpt>
      <trkpt lat="44.13821" lon="4.24525">
        <ele>189.52</ele>
        <time>2011-12-28T12:50:30Z</time>
      </trkpt>
      <trkpt lat="44.13826" lon="4.24525">
        <ele>190</ele>
        <time>2011-12-28T12:50:53Z</time>
      </trkpt>
      <trkpt lat="44.13831" lon="4.24524">
        <ele>190</ele>
        <time>2011-12-28T12:50:56Z</time>
      </trkpt>
      <trkpt lat="44.13846" lon="4.24525">
        <ele>190</ele>
        <time>2011-12-28T12:51:02Z</time>
      </trkpt>
      <trkpt lat="44.13875" lon="4.24515">
        <ele>189.52</ele>
        <time>2011-12-28T12:51:13Z</time>
      </trkpt>
      <trkpt lat="44.1391" lon="4.245">
        <ele>189.52</ele>
        <time>2011-12-28T12:51:21Z</time>
      </trkpt>
      <trkpt lat="44.1393" lon="4.2449">
        <ele>188.56</ele>
        <time>2011-12-28T12:51:25Z</time>
      </trkpt>
      <trkpt lat="44.13935" lon="4.24488">
        <ele>188.56</ele>
        <time>2011-12-28T12:51:26Z</time>
      </trkpt>
      <trkpt lat="44.13974" lon="4.24457">
        <ele>188.56</ele>
        <time>2011-12-28T12:51:34Z</time>
      </trkpt>
      <trkpt lat="44.13988" lon="4.2444">
        <ele>188.08</ele>
        <time>2011-12-28T12:51:37Z</time>
      </trkpt>
      <trkpt lat="44.13997" lon="4.24429">
        <ele>187.59</ele>
        <time>2011-12-28T12:51:39Z</time>
      </trkpt>
      <trkpt lat="44.14031" lon="4.24394">
        <ele>187.59</ele>
        <time>2011-12-28T12:51:46Z</time>
      </trkpt>
      <trkpt lat="44.14035" lon="4.24388">
        <ele>187.59</ele>
        <time>2011-12-28T12:51:47Z</time>
      </trkpt>
      <trkpt lat="44.14038" lon="4.2438">
        <ele>187.11</ele>
        <time>2011-12-28T12:51:48Z</time>
      </trkpt>
      <trkpt lat="44.14041" lon="4.24373">
        <ele>186.63</ele>
        <time>2011-12-28T12:51:49Z</time>
      </trkpt>
      <trkpt lat="44.14042" lon="4.24364">
        <ele>186.63</ele>
        <time>2011-12-28T12:51:50Z</time>
      </trkpt>
      <trkpt lat="44.14051" lon="4.24321">
        <ele>185.67</ele>
        <time>2011-12-28T12:51:55Z</time>
      </trkpt>
      <trkpt lat="44.14054" lon="4.24313">
        <ele>185.67</ele>
        <time>2011-12-28T12:51:56Z</time>
      </trkpt>
      <trkpt lat="44.14114" lon="4.24218">
        <ele>183.27</ele>
        <time>2011-12-28T12:52:10Z</time>
      </trkpt>
      <trkpt lat="44.14149" lon="4.24193">
        <ele>183.27</ele>
        <time>2011-12-28T12:52:16Z</time>
      </trkpt>
      <trkpt lat="44.14232" lon="4.24149">
        <ele>181.35</ele>
        <time>2011-12-28T12:52:30Z</time>
      </trkpt>
      <trkpt lat="44.14319" lon="4.24103">
        <ele>179.9</ele>
        <time>2011-12-28T12:52:44Z</time>
      </trkpt>
      <trkpt lat="44.14423" lon="4.24085">
        <ele>177.98</ele>
        <time>2011-12-28T12:53:00Z</time>
      </trkpt>
      <trkpt lat="44.14429" lon="4.24086">
        <ele>177.5</ele>
        <time>2011-12-28T12:53:01Z</time>
      </trkpt>
      <trkpt lat="44.14479" lon="4.24103">
        <ele>177.02</ele>
        <time>2011-12-28T12:53:10Z</time>
      </trkpt>
      <trkpt lat="44.14556" lon="4.24142">
        <ele>175.58</ele>
        <time>2011-12-28T12:53:25Z</time>
      </trkpt>
      <trkpt lat="44.14633" lon="4.24164">
        <ele>177.5</ele>
        <time>2011-12-28T12:53:42Z</time>
      </trkpt>
      <trkpt lat="44.14701" lon="4.24178">
        <ele>179.42</ele>
        <time>2011-12-28T12:53:57Z</time>
      </trkpt>
      <trkpt lat="44.14774" lon="4.2418">
        <ele>181.35</ele>
        <time>2011-12-28T12:54:14Z</time>
      </trkpt>
      <trkpt lat="44.14823" lon="4.24181">
        <ele>183.75</ele>
        <time>2011-12-28T12:54:29Z</time>
      </trkpt>
      <trkpt lat="44.14831" lon="4.24182">
        <ele>184.23</ele>
        <time>2011-12-28T12:54:42Z</time>
      </trkpt>
      <trkpt lat="44.14831" lon="4.24182">
        <ele>184.23</ele>
        <time>2011-12-28T12:55:08Z</time>
      </trkpt>
      <trkpt lat="44.14832" lon="4.24182">
        <ele>184.71</ele>
        <time>2011-12-28T12:55:21Z</time>
      </trkpt>
      <trkpt lat="44.14834" lon="4.24183">
        <ele>184.71</ele>
        <time>2011-12-28T12:55:22Z</time>
      </trkpt>
      <trkpt lat="44.14835" lon="4.24185">
        <ele>185.19</ele>
        <time>2011-12-28T12:55:23Z</time>
      </trkpt>
      <trkpt lat="44.14837" lon="4.24187">
        <ele>185.19</ele>
        <time>2011-12-28T12:55:24Z</time>
      </trkpt>
      <trkpt lat="44.14838" lon="4.24189">
        <ele>185.19</ele>
        <time>2011-12-28T12:55:25Z</time>
      </trkpt>
      <trkpt lat="44.14839" lon="4.24192">
        <ele>185.19</ele>
        <time>2011-12-28T12:55:26Z</time>
      </trkpt>
      <trkpt lat="44.14841" lon="4.24194">
        <ele>185.19</ele>
        <time>2011-12-28T12:55:27Z</time>
      </trkpt>
      <trkpt lat="44.14841" lon="4.24197">
        <ele>185.19</ele>
        <time>2011-12-28T12:55:28Z</time>
      </trkpt>
      <trkpt lat="44.14842" lon="4.242">
        <ele>185.19</ele>
        <time>2011-12-28T12:55:29Z</time>
      </trkpt>
      <trkpt lat="44.14843" lon="4.24203">
        <ele>185.67</ele>
        <time>2011-12-28T12:55:30Z</time>
      </trkpt>
      <trkpt lat="44.14856" lon="4.24259">
        <ele>188.08</ele>
        <time>2011-12-28T12:55:46Z</time>
      </trkpt>
      <trkpt lat="44.14865" lon="4.24294">
        <ele>191.44</ele>
        <time>2011-12-28T12:55:57Z</time>
      </trkpt>
      <trkpt lat="44.14871" lon="4.2434">
        <ele>194.8</ele>
        <time>2011-12-28T12:56:12Z</time>
      </trkpt>
      <trkpt lat="44.14863" lon="4.24385">
        <ele>196.25</ele>
        <time>2011-12-28T12:56:25Z</time>
      </trkpt>
      <trkpt lat="44.14844" lon="4.24424">
        <ele>197.21</ele>
        <time>2011-12-28T12:56:37Z</time>
      </trkpt>
      <trkpt lat="44.14823" lon="4.2447">
        <ele>197.69</ele>
        <time>2011-12-28T12:56:49Z</time>
      </trkpt>
      <trkpt lat="44.14803" lon="4.24523">
        <ele>198.17</ele>
        <time>2011-12-28T12:57:02Z</time>
      </trkpt>
      <trkpt lat="44.14798" lon="4.24538">
        <ele>198.17</ele>
        <time>2011-12-28T12:57:11Z</time>
      </trkpt>
      <trkpt lat="44.14797" lon="4.24539">
        <ele>198.17</ele>
        <time>2011-12-28T12:57:23Z</time>
      </trkpt>
      <trkpt lat="44.14795" lon="4.24545">
        <ele>198.17</ele>
        <time>2011-12-28T12:57:25Z</time>
      </trkpt>
      <trkpt lat="44.14794" lon="4.24548">
        <ele>198.17</ele>
        <time>2011-12-28T12:57:26Z</time>
      </trkpt>
      <trkpt lat="44.14793" lon="4.24551">
        <ele>198.17</ele>
        <time>2011-12-28T12:57:27Z</time>
      </trkpt>
      <trkpt lat="44.14771" lon="4.24604">
        <ele>199.61</ele>
        <time>2011-12-28T12:57:41Z</time>
      </trkpt>
      <trkpt lat="44.14756" lon="4.24656">
        <ele>201.05</ele>
        <time>2011-12-28T12:57:53Z</time>
      </trkpt>
      <trkpt lat="44.14732" lon="4.24709">
        <ele>203.46</ele>
        <time>2011-12-28T12:58:07Z</time>
      </trkpt>
      <trkpt lat="44.14726" lon="4.2474">
        <ele>204.9</ele>
        <time>2011-12-28T12:58:16Z</time>
      </trkpt>
      <trkpt lat="44.14728" lon="4.24741">
        <ele>204.42</ele>
        <time>2011-12-28T12:58:17Z</time>
      </trkpt>
      <trkpt lat="44.14746" lon="4.24761">
        <ele>207.78</ele>
        <time>2011-12-28T12:58:30Z</time>
      </trkpt>
      <trkpt lat="44.14739" lon="4.24783">
        <ele>210.67</ele>
        <time>2011-12-28T12:58:41Z</time>
      </trkpt>
      <trkpt lat="44.14735" lon="4.24793">
        <ele>212.11</ele>
        <time>2011-12-28T12:58:44Z</time>
      </trkpt>
      <trkpt lat="44.14729" lon="4.24812">
        <ele>213.55</ele>
        <time>2011-12-28T12:58:53Z</time>
      </trkpt>
      <trkpt lat="44.14724" lon="4.24834">
        <ele>215.47</ele>
        <time>2011-12-28T12:59:00Z</time>
      </trkpt>
      <trkpt lat="44.14725" lon="4.24843">
        <ele>216.91</ele>
        <time>2011-12-28T12:59:03Z</time>
      </trkpt>
      <trkpt lat="44.14727" lon="4.24846">
        <ele>215.95</ele>
        <time>2011-12-28T12:59:04Z</time>
      </trkpt>
      <trkpt lat="44.14729" lon="4.24848">
        <ele>217.4</ele>
        <time>2011-12-28T12:59:05Z</time>
      </trkpt>
      <trkpt lat="44.14746" lon="4.24857">
        <ele>220.76</ele>
        <time>2011-12-28T12:59:14Z</time>
      </trkpt>
      <trkpt lat="44.14766" lon="4.24871">
        <ele>224.12</ele>
        <time>2011-12-28T12:59:26Z</time>
      </trkpt>
      <trkpt lat="44.14784" lon="4.24886">
        <ele>227.49</ele>
        <time>2011-12-28T12:59:38Z</time>
      </trkpt>
      <trkpt lat="44.14805" lon="4.24896">
        <ele>229.41</ele>
        <time>2011-12-28T12:59:51Z</time>
      </trkpt>
      <trkpt lat="44.14821" lon="4.24926">
        <ele>231.81</ele>
        <time>2011-12-28T13:00:06Z</time>
      </trkpt>
      <trkpt lat="44.14811" lon="4.24945">
        <ele>235.18</ele>
        <time>2011-12-28T13:00:15Z</time>
      </trkpt>
      <trkpt lat="44.14802" lon="4.2495">
        <ele>235.66</ele>
        <time>2011-12-28T13:00:21Z</time>
      </trkpt>
      <trkpt lat="44.148" lon="4.24952">
        <ele>235.66</ele>
        <time>2011-12-28T13:00:22Z</time>
      </trkpt>
      <trkpt lat="44.14799" lon="4.24954">
        <ele>236.14</ele>
        <time>2011-12-28T13:00:23Z</time>
      </trkpt>
      <trkpt lat="44.14797" lon="4.24956">
        <ele>236.62</ele>
        <time>2011-12-28T13:00:24Z</time>
      </trkpt>
      <trkpt lat="44.14796" lon="4.24958">
        <ele>236.14</ele>
        <time>2011-12-28T13:00:25Z</time>
      </trkpt>
      <trkpt lat="44.14794" lon="4.2496">
        <ele>236.62</ele>
        <time>2011-12-28T13:00:26Z</time>
      </trkpt>
      <trkpt lat="44.14782" lon="4.24983">
        <ele>239.51</ele>
        <time>2011-12-28T13:00:35Z</time>
      </trkpt>
      <trkpt lat="44.1477" lon="4.24992">
        <ele>240.47</ele>
        <time>2011-12-28T13:00:41Z</time>
      </trkpt>
      <trkpt lat="44.14768" lon="4.24992">
        <ele>240.47</ele>
        <time>2011-12-28T13:00:42Z</time>
      </trkpt>
      <trkpt lat="44.14766" lon="4.24992">
        <ele>240.47</ele>
        <time>2011-12-28T13:00:43Z</time>
      </trkpt>
      <trkpt lat="44.14764" lon="4.24992">
        <ele>240.95</ele>
        <time>2011-12-28T13:00:44Z</time>
      </trkpt>
      <trkpt lat="44.14761" lon="4.24992">
        <ele>240.95</ele>
        <time>2011-12-28T13:00:45Z</time>
      </trkpt>
      <trkpt lat="44.14719" lon="4.24999">
        <ele>240.95</ele>
        <time>2011-12-28T13:01:01Z</time>
      </trkpt>
      <trkpt lat="44.14682" lon="4.25013">
        <ele>240.47</ele>
        <time>2011-12-28T13:01:13Z</time>
      </trkpt>
      <trkpt lat="44.14676" lon="4.25062">
        <ele>243.35</ele>
        <time>2011-12-28T13:01:25Z</time>
      </trkpt>
      <trkpt lat="44.14674" lon="4.25105">
        <ele>244.79</ele>
        <time>2011-12-28T13:01:38Z</time>
      </trkpt>
      <trkpt lat="44.14673" lon="4.25115">
        <ele>245.27</ele>
        <time>2011-12-28T13:01:45Z</time>
      </trkpt>
      <trkpt lat="44.14668" lon="4.25123">
        <ele>244.79</ele>
        <time>2011-12-28T13:01:58Z</time>
      </trkpt>
      <trkpt lat="44.14668" lon="4.25124">
        <ele>244.31</ele>
        <time>2011-12-28T13:02:24Z</time>
      </trkpt>
      <trkpt lat="44.14668" lon="4.25124">
        <ele>244.31</ele>
        <time>2011-12-28T13:02:46Z</time>
      </trkpt>
      <trkpt lat="44.14668" lon="4.25124">
        <ele>244.31</ele>
        <time>2011-12-28T13:03:08Z</time>
      </trkpt>
      <trkpt lat="44.14668" lon="4.25124">
        <ele>244.31</ele>
        <time>2011-12-28T13:03:38Z</time>
      </trkpt>
      <trkpt lat="44.14668" lon="4.25123">
        <ele>243.83</ele>
        <time>2011-12-28T13:04:10Z</time>
      </trkpt>
      <trkpt lat="44.14669" lon="4.25124">
        <ele>244.31</ele>
        <time>2011-12-28T13:04:32Z</time>
      </trkpt>
      <trkpt lat="44.14655" lon="4.25162">
        <ele>245.27</ele>
        <time>2011-12-28T13:04:41Z</time>
      </trkpt>
      <trkpt lat="44.14653" lon="4.25221">
        <ele>247.68</ele>
        <time>2011-12-28T13:04:55Z</time>
      </trkpt>
      <trkpt lat="44.14668" lon="4.25271">
        <ele>250.56</ele>
        <time>2011-12-28T13:05:08Z</time>
      </trkpt>
      <trkpt lat="44.14692" lon="4.25321">
        <ele>251.52</ele>
        <time>2011-12-28T13:05:21Z</time>
      </trkpt>
      <trkpt lat="44.14695" lon="4.25359">
        <ele>252.96</ele>
        <time>2011-12-28T13:05:32Z</time>
      </trkpt>
      <trkpt lat="44.14698" lon="4.25396">
        <ele>255.85</ele>
        <time>2011-12-28T13:05:43Z</time>
      </trkpt>
      <trkpt lat="44.14698" lon="4.25441">
        <ele>258.25</ele>
        <time>2011-12-28T13:05:58Z</time>
      </trkpt>
      <trkpt lat="44.14699" lon="4.25469">
        <ele>261.62</ele>
        <time>2011-12-28T13:06:10Z</time>
      </trkpt>
      <trkpt lat="44.14701" lon="4.25505">
        <ele>264.5</ele>
        <time>2011-12-28T13:06:23Z</time>
      </trkpt>
      <trkpt lat="44.14703" lon="4.25551">
        <ele>266.9</ele>
        <time>2011-12-28T13:06:39Z</time>
      </trkpt>
      <trkpt lat="44.14705" lon="4.25595">
        <ele>269.79</ele>
        <time>2011-12-28T13:06:54Z</time>
      </trkpt>
      <trkpt lat="44.14704" lon="4.25649">
        <ele>271.71</ele>
        <time>2011-12-28T13:07:13Z</time>
      </trkpt>
      <trkpt lat="44.14703" lon="4.25699">
        <ele>274.11</ele>
        <time>2011-12-28T13:07:30Z</time>
      </trkpt>
      <trkpt lat="44.14703" lon="4.25744">
        <ele>276.52</ele>
        <time>2011-12-28T13:07:47Z</time>
      </trkpt>
      <trkpt lat="44.14689" lon="4.25778">
        <ele>279.4</ele>
        <time>2011-12-28T13:08:02Z</time>
      </trkpt>
      <trkpt lat="44.14694" lon="4.25813">
        <ele>281.32</ele>
        <time>2011-12-28T13:08:17Z</time>
      </trkpt>
      <trkpt lat="44.14696" lon="4.25843">
        <ele>284.69</ele>
        <time>2011-12-28T13:08:30Z</time>
      </trkpt>
      <trkpt lat="44.1469" lon="4.25869">
        <ele>286.13</ele>
        <time>2011-12-28T13:08:43Z</time>
      </trkpt>
      <trkpt lat="44.1468" lon="4.25893">
        <ele>288.05</ele>
        <time>2011-12-28T13:08:56Z</time>
      </trkpt>
      <trkpt lat="44.14679" lon="4.25895">
        <ele>289.01</ele>
        <time>2011-12-28T13:08:57Z</time>
      </trkpt>
      <trkpt lat="44.14679" lon="4.25897">
        <ele>289.01</ele>
        <time>2011-12-28T13:08:58Z</time>
      </trkpt>
      <trkpt lat="44.14679" lon="4.259">
        <ele>289.01</ele>
        <time>2011-12-28T13:08:59Z</time>
      </trkpt>
      <trkpt lat="44.14678" lon="4.25902">
        <ele>289.49</ele>
        <time>2011-12-28T13:09:00Z</time>
      </trkpt>
      <trkpt lat="44.14678" lon="4.25904">
        <ele>289.49</ele>
        <time>2011-12-28T13:09:01Z</time>
      </trkpt>
      <trkpt lat="44.14675" lon="4.25934">
        <ele>292.38</ele>
        <time>2011-12-28T13:09:14Z</time>
      </trkpt>
      <trkpt lat="44.14668" lon="4.25969">
        <ele>295.26</ele>
        <time>2011-12-28T13:09:30Z</time>
      </trkpt>
      <trkpt lat="44.14666" lon="4.25975">
        <ele>295.26</ele>
        <time>2011-12-28T13:09:34Z</time>
      </trkpt>
      <trkpt lat="44.14666" lon="4.25976">
        <ele>295.26</ele>
        <time>2011-12-28T13:09:35Z</time>
      </trkpt>
      <trkpt lat="44.14667" lon="4.25978">
        <ele>295.74</ele>
        <time>2011-12-28T13:09:36Z</time>
      </trkpt>
      <trkpt lat="44.14667" lon="4.25979">
        <ele>295.26</ele>
        <time>2011-12-28T13:09:52Z</time>
      </trkpt>
      <trkpt lat="44.14668" lon="4.25983">
        <ele>295.74</ele>
        <time>2011-12-28T13:10:07Z</time>
      </trkpt>
      <trkpt lat="44.14668" lon="4.25983">
        <ele>295.26</ele>
        <time>2011-12-28T13:10:30Z</time>
      </trkpt>
      <trkpt lat="44.14668" lon="4.25983">
        <ele>295.26</ele>
        <time>2011-12-28T13:11:07Z</time>
      </trkpt>
      <trkpt lat="44.14668" lon="4.25983">
        <ele>295.26</ele>
        <time>2011-12-28T13:11:44Z</time>
      </trkpt>
      <trkpt lat="44.14669" lon="4.25986">
        <ele>295.26</ele>
        <time>2011-12-28T13:12:02Z</time>
      </trkpt>
      <trkpt lat="44.1467" lon="4.25991">
        <ele>294.78</ele>
        <time>2011-12-28T13:12:04Z</time>
      </trkpt>
      <trkpt lat="44.1467" lon="4.25994">
        <ele>295.26</ele>
        <time>2011-12-28T13:12:05Z</time>
      </trkpt>
      <trkpt lat="44.1467" lon="4.25997">
        <ele>294.78</ele>
        <time>2011-12-28T13:12:06Z</time>
      </trkpt>
      <trkpt lat="44.1467" lon="4.26">
        <ele>295.26</ele>
        <time>2011-12-28T13:12:07Z</time>
      </trkpt>
      <trkpt lat="44.1467" lon="4.26003">
        <ele>295.74</ele>
        <time>2011-12-28T13:12:08Z</time>
      </trkpt>
      <trkpt lat="44.1467" lon="4.26006">
        <ele>295.26</ele>
        <time>2011-12-28T13:12:09Z</time>
      </trkpt>
      <trkpt lat="44.1467" lon="4.26009">
        <ele>295.26</ele>
        <time>2011-12-28T13:12:10Z</time>
      </trkpt>
      <trkpt lat="44.1467" lon="4.26057">
        <ele>299.11</ele>
        <time>2011-12-28T13:12:25Z</time>
      </trkpt>
      <trkpt lat="44.14659" lon="4.26095">
        <ele>301.51</ele>
        <time>2011-12-28T13:12:38Z</time>
      </trkpt>
      <trkpt lat="44.14648" lon="4.26119">
        <ele>303.91</ele>
        <time>2011-12-28T13:12:48Z</time>
      </trkpt>
      <trkpt lat="44.14641" lon="4.26139">
        <ele>305.36</ele>
        <time>2011-12-28T13:13:00Z</time>
      </trkpt>
      <trkpt lat="44.14637" lon="4.26162">
        <ele>307.76</ele>
        <time>2011-12-28T13:13:10Z</time>
      </trkpt>
      <trkpt lat="44.14637" lon="4.26165">
        <ele>308.72</ele>
        <time>2011-12-28T13:13:24Z</time>
      </trkpt>
      <trkpt lat="44.14637" lon="4.26165">
        <ele>308.24</ele>
        <time>2011-12-28T13:13:45Z</time>
      </trkpt>
      <trkpt lat="44.14637" lon="4.26165">
        <ele>308.24</ele>
        <time>2011-12-28T13:13:51Z</time>
      </trkpt>
      <trkpt lat="44.14637" lon="4.26168">
        <ele>308.24</ele>
        <time>2011-12-28T13:13:54Z</time>
      </trkpt>
      <trkpt lat="44.14635" lon="4.2618">
        <ele>309.68</ele>
        <time>2011-12-28T13:13:59Z</time>
      </trkpt>
      <trkpt lat="44.14634" lon="4.26184">
        <ele>310.64</ele>
        <time>2011-12-28T13:14:01Z</time>
      </trkpt>
      <trkpt lat="44.14632" lon="4.26196">
        <ele>311.6</ele>
        <time>2011-12-28T13:14:07Z</time>
      </trkpt>
      <trkpt lat="44.14626" lon="4.26225">
        <ele>314.49</ele>
        <time>2011-12-28T13:14:19Z</time>
      </trkpt>
      <trkpt lat="44.14615" lon="4.26254">
        <ele>316.41</ele>
        <time>2011-12-28T13:14:33Z</time>
      </trkpt>
      <trkpt lat="44.14605" lon="4.26296">
        <ele>318.33</ele>
        <time>2011-12-28T13:14:50Z</time>
      </trkpt>
      <trkpt lat="44.14611" lon="4.26337">
        <ele>319.3</ele>
        <time>2011-12-28T13:15:03Z</time>
      </trkpt>
      <trkpt lat="44.14631" lon="4.26364">
        <ele>321.22</ele>
        <time>2011-12-28T13:15:16Z</time>
      </trkpt>
      <trkpt lat="44.14644" lon="4.26373">
        <ele>322.66</ele>
        <time>2011-12-28T13:15:25Z</time>
      </trkpt>
      <trkpt lat="44.14649" lon="4.26376">
        <ele>323.14</ele>
        <time>2011-12-28T13:15:28Z</time>
      </trkpt>
      <trkpt lat="44.14659" lon="4.2638">
        <ele>324.58</ele>
        <time>2011-12-28T13:15:34Z</time>
      </trkpt>
      <trkpt lat="44.14688" lon="4.2639">
        <ele>326.5</ele>
        <time>2011-12-28T13:15:50Z</time>
      </trkpt>
      <trkpt lat="44.14691" lon="4.26392">
        <ele>326.5</ele>
        <time>2011-12-28T13:15:52Z</time>
      </trkpt>
      <trkpt lat="44.147" lon="4.26411">
        <ele>327.47</ele>
        <time>2011-12-28T13:16:01Z</time>
      </trkpt>
      <trkpt lat="44.14701" lon="4.26414">
        <ele>327.47</ele>
        <time>2011-12-28T13:16:18Z</time>
      </trkpt>
      <trkpt lat="44.14701" lon="4.26413">
        <ele>326.99</ele>
        <time>2011-12-28T13:16:53Z</time>
      </trkpt>
      <trkpt lat="44.14701" lon="4.26413">
        <ele>327.47</ele>
        <time>2011-12-28T13:17:23Z</time>
      </trkpt>
      <trkpt lat="44.14706" lon="4.26433">
        <ele>327.95</ele>
        <time>2011-12-28T13:17:34Z</time>
      </trkpt>
      <trkpt lat="44.14715" lon="4.2648">
        <ele>327.47</ele>
        <time>2011-12-28T13:17:47Z</time>
      </trkpt>
      <trkpt lat="44.14724" lon="4.26516">
        <ele>330.35</ele>
        <time>2011-12-28T13:17:58Z</time>
      </trkpt>
      <trkpt lat="44.14733" lon="4.26544">
        <ele>334.2</ele>
        <time>2011-12-28T13:18:08Z</time>
      </trkpt>
      <trkpt lat="44.14741" lon="4.26561">
        <ele>336.12</ele>
        <time>2011-12-28T13:18:14Z</time>
      </trkpt>
      <trkpt lat="44.14751" lon="4.26573">
        <ele>338.52</ele>
        <time>2011-12-28T13:18:19Z</time>
      </trkpt>
      <trkpt lat="44.14769" lon="4.26589">
        <ele>341.89</ele>
        <time>2011-12-28T13:18:27Z</time>
      </trkpt>
      <trkpt lat="44.14777" lon="4.26618">
        <ele>345.25</ele>
        <time>2011-12-28T13:18:37Z</time>
      </trkpt>
      <trkpt lat="44.14774" lon="4.26662">
        <ele>347.17</ele>
        <time>2011-12-28T13:18:50Z</time>
      </trkpt>
      <trkpt lat="44.14796" lon="4.26704">
        <ele>348.13</ele>
        <time>2011-12-28T13:19:02Z</time>
      </trkpt>
      <trkpt lat="44.14803" lon="4.26729">
        <ele>351.5</ele>
        <time>2011-12-28T13:19:09Z</time>
      </trkpt>
      <trkpt lat="44.14805" lon="4.26735">
        <ele>351.98</ele>
        <time>2011-12-28T13:19:11Z</time>
      </trkpt>
      <trkpt lat="44.14807" lon="4.26745">
        <ele>353.42</ele>
        <time>2011-12-28T13:19:14Z</time>
      </trkpt>
      <trkpt lat="44.14809" lon="4.26752">
        <ele>354.38</ele>
        <time>2011-12-28T13:19:16Z</time>
      </trkpt>
      <trkpt lat="44.14815" lon="4.26775">
        <ele>356.31</ele>
        <time>2011-12-28T13:19:23Z</time>
      </trkpt>
      <trkpt lat="44.14831" lon="4.26803">
        <ele>359.67</ele>
        <time>2011-12-28T13:19:34Z</time>
      </trkpt>
      <trkpt lat="44.1484" lon="4.2681">
        <ele>361.11</ele>
        <time>2011-12-28T13:19:39Z</time>
      </trkpt>
      <trkpt lat="44.14843" lon="4.26818">
        <ele>361.59</ele>
        <time>2011-12-28T13:19:42Z</time>
      </trkpt>
      <trkpt lat="44.14837" lon="4.26825">
        <ele>363.52</ele>
        <time>2011-12-28T13:19:47Z</time>
      </trkpt>
      <trkpt lat="44.14812" lon="4.26838">
        <ele>365.44</ele>
        <time>2011-12-28T13:20:00Z</time>
      </trkpt>
      <trkpt lat="44.14807" lon="4.26869">
        <ele>368.8</ele>
        <time>2011-12-28T13:20:12Z</time>
      </trkpt>
      <trkpt lat="44.14811" lon="4.26905">
        <ele>371.69</ele>
        <time>2011-12-28T13:20:25Z</time>
      </trkpt>
      <trkpt lat="44.14816" lon="4.26922">
        <ele>373.61</ele>
        <time>2011-12-28T13:20:32Z</time>
      </trkpt>
      <trkpt lat="44.14823" lon="4.26934">
        <ele>375.05</ele>
        <time>2011-12-28T13:20:38Z</time>
      </trkpt>
      <trkpt lat="44.14848" lon="4.26952">
        <ele>378.42</ele>
        <time>2011-12-28T13:20:51Z</time>
      </trkpt>
      <trkpt lat="44.1488" lon="4.26956">
        <ele>378.9</ele>
        <time>2011-12-28T13:21:06Z</time>
      </trkpt>
      <trkpt lat="44.14906" lon="4.26959">
        <ele>379.86</ele>
        <time>2011-12-28T13:21:18Z</time>
      </trkpt>
      <trkpt lat="44.14915" lon="4.26959">
        <ele>379.38</ele>
        <time>2011-12-28T13:21:23Z</time>
      </trkpt>
      <trkpt lat="44.14927" lon="4.26958">
        <ele>380.34</ele>
        <time>2011-12-28T13:21:38Z</time>
      </trkpt>
      <trkpt lat="44.14928" lon="4.26957">
        <ele>380.34</ele>
        <time>2011-12-28T13:21:57Z</time>
      </trkpt>
      <trkpt lat="44.14928" lon="4.26957">
        <ele>379.86</ele>
        <time>2011-12-28T13:22:07Z</time>
      </trkpt>
      <trkpt lat="44.14938" lon="4.26955">
        <ele>381.78</ele>
        <time>2011-12-28T13:22:12Z</time>
      </trkpt>
      <trkpt lat="44.14977" lon="4.26949">
        <ele>384.18</ele>
        <time>2011-12-28T13:22:27Z</time>
      </trkpt>
      <trkpt lat="44.15015" lon="4.26955">
        <ele>386.11</ele>
        <time>2011-12-28T13:22:42Z</time>
      </trkpt>
      <trkpt lat="44.1504" lon="4.26969">
        <ele>386.59</ele>
        <time>2011-12-28T13:22:54Z</time>
      </trkpt>
      <trkpt lat="44.15077" lon="4.26992">
        <ele>388.03</ele>
        <time>2011-12-28T13:23:10Z</time>
      </trkpt>
      <trkpt lat="44.15096" lon="4.2702">
        <ele>392.36</ele>
        <time>2011-12-28T13:23:22Z</time>
      </trkpt>
      <trkpt lat="44.15098" lon="4.27026">
        <ele>388.99</ele>
        <time>2011-12-28T13:23:24Z</time>
      </trkpt>
      <trkpt lat="44.15099" lon="4.27028">
        <ele>393.32</ele>
        <time>2011-12-28T13:23:25Z</time>
      </trkpt>
      <trkpt lat="44.151" lon="4.27031">
        <ele>388.99</ele>
        <time>2011-12-28T13:23:26Z</time>
      </trkpt>
      <trkpt lat="44.15101" lon="4.27034">
        <ele>398.12</ele>
        <time>2011-12-28T13:23:27Z</time>
      </trkpt>
      <trkpt lat="44.15102" lon="4.27036">
        <ele>390.91</ele>
        <time>2011-12-28T13:23:28Z</time>
      </trkpt>
      <trkpt lat="44.15121" lon="4.27081">
        <ele>392.36</ele>
        <time>2011-12-28T13:23:44Z</time>
      </trkpt>
      <trkpt lat="44.15141" lon="4.27112">
        <ele>393.8</ele>
        <time>2011-12-28T13:23:57Z</time>
      </trkpt>
      <trkpt lat="44.15176" lon="4.27101">
        <ele>393.8</ele>
        <time>2011-12-28T13:24:09Z</time>
      </trkpt>
      <trkpt lat="44.15213" lon="4.27084">
        <ele>392.84</ele>
        <time>2011-12-28T13:24:21Z</time>
      </trkpt>
      <trkpt lat="44.1522" lon="4.27082">
        <ele>393.32</ele>
        <time>2011-12-28T13:24:26Z</time>
      </trkpt>
      <trkpt lat="44.15218" lon="4.27079">
        <ele>392.36</ele>
        <time>2011-12-28T13:24:36Z</time>
      </trkpt>
      <trkpt lat="44.15217" lon="4.2708">
        <ele>392.36</ele>
        <time>2011-12-28T13:24:47Z</time>
      </trkpt>
      <trkpt lat="44.15217" lon="4.2708">
        <ele>392.84</ele>
        <time>2011-12-28T13:24:50Z</time>
      </trkpt>
      <trkpt lat="44.15211" lon="4.27082">
        <ele>392.36</ele>
        <time>2011-12-28T13:24:54Z</time>
      </trkpt>
      <trkpt lat="44.15171" lon="4.27104">
        <ele>393.32</ele>
        <time>2011-12-28T13:25:06Z</time>
      </trkpt>
      <trkpt lat="44.15163" lon="4.27108">
        <ele>393.8</ele>
        <time>2011-12-28T13:25:08Z</time>
      </trkpt>
      <trkpt lat="44.15158" lon="4.2711">
        <ele>393.8</ele>
        <time>2011-12-28T13:25:09Z</time>
      </trkpt>
      <trkpt lat="44.15154" lon="4.27111">
        <ele>393.8</ele>
        <time>2011-12-28T13:25:10Z</time>
      </trkpt>
      <trkpt lat="44.1515" lon="4.27112">
        <ele>394.28</ele>
        <time>2011-12-28T13:25:11Z</time>
      </trkpt>
      <trkpt lat="44.15146" lon="4.27112">
        <ele>394.76</ele>
        <time>2011-12-28T13:25:12Z</time>
      </trkpt>
      <trkpt lat="44.15143" lon="4.27111">
        <ele>394.28</ele>
        <time>2011-12-28T13:25:13Z</time>
      </trkpt>
      <trkpt lat="44.15138" lon="4.27108">
        <ele>394.28</ele>
        <time>2011-12-28T13:25:14Z</time>
      </trkpt>
      <trkpt lat="44.15135" lon="4.27105">
        <ele>394.28</ele>
        <time>2011-12-28T13:25:15Z</time>
      </trkpt>
      <trkpt lat="44.15131" lon="4.271">
        <ele>393.8</ele>
        <time>2011-12-28T13:25:16Z</time>
      </trkpt>
      <trkpt lat="44.15128" lon="4.27094">
        <ele>393.8</ele>
        <time>2011-12-28T13:25:17Z</time>
      </trkpt>
      <trkpt lat="44.15125" lon="4.27086">
        <ele>392.84</ele>
        <time>2011-12-28T13:25:18Z</time>
      </trkpt>
      <trkpt lat="44.15122" lon="4.27078">
        <ele>393.32</ele>
        <time>2011-12-28T13:25:19Z</time>
      </trkpt>
      <trkpt lat="44.15094" lon="4.27011">
        <ele>389.95</ele>
        <time>2011-12-28T13:25:28Z</time>
      </trkpt>
      <trkpt lat="44.1509" lon="4.27006">
        <ele>388.99</ele>
        <time>2011-12-28T13:25:29Z</time>
      </trkpt>
      <trkpt lat="44.15087" lon="4.27001">
        <ele>388.99</ele>
        <time>2011-12-28T13:25:30Z</time>
      </trkpt>
      <trkpt lat="44.15084" lon="4.26996">
        <ele>388.51</ele>
        <time>2011-12-28T13:25:31Z</time>
      </trkpt>
      <trkpt lat="44.15079" lon="4.26991">
        <ele>388.51</ele>
        <time>2011-12-28T13:25:32Z</time>
      </trkpt>
      <trkpt lat="44.15074" lon="4.26987">
        <ele>388.51</ele>
        <time>2011-12-28T13:25:33Z</time>
      </trkpt>
      <trkpt lat="44.15065" lon="4.2698">
        <ele>388.03</ele>
        <time>2011-12-28T13:25:35Z</time>
      </trkpt>
      <trkpt lat="44.15055" lon="4.26975">
        <ele>387.55</ele>
        <time>2011-12-28T13:25:37Z</time>
      </trkpt>
      <trkpt lat="44.1505" lon="4.26972">
        <ele>387.55</ele>
        <time>2011-12-28T13:25:38Z</time>
      </trkpt>
      <trkpt lat="44.15019" lon="4.26956">
        <ele>386.11</ele>
        <time>2011-12-28T13:25:46Z</time>
      </trkpt>
      <trkpt lat="44.15004" lon="4.2695">
        <ele>385.63</ele>
        <time>2011-12-28T13:25:52Z</time>
      </trkpt>
      <trkpt lat="44.15004" lon="4.26952">
        <ele>385.63</ele>
        <time>2011-12-28T13:25:58Z</time>
      </trkpt>
      <trkpt lat="44.15038" lon="4.26966">
        <ele>386.59</ele>
        <time>2011-12-28T13:26:08Z</time>
      </trkpt>
      <trkpt lat="44.15068" lon="4.26982">
        <ele>387.55</ele>
        <time>2011-12-28T13:26:18Z</time>
      </trkpt>
      <trkpt lat="44.15082" lon="4.26995">
        <ele>382.74</ele>
        <time>2011-12-28T13:26:23Z</time>
      </trkpt>
      <trkpt lat="44.15085" lon="4.26998">
        <ele>390.91</ele>
        <time>2011-12-28T13:26:24Z</time>
      </trkpt>
      <trkpt lat="44.15106" lon="4.27044">
        <ele>390.43</ele>
        <time>2011-12-28T13:26:37Z</time>
      </trkpt>
      <trkpt lat="44.15118" lon="4.27071">
        <ele>391.39</ele>
        <time>2011-12-28T13:26:50Z</time>
      </trkpt>
      <trkpt lat="44.15118" lon="4.27074">
        <ele>391.39</ele>
        <time>2011-12-28T13:27:10Z</time>
      </trkpt>
      <trkpt lat="44.15123" lon="4.27089">
        <ele>391.39</ele>
        <time>2011-12-28T13:27:24Z</time>
      </trkpt>
      <trkpt lat="44.15125" lon="4.27092">
        <ele>391.39</ele>
        <time>2011-12-28T13:27:28Z</time>
      </trkpt>
      <trkpt lat="44.15132" lon="4.27104">
        <ele>393.8</ele>
        <time>2011-12-28T13:27:41Z</time>
      </trkpt>
      <trkpt lat="44.15134" lon="4.27109">
        <ele>393.8</ele>
        <time>2011-12-28T13:27:44Z</time>
      </trkpt>
      <trkpt lat="44.15143" lon="4.27114">
        <ele>394.28</ele>
        <time>2011-12-28T13:27:57Z</time>
      </trkpt>
      <trkpt lat="44.15146" lon="4.27114">
        <ele>393.8</ele>
        <time>2011-12-28T13:28:01Z</time>
      </trkpt>
      <trkpt lat="44.15147" lon="4.27115">
        <ele>393.8</ele>
        <time>2011-12-28T13:28:02Z</time>
      </trkpt>
      <trkpt lat="44.15167" lon="4.27108">
        <ele>393.32</ele>
        <time>2011-12-28T13:28:15Z</time>
      </trkpt>
      <trkpt lat="44.15196" lon="4.27091">
        <ele>391.87</ele>
        <time>2011-12-28T13:28:31Z</time>
      </trkpt>
      <trkpt lat="44.15204" lon="4.27085">
        <ele>392.36</ele>
        <time>2011-12-28T13:28:37Z</time>
      </trkpt>
      <trkpt lat="44.15206" lon="4.27085">
        <ele>392.36</ele>
        <time>2011-12-28T13:28:38Z</time>
      </trkpt>
      <trkpt lat="44.15207" lon="4.27084">
        <ele>391.87</ele>
        <time>2011-12-28T13:28:39Z</time>
      </trkpt>
      <trkpt lat="44.15208" lon="4.27084">
        <ele>392.36</ele>
        <time>2011-12-28T13:28:40Z</time>
      </trkpt>
      <trkpt lat="44.1521" lon="4.27083">
        <ele>392.36</ele>
        <time>2011-12-28T13:28:41Z</time>
      </trkpt>
      <trkpt lat="44.15211" lon="4.27082">
        <ele>391.87</ele>
        <time>2011-12-28T13:28:42Z</time>
      </trkpt>
      <trkpt lat="44.15214" lon="4.27081">
        <ele>392.36</ele>
        <time>2011-12-28T13:28:55Z</time>
      </trkpt>
      <trkpt lat="44.15214" lon="4.27081">
        <ele>391.87</ele>
        <time>2011-12-28T13:29:19Z</time>
      </trkpt>
      <trkpt lat="44.15214" lon="4.2708">
        <ele>391.39</ele>
        <time>2011-12-28T13:29:42Z</time>
      </trkpt>
      <trkpt lat="44.15214" lon="4.2708">
        <ele>391.87</ele>
        <time>2011-12-28T13:30:12Z</time>
      </trkpt>
      <trkpt lat="44.15214" lon="4.2708">
        <ele>391.87</ele>
        <time>2011-12-28T13:30:42Z</time>
      </trkpt>
      <trkpt lat="44.15214" lon="4.2708">
        <ele>392.84</ele>
        <time>2011-12-28T13:31:04Z</time>
      </trkpt>
      <trkpt lat="44.15214" lon="4.2708">
        <ele>391.39</ele>
        <time>2011-12-28T13:31:34Z</time>
      </trkpt>
      <trkpt lat="44.15214" lon="4.27081">
        <ele>392.36</ele>
        <time>2011-12-28T13:32:03Z</time>
      </trkpt>
      <trkpt lat="44.15214" lon="4.27081">
        <ele>391.87</ele>
        <time>2011-12-28T13:32:30Z</time>
      </trkpt>
      <trkpt lat="44.15214" lon="4.27082">
        <ele>392.36</ele>
        <time>2011-12-28T13:32:46Z</time>
      </trkpt>
      <trkpt lat="44.15215" lon="4.27082">
        <ele>392.36</ele>
        <time>2011-12-28T13:33:09Z</time>
      </trkpt>
      <trkpt lat="44.15217" lon="4.27083">
        <ele>392.84</ele>
        <time>2011-12-28T13:33:16Z</time>
      </trkpt>
      <trkpt lat="44.15219" lon="4.27083">
        <ele>392.84</ele>
        <time>2011-12-28T13:33:17Z</time>
      </trkpt>
      <trkpt lat="44.15224" lon="4.27091">
        <ele>391.39</ele>
        <time>2011-12-28T13:33:21Z</time>
      </trkpt>
      <trkpt lat="44.15225" lon="4.27097">
        <ele>391.39</ele>
        <time>2011-12-28T13:33:22Z</time>
      </trkpt>
      <trkpt lat="44.15226" lon="4.27105">
        <ele>390.43</ele>
        <time>2011-12-28T13:33:23Z</time>
      </trkpt>
      <trkpt lat="44.15227" lon="4.27114">
        <ele>389.95</ele>
        <time>2011-12-28T13:33:24Z</time>
      </trkpt>
      <trkpt lat="44.15229" lon="4.27123">
        <ele>388.99</ele>
        <time>2011-12-28T13:33:25Z</time>
      </trkpt>
      <trkpt lat="44.15231" lon="4.27141">
        <ele>388.03</ele>
        <time>2011-12-28T13:33:27Z</time>
      </trkpt>
      <trkpt lat="44.15236" lon="4.27167">
        <ele>386.11</ele>
        <time>2011-12-28T13:33:30Z</time>
      </trkpt>
      <trkpt lat="44.15236" lon="4.27187">
        <ele>386.11</ele>
        <time>2011-12-28T13:33:32Z</time>
      </trkpt>
      <trkpt lat="44.15233" lon="4.27208">
        <ele>385.15</ele>
        <time>2011-12-28T13:33:34Z</time>
      </trkpt>
      <trkpt lat="44.15225" lon="4.27293">
        <ele>381.78</ele>
        <time>2011-12-28T13:33:41Z</time>
      </trkpt>
      <trkpt lat="44.15224" lon="4.27336">
        <ele>381.78</ele>
        <time>2011-12-28T13:33:44Z</time>
      </trkpt>
      <trkpt lat="44.15224" lon="4.27351">
        <ele>381.3</ele>
        <time>2011-12-28T13:33:45Z</time>
      </trkpt>
      <trkpt lat="44.15222" lon="4.27364">
        <ele>380.34</ele>
        <time>2011-12-28T13:33:46Z</time>
      </trkpt>
      <trkpt lat="44.15219" lon="4.27376">
        <ele>379.86</ele>
        <time>2011-12-28T13:33:47Z</time>
      </trkpt>
      <trkpt lat="44.15215" lon="4.27387">
        <ele>380.34</ele>
        <time>2011-12-28T13:33:48Z</time>
      </trkpt>
      <trkpt lat="44.15212" lon="4.27397">
        <ele>379.38</ele>
        <time>2011-12-28T13:33:49Z</time>
      </trkpt>
      <trkpt lat="44.15208" lon="4.27405">
        <ele>378.42</ele>
        <time>2011-12-28T13:33:50Z</time>
      </trkpt>
      <trkpt lat="44.15206" lon="4.2741">
        <ele>377.45</ele>
        <time>2011-12-28T13:33:51Z</time>
      </trkpt>
      <trkpt lat="44.15205" lon="4.27414">
        <ele>377.45</ele>
        <time>2011-12-28T13:33:52Z</time>
      </trkpt>
      <trkpt lat="44.15206" lon="4.27416">
        <ele>376.49</ele>
        <time>2011-12-28T13:33:53Z</time>
      </trkpt>
      <trkpt lat="44.15209" lon="4.27417">
        <ele>376.01</ele>
        <time>2011-12-28T13:33:54Z</time>
      </trkpt>
      <trkpt lat="44.15211" lon="4.27416">
        <ele>376.49</ele>
        <time>2011-12-28T13:33:55Z</time>
      </trkpt>
      <trkpt lat="44.15214" lon="4.27413">
        <ele>376.49</ele>
        <time>2011-12-28T13:33:56Z</time>
      </trkpt>
      <trkpt lat="44.15216" lon="4.2741">
        <ele>376.01</ele>
        <time>2011-12-28T13:33:57Z</time>
      </trkpt>
      <trkpt lat="44.15217" lon="4.27407">
        <ele>375.05</ele>
        <time>2011-12-28T13:33:58Z</time>
      </trkpt>
      <trkpt lat="44.15218" lon="4.27404">
        <ele>375.53</ele>
        <time>2011-12-28T13:33:59Z</time>
      </trkpt>
      <trkpt lat="44.15219" lon="4.27401">
        <ele>375.53</ele>
        <time>2011-12-28T13:34:00Z</time>
      </trkpt>
      <trkpt lat="44.15226" lon="4.27385">
        <ele>374.57</ele>
        <time>2011-12-28T13:34:04Z</time>
      </trkpt>
      <trkpt lat="44.1524" lon="4.27342">
        <ele>373.13</ele>
        <time>2011-12-28T13:34:09Z</time>
      </trkpt>
      <trkpt lat="44.15243" lon="4.2733">
        <ele>372.17</ele>
        <time>2011-12-28T13:34:10Z</time>
      </trkpt>
      <trkpt lat="44.15244" lon="4.27318">
        <ele>371.21</ele>
        <time>2011-12-28T13:34:11Z</time>
      </trkpt>
      <trkpt lat="44.15244" lon="4.27305">
        <ele>371.21</ele>
        <time>2011-12-28T13:34:12Z</time>
      </trkpt>
      <trkpt lat="44.15245" lon="4.27293">
        <ele>370.73</ele>
        <time>2011-12-28T13:34:13Z</time>
      </trkpt>
      <trkpt lat="44.15247" lon="4.2728">
        <ele>369.76</ele>
        <time>2011-12-28T13:34:14Z</time>
      </trkpt>
      <trkpt lat="44.1525" lon="4.27269">
        <ele>369.76</ele>
        <time>2011-12-28T13:34:15Z</time>
      </trkpt>
      <trkpt lat="44.15268" lon="4.27212">
        <ele>367.36</ele>
        <time>2011-12-28T13:34:20Z</time>
      </trkpt>
      <trkpt lat="44.15281" lon="4.27162">
        <ele>364.48</ele>
        <time>2011-12-28T13:34:24Z</time>
      </trkpt>
      <trkpt lat="44.15283" lon="4.27149">
        <ele>363.52</ele>
        <time>2011-12-28T13:34:25Z</time>
      </trkpt>
      <trkpt lat="44.15286" lon="4.27126">
        <ele>362.55</ele>
        <time>2011-12-28T13:34:27Z</time>
      </trkpt>
      <trkpt lat="44.15289" lon="4.27117">
        <ele>361.59</ele>
        <time>2011-12-28T13:34:28Z</time>
      </trkpt>
      <trkpt lat="44.15293" lon="4.27109">
        <ele>361.11</ele>
        <time>2011-12-28T13:34:29Z</time>
      </trkpt>
      <trkpt lat="44.15299" lon="4.27103">
        <ele>360.63</ele>
        <time>2011-12-28T13:34:30Z</time>
      </trkpt>
      <trkpt lat="44.15305" lon="4.27097">
        <ele>360.63</ele>
        <time>2011-12-28T13:34:31Z</time>
      </trkpt>
      <trkpt lat="44.15311" lon="4.27089">
        <ele>359.67</ele>
        <time>2011-12-28T13:34:32Z</time>
      </trkpt>
      <trkpt lat="44.15317" lon="4.2708">
        <ele>359.19</ele>
        <time>2011-12-28T13:34:33Z</time>
      </trkpt>
      <trkpt lat="44.15323" lon="4.2707">
        <ele>358.23</ele>
        <time>2011-12-28T13:34:34Z</time>
      </trkpt>
      <trkpt lat="44.15329" lon="4.27058">
        <ele>356.79</ele>
        <time>2011-12-28T13:34:35Z</time>
      </trkpt>
      <trkpt lat="44.1534" lon="4.27035">
        <ele>355.34</ele>
        <time>2011-12-28T13:34:37Z</time>
      </trkpt>
      <trkpt lat="44.15351" lon="4.27012">
        <ele>354.38</ele>
        <time>2011-12-28T13:34:39Z</time>
      </trkpt>
      <trkpt lat="44.15369" lon="4.26979">
        <ele>352.94</ele>
        <time>2011-12-28T13:34:42Z</time>
      </trkpt>
      <trkpt lat="44.15393" lon="4.26935">
        <ele>349.1</ele>
        <time>2011-12-28T13:34:46Z</time>
      </trkpt>
      <trkpt lat="44.15401" lon="4.26927">
        <ele>349.1</ele>
        <time>2011-12-28T13:34:47Z</time>
      </trkpt>
      <trkpt lat="44.15411" lon="4.26921">
        <ele>348.13</ele>
        <time>2011-12-28T13:34:48Z</time>
      </trkpt>
      <trkpt lat="44.15422" lon="4.26916">
        <ele>346.69</ele>
        <time>2011-12-28T13:34:49Z</time>
      </trkpt>
      <trkpt lat="44.15433" lon="4.26912">
        <ele>346.21</ele>
        <time>2011-12-28T13:34:50Z</time>
      </trkpt>
      <trkpt lat="44.1547" lon="4.26891">
        <ele>341.89</ele>
        <time>2011-12-28T13:34:54Z</time>
      </trkpt>
      <trkpt lat="44.15478" lon="4.2689">
        <ele>340.92</ele>
        <time>2011-12-28T13:34:55Z</time>
      </trkpt>
      <trkpt lat="44.15496" lon="4.2689">
        <ele>338.04</ele>
        <time>2011-12-28T13:34:57Z</time>
      </trkpt>
      <trkpt lat="44.15504" lon="4.26887">
        <ele>337.56</ele>
        <time>2011-12-28T13:34:58Z</time>
      </trkpt>
      <trkpt lat="44.15512" lon="4.26883">
        <ele>337.08</ele>
        <time>2011-12-28T13:34:59Z</time>
      </trkpt>
      <trkpt lat="44.1555" lon="4.2686">
        <ele>335.64</ele>
        <time>2011-12-28T13:35:03Z</time>
      </trkpt>
      <trkpt lat="44.1556" lon="4.26857">
        <ele>335.16</ele>
        <time>2011-12-28T13:35:04Z</time>
      </trkpt>
      <trkpt lat="44.1557" lon="4.26855">
        <ele>334.2</ele>
        <time>2011-12-28T13:35:05Z</time>
      </trkpt>
      <trkpt lat="44.1558" lon="4.26852">
        <ele>333.71</ele>
        <time>2011-12-28T13:35:06Z</time>
      </trkpt>
      <trkpt lat="44.1559" lon="4.26847">
        <ele>333.71</ele>
        <time>2011-12-28T13:35:07Z</time>
      </trkpt>
      <trkpt lat="44.156" lon="4.2684">
        <ele>332.75</ele>
        <time>2011-12-28T13:35:08Z</time>
      </trkpt>
      <trkpt lat="44.15632" lon="4.26819">
        <ele>328.91</ele>
        <time>2011-12-28T13:35:11Z</time>
      </trkpt>
      <trkpt lat="44.15643" lon="4.26813">
        <ele>328.43</ele>
        <time>2011-12-28T13:35:12Z</time>
      </trkpt>
      <trkpt lat="44.15675" lon="4.26795">
        <ele>326.5</ele>
        <time>2011-12-28T13:35:15Z</time>
      </trkpt>
      <trkpt lat="44.15694" lon="4.26783">
        <ele>325.06</ele>
        <time>2011-12-28T13:35:17Z</time>
      </trkpt>
      <trkpt lat="44.157" lon="4.26775">
        <ele>325.54</ele>
        <time>2011-12-28T13:35:18Z</time>
      </trkpt>
      <trkpt lat="44.15706" lon="4.26765">
        <ele>325.06</ele>
        <time>2011-12-28T13:35:19Z</time>
      </trkpt>
      <trkpt lat="44.1571" lon="4.26754">
        <ele>324.58</ele>
        <time>2011-12-28T13:35:20Z</time>
      </trkpt>
      <trkpt lat="44.15714" lon="4.26742">
        <ele>323.14</ele>
        <time>2011-12-28T13:35:21Z</time>
      </trkpt>
      <trkpt lat="44.15728" lon="4.26703">
        <ele>320.26</ele>
        <time>2011-12-28T13:35:24Z</time>
      </trkpt>
      <trkpt lat="44.15738" lon="4.26676">
        <ele>319.3</ele>
        <time>2011-12-28T13:35:26Z</time>
      </trkpt>
      <trkpt lat="44.15765" lon="4.26599">
        <ele>315.93</ele>
        <time>2011-12-28T13:35:32Z</time>
      </trkpt>
      <trkpt lat="44.15787" lon="4.26537">
        <ele>312.09</ele>
        <time>2011-12-28T13:35:37Z</time>
      </trkpt>
      <trkpt lat="44.15807" lon="4.265">
        <ele>307.28</ele>
        <time>2011-12-28T13:35:40Z</time>
      </trkpt>
      <trkpt lat="44.15829" lon="4.26465">
        <ele>303.91</ele>
        <time>2011-12-28T13:35:43Z</time>
      </trkpt>
      <trkpt lat="44.15851" lon="4.26428">
        <ele>301.03</ele>
        <time>2011-12-28T13:35:46Z</time>
      </trkpt>
      <trkpt lat="44.15859" lon="4.26418">
        <ele>301.03</ele>
        <time>2011-12-28T13:35:47Z</time>
      </trkpt>
      <trkpt lat="44.15868" lon="4.26411">
        <ele>300.07</ele>
        <time>2011-12-28T13:35:48Z</time>
      </trkpt>
      <trkpt lat="44.15877" lon="4.26404">
        <ele>300.07</ele>
        <time>2011-12-28T13:35:49Z</time>
      </trkpt>
      <trkpt lat="44.15885" lon="4.26396">
        <ele>299.59</ele>
        <time>2011-12-28T13:35:50Z</time>
      </trkpt>
      <trkpt lat="44.15892" lon="4.26386">
        <ele>299.59</ele>
        <time>2011-12-28T13:35:51Z</time>
      </trkpt>
      <trkpt lat="44.15898" lon="4.26375">
        <ele>299.11</ele>
        <time>2011-12-28T13:35:52Z</time>
      </trkpt>
      <trkpt lat="44.15903" lon="4.26363">
        <ele>298.15</ele>
        <time>2011-12-28T13:35:53Z</time>
      </trkpt>
      <trkpt lat="44.15922" lon="4.26325">
        <ele>295.74</ele>
        <time>2011-12-28T13:35:56Z</time>
      </trkpt>
      <trkpt lat="44.15956" lon="4.26253">
        <ele>292.86</ele>
        <time>2011-12-28T13:36:02Z</time>
      </trkpt>
      <trkpt lat="44.15962" lon="4.26243">
        <ele>292.38</ele>
        <time>2011-12-28T13:36:03Z</time>
      </trkpt>
      <trkpt lat="44.15967" lon="4.26235">
        <ele>291.9</ele>
        <time>2011-12-28T13:36:04Z</time>
      </trkpt>
      <trkpt lat="44.15972" lon="4.2623">
        <ele>291.42</ele>
        <time>2011-12-28T13:36:05Z</time>
      </trkpt>
      <trkpt lat="44.15976" lon="4.26227">
        <ele>291.42</ele>
        <time>2011-12-28T13:36:06Z</time>
      </trkpt>
      <trkpt lat="44.15978" lon="4.26226">
        <ele>290.94</ele>
        <time>2011-12-28T13:36:07Z</time>
      </trkpt>
      <trkpt lat="44.1598" lon="4.26227">
        <ele>291.42</ele>
        <time>2011-12-28T13:36:08Z</time>
      </trkpt>
      <trkpt lat="44.15982" lon="4.26228">
        <ele>292.38</ele>
        <time>2011-12-28T13:36:09Z</time>
      </trkpt>
      <trkpt lat="44.15983" lon="4.26229">
        <ele>291.9</ele>
        <time>2011-12-28T13:36:10Z</time>
      </trkpt>
      <trkpt lat="44.15985" lon="4.26229">
        <ele>291.9</ele>
        <time>2011-12-28T13:36:11Z</time>
      </trkpt>
      <trkpt lat="44.15994" lon="4.2623">
        <ele>290.46</ele>
        <time>2011-12-28T13:36:24Z</time>
      </trkpt>
      <trkpt lat="44.15994" lon="4.2623">
        <ele>290.46</ele>
        <time>2011-12-28T13:36:49Z</time>
      </trkpt>
      <trkpt lat="44.15994" lon="4.2623">
        <ele>291.42</ele>
        <time>2011-12-28T13:37:11Z</time>
      </trkpt>
      <trkpt lat="44.15994" lon="4.2623">
        <ele>290.94</ele>
        <time>2011-12-28T13:37:37Z</time>
      </trkpt>
      <trkpt lat="44.15994" lon="4.2623">
        <ele>290.46</ele>
        <time>2011-12-28T13:38:03Z</time>
      </trkpt>
      <trkpt lat="44.15994" lon="4.26234">
        <ele>290.46</ele>
        <time>2011-12-28T13:38:16Z</time>
      </trkpt>
      <trkpt lat="44.15994" lon="4.26234">
        <ele>290.46</ele>
        <time>2011-12-28T13:38:35Z</time>
      </trkpt>
      <trkpt lat="44.15994" lon="4.26235">
        <ele>290.46</ele>
        <time>2011-12-28T13:38:56Z</time>
      </trkpt>
      <trkpt lat="44.15997" lon="4.2623">
        <ele>289.97</ele>
        <time>2011-12-28T13:39:09Z</time>
      </trkpt>
      <trkpt lat="44.15997" lon="4.2623">
        <ele>289.01</ele>
        <time>2011-12-28T13:39:40Z</time>
      </trkpt>
      <trkpt lat="44.15997" lon="4.26231">
        <ele>290.46</ele>
        <time>2011-12-28T13:40:00Z</time>
      </trkpt>
      <trkpt lat="44.15997" lon="4.26235">
        <ele>289.97</ele>
        <time>2011-12-28T13:40:19Z</time>
      </trkpt>
      <trkpt lat="44.15997" lon="4.26235">
        <ele>289.97</ele>
        <time>2011-12-28T13:40:27Z</time>
      </trkpt>
      <trkpt lat="44.15997" lon="4.26237">
        <ele>289.49</ele>
        <time>2011-12-28T13:40:28Z</time>
      </trkpt>
      <trkpt lat="44.15997" lon="4.26239">
        <ele>289.49</ele>
        <time>2011-12-28T13:40:29Z</time>
      </trkpt>
      <trkpt lat="44.15996" lon="4.26242">
        <ele>289.49</ele>
        <time>2011-12-28T13:40:30Z</time>
      </trkpt>
      <trkpt lat="44.15996" lon="4.26247">
        <ele>289.01</ele>
        <time>2011-12-28T13:40:31Z</time>
      </trkpt>
      <trkpt lat="44.15993" lon="4.26282">
        <ele>287.57</ele>
        <time>2011-12-28T13:40:36Z</time>
      </trkpt>
      <trkpt lat="44.15995" lon="4.26292">
        <ele>286.61</ele>
        <time>2011-12-28T13:40:37Z</time>
      </trkpt>
      <trkpt lat="44.15997" lon="4.26301">
        <ele>286.13</ele>
        <time>2011-12-28T13:40:38Z</time>
      </trkpt>
      <trkpt lat="44.16" lon="4.26307">
        <ele>285.17</ele>
        <time>2011-12-28T13:40:39Z</time>
      </trkpt>
      <trkpt lat="44.16003" lon="4.26309">
        <ele>285.17</ele>
        <time>2011-12-28T13:40:40Z</time>
      </trkpt>
      <trkpt lat="44.16006" lon="4.2631">
        <ele>285.17</ele>
        <time>2011-12-28T13:40:41Z</time>
      </trkpt>
      <trkpt lat="44.1601" lon="4.26309">
        <ele>285.65</ele>
        <time>2011-12-28T13:40:42Z</time>
      </trkpt>
      <trkpt lat="44.16014" lon="4.26308">
        <ele>286.61</ele>
        <time>2011-12-28T13:40:43Z</time>
      </trkpt>
      <trkpt lat="44.16017" lon="4.26306">
        <ele>287.57</ele>
        <time>2011-12-28T13:40:44Z</time>
      </trkpt>
      <trkpt lat="44.16047" lon="4.2629">
        <ele>289.97</ele>
        <time>2011-12-28T13:40:55Z</time>
      </trkpt>
      <trkpt lat="44.16077" lon="4.26255">
        <ele>291.42</ele>
        <time>2011-12-28T13:41:11Z</time>
      </trkpt>
      <trkpt lat="44.16106" lon="4.26236">
        <ele>294.78</ele>
        <time>2011-12-28T13:41:26Z</time>
      </trkpt>
      <trkpt lat="44.16127" lon="4.26208">
        <ele>297.18</ele>
        <time>2011-12-28T13:41:39Z</time>
      </trkpt>
      <trkpt lat="44.16151" lon="4.26192">
        <ele>300.07</ele>
        <time>2011-12-28T13:41:49Z</time>
      </trkpt>
      <trkpt lat="44.16155" lon="4.26191">
        <ele>300.07</ele>
        <time>2011-12-28T13:41:52Z</time>
      </trkpt>
      <trkpt lat="44.16156" lon="4.26191">
        <ele>300.07</ele>
        <time>2011-12-28T13:41:53Z</time>
      </trkpt>
      <trkpt lat="44.16158" lon="4.26192">
        <ele>300.07</ele>
        <time>2011-12-28T13:41:54Z</time>
      </trkpt>
      <trkpt lat="44.16159" lon="4.26192">
        <ele>300.55</ele>
        <time>2011-12-28T13:41:55Z</time>
      </trkpt>
      <trkpt lat="44.1616" lon="4.26192">
        <ele>299.59</ele>
        <time>2011-12-28T13:41:56Z</time>
      </trkpt>
      <trkpt lat="44.16162" lon="4.26191">
        <ele>300.55</ele>
        <time>2011-12-28T13:41:57Z</time>
      </trkpt>
      <trkpt lat="44.16163" lon="4.26191">
        <ele>300.55</ele>
        <time>2011-12-28T13:41:58Z</time>
      </trkpt>
      <trkpt lat="44.16172" lon="4.2619">
        <ele>301.03</ele>
        <time>2011-12-28T13:42:09Z</time>
      </trkpt>
      <trkpt lat="44.16172" lon="4.2619">
        <ele>301.99</ele>
        <time>2011-12-28T13:42:35Z</time>
      </trkpt>
      <trkpt lat="44.16176" lon="4.26186">
        <ele>301.03</ele>
        <time>2011-12-28T13:42:39Z</time>
      </trkpt>
      <trkpt lat="44.16177" lon="4.26185">
        <ele>301.03</ele>
        <time>2011-12-28T13:42:40Z</time>
      </trkpt>
      <trkpt lat="44.16178" lon="4.26184">
        <ele>301.99</ele>
        <time>2011-12-28T13:42:41Z</time>
      </trkpt>
      <trkpt lat="44.1618" lon="4.26183">
        <ele>301.51</ele>
        <time>2011-12-28T13:42:42Z</time>
      </trkpt>
      <trkpt lat="44.16181" lon="4.26182">
        <ele>301.03</ele>
        <time>2011-12-28T13:42:43Z</time>
      </trkpt>
      <trkpt lat="44.16212" lon="4.26169">
        <ele>301.99</ele>
        <time>2011-12-28T13:42:57Z</time>
      </trkpt>
      <trkpt lat="44.16225" lon="4.26165">
        <ele>301.99</ele>
        <time>2011-12-28T13:43:03Z</time>
      </trkpt>
      <trkpt lat="44.16227" lon="4.26165">
        <ele>301.99</ele>
        <time>2011-12-28T13:43:04Z</time>
      </trkpt>
      <trkpt lat="44.16228" lon="4.26164">
        <ele>301.99</ele>
        <time>2011-12-28T13:43:05Z</time>
      </trkpt>
      <trkpt lat="44.1623" lon="4.26163">
        <ele>302.47</ele>
        <time>2011-12-28T13:43:06Z</time>
      </trkpt>
      <trkpt lat="44.16233" lon="4.26163">
        <ele>301.99</ele>
        <time>2011-12-28T13:43:07Z</time>
      </trkpt>
      <trkpt lat="44.16235" lon="4.26163">
        <ele>301.99</ele>
        <time>2011-12-28T13:43:08Z</time>
      </trkpt>
      <trkpt lat="44.16259" lon="4.26164">
        <ele>302.95</ele>
        <time>2011-12-28T13:43:20Z</time>
      </trkpt>
      <trkpt lat="44.16293" lon="4.26171">
        <ele>305.84</ele>
        <time>2011-12-28T13:43:38Z</time>
      </trkpt>
      <trkpt lat="44.163" lon="4.26168">
        <ele>306.8</ele>
        <time>2011-12-28T13:43:44Z</time>
      </trkpt>
      <trkpt lat="44.16302" lon="4.26168">
        <ele>306.8</ele>
        <time>2011-12-28T13:43:45Z</time>
      </trkpt>
      <trkpt lat="44.16303" lon="4.26167">
        <ele>307.28</ele>
        <time>2011-12-28T13:43:46Z</time>
      </trkpt>
      <trkpt lat="44.16304" lon="4.26166">
        <ele>307.28</ele>
        <time>2011-12-28T13:43:47Z</time>
      </trkpt>
      <trkpt lat="44.16306" lon="4.26165">
        <ele>307.28</ele>
        <time>2011-12-28T13:43:48Z</time>
      </trkpt>
      <trkpt lat="44.16307" lon="4.26165">
        <ele>307.28</ele>
        <time>2011-12-28T13:43:49Z</time>
      </trkpt>
      <trkpt lat="44.16308" lon="4.26164">
        <ele>307.28</ele>
        <time>2011-12-28T13:43:50Z</time>
      </trkpt>
      <trkpt lat="44.16309" lon="4.26163">
        <ele>307.76</ele>
        <time>2011-12-28T13:43:51Z</time>
      </trkpt>
      <trkpt lat="44.16321" lon="4.26157">
        <ele>307.76</ele>
        <time>2011-12-28T13:43:59Z</time>
      </trkpt>
      <trkpt lat="44.16323" lon="4.26156">
        <ele>307.76</ele>
        <time>2011-12-28T13:44:00Z</time>
      </trkpt>
      <trkpt lat="44.16324" lon="4.26156">
        <ele>308.24</ele>
        <time>2011-12-28T13:44:01Z</time>
      </trkpt>
      <trkpt lat="44.16325" lon="4.26156">
        <ele>308.72</ele>
        <time>2011-12-28T13:44:02Z</time>
      </trkpt>
      <trkpt lat="44.16327" lon="4.26156">
        <ele>308.72</ele>
        <time>2011-12-28T13:44:03Z</time>
      </trkpt>
      <trkpt lat="44.16329" lon="4.26156">
        <ele>308.72</ele>
        <time>2011-12-28T13:44:04Z</time>
      </trkpt>
      <trkpt lat="44.1633" lon="4.26156">
        <ele>308.72</ele>
        <time>2011-12-28T13:44:05Z</time>
      </trkpt>
      <trkpt lat="44.16332" lon="4.26155">
        <ele>308.24</ele>
        <time>2011-12-28T13:44:06Z</time>
      </trkpt>
      <trkpt lat="44.16334" lon="4.26155">
        <ele>308.24</ele>
        <time>2011-12-28T13:44:07Z</time>
      </trkpt>
      <trkpt lat="44.16336" lon="4.26154">
        <ele>309.2</ele>
        <time>2011-12-28T13:44:08Z</time>
      </trkpt>
      <trkpt lat="44.16337" lon="4.26153">
        <ele>308.72</ele>
        <time>2011-12-28T13:44:09Z</time>
      </trkpt>
      <trkpt lat="44.16339" lon="4.26152">
        <ele>308.24</ele>
        <time>2011-12-28T13:44:10Z</time>
      </trkpt>
      <trkpt lat="44.16358" lon="4.26137">
        <ele>308.24</ele>
        <time>2011-12-28T13:44:24Z</time>
      </trkpt>
      <trkpt lat="44.16383" lon="4.26126">
        <ele>308.72</ele>
        <time>2011-12-28T13:44:36Z</time>
      </trkpt>
      <trkpt lat="44.16418" lon="4.261">
        <ele>306.8</ele>
        <time>2011-12-28T13:44:47Z</time>
      </trkpt>
      <trkpt lat="44.16422" lon="4.26096">
        <ele>305.84</ele>
        <time>2011-12-28T13:44:48Z</time>
      </trkpt>
      <trkpt lat="44.16425" lon="4.26092">
        <ele>305.36</ele>
        <time>2011-12-28T13:44:49Z</time>
      </trkpt>
      <trkpt lat="44.16429" lon="4.26087">
        <ele>305.36</ele>
        <time>2011-12-28T13:44:50Z</time>
      </trkpt>
      <trkpt lat="44.16432" lon="4.26082">
        <ele>305.36</ele>
        <time>2011-12-28T13:44:51Z</time>
      </trkpt>
      <trkpt lat="44.16442" lon="4.26064">
        <ele>303.91</ele>
        <time>2011-12-28T13:44:54Z</time>
      </trkpt>
      <trkpt lat="44.16448" lon="4.26051">
        <ele>302.95</ele>
        <time>2011-12-28T13:44:56Z</time>
      </trkpt>
      <trkpt lat="44.16452" lon="4.26045">
        <ele>302.47</ele>
        <time>2011-12-28T13:44:57Z</time>
      </trkpt>
      <trkpt lat="44.16456" lon="4.2604">
        <ele>301.51</ele>
        <time>2011-12-28T13:44:58Z</time>
      </trkpt>
      <trkpt lat="44.16459" lon="4.26036">
        <ele>301.03</ele>
        <time>2011-12-28T13:44:59Z</time>
      </trkpt>
      <trkpt lat="44.16462" lon="4.26032">
        <ele>300.55</ele>
        <time>2011-12-28T13:45:00Z</time>
      </trkpt>
      <trkpt lat="44.16469" lon="4.26011">
        <ele>297.67</ele>
        <time>2011-12-28T13:45:09Z</time>
      </trkpt>
      <trkpt lat="44.1647" lon="4.26007">
        <ele>297.67</ele>
        <time>2011-12-28T13:45:15Z</time>
      </trkpt>
      <trkpt lat="44.16471" lon="4.26004">
        <ele>297.67</ele>
        <time>2011-12-28T13:45:16Z</time>
      </trkpt>
      <trkpt lat="44.16472" lon="4.26">
        <ele>297.67</ele>
        <time>2011-12-28T13:45:17Z</time>
      </trkpt>
      <trkpt lat="44.16473" lon="4.25995">
        <ele>296.7</ele>
        <time>2011-12-28T13:45:18Z</time>
      </trkpt>
      <trkpt lat="44.16475" lon="4.25989">
        <ele>296.7</ele>
        <time>2011-12-28T13:45:19Z</time>
      </trkpt>
      <trkpt lat="44.16477" lon="4.25983">
        <ele>296.22</ele>
        <time>2011-12-28T13:45:20Z</time>
      </trkpt>
      <trkpt lat="44.16479" lon="4.25977">
        <ele>295.74</ele>
        <time>2011-12-28T13:45:21Z</time>
      </trkpt>
      <trkpt lat="44.16482" lon="4.25971">
        <ele>294.78</ele>
        <time>2011-12-28T13:45:22Z</time>
      </trkpt>
      <trkpt lat="44.16486" lon="4.25964">
        <ele>293.82</ele>
        <time>2011-12-28T13:45:23Z</time>
      </trkpt>
      <trkpt lat="44.16494" lon="4.25948">
        <ele>291.9</ele>
        <time>2011-12-28T13:45:25Z</time>
      </trkpt>
      <trkpt lat="44.16502" lon="4.25924">
        <ele>289.97</ele>
        <time>2011-12-28T13:45:28Z</time>
      </trkpt>
      <trkpt lat="44.16505" lon="4.25917">
        <ele>289.97</ele>
        <time>2011-12-28T13:45:29Z</time>
      </trkpt>
      <trkpt lat="44.16508" lon="4.25911">
        <ele>289.01</ele>
        <time>2011-12-28T13:45:30Z</time>
      </trkpt>
      <trkpt lat="44.1656" lon="4.25857">
        <ele>288.05</ele>
        <time>2011-12-28T13:45:45Z</time>
      </trkpt>
      <trkpt lat="44.1657" lon="4.25847">
        <ele>287.57</ele>
        <time>2011-12-28T13:45:48Z</time>
      </trkpt>
      <trkpt lat="44.16574" lon="4.25844">
        <ele>286.61</ele>
        <time>2011-12-28T13:45:49Z</time>
      </trkpt>
      <trkpt lat="44.16605" lon="4.25829">
        <ele>285.65</ele>
        <time>2011-12-28T13:45:56Z</time>
      </trkpt>
      <trkpt lat="44.1661" lon="4.25829">
        <ele>284.69</ele>
        <time>2011-12-28T13:45:57Z</time>
      </trkpt>
      <trkpt lat="44.16615" lon="4.25829">
        <ele>284.69</ele>
        <time>2011-12-28T13:45:58Z</time>
      </trkpt>
      <trkpt lat="44.1662" lon="4.25829">
        <ele>284.21</ele>
        <time>2011-12-28T13:45:59Z</time>
      </trkpt>
      <trkpt lat="44.16626" lon="4.25831">
        <ele>283.73</ele>
        <time>2011-12-28T13:46:00Z</time>
      </trkpt>
      <trkpt lat="44.16631" lon="4.25833">
        <ele>284.21</ele>
        <time>2011-12-28T13:46:01Z</time>
      </trkpt>
      <trkpt lat="44.16636" lon="4.25835">
        <ele>284.21</ele>
        <time>2011-12-28T13:46:02Z</time>
      </trkpt>
      <trkpt lat="44.16641" lon="4.25837">
        <ele>283.25</ele>
        <time>2011-12-28T13:46:03Z</time>
      </trkpt>
      <trkpt lat="44.16686" lon="4.25864">
        <ele>280.36</ele>
        <time>2011-12-28T13:46:12Z</time>
      </trkpt>
      <trkpt lat="44.16692" lon="4.25866">
        <ele>279.4</ele>
        <time>2011-12-28T13:46:13Z</time>
      </trkpt>
      <trkpt lat="44.16717" lon="4.25877">
        <ele>276.52</ele>
        <time>2011-12-28T13:46:17Z</time>
      </trkpt>
      <trkpt lat="44.16731" lon="4.25883">
        <ele>275.07</ele>
        <time>2011-12-28T13:46:19Z</time>
      </trkpt>
      <trkpt lat="44.16747" lon="4.2589">
        <ele>272.19</ele>
        <time>2011-12-28T13:46:21Z</time>
      </trkpt>
      <trkpt lat="44.16756" lon="4.25893">
        <ele>271.23</ele>
        <time>2011-12-28T13:46:22Z</time>
      </trkpt>
      <trkpt lat="44.16765" lon="4.25894">
        <ele>270.27</ele>
        <time>2011-12-28T13:46:23Z</time>
      </trkpt>
      <trkpt lat="44.16783" lon="4.25894">
        <ele>269.31</ele>
        <time>2011-12-28T13:46:25Z</time>
      </trkpt>
      <trkpt lat="44.16792" lon="4.25896">
        <ele>268.83</ele>
        <time>2011-12-28T13:46:26Z</time>
      </trkpt>
      <trkpt lat="44.16809" lon="4.25899">
        <ele>267.86</ele>
        <time>2011-12-28T13:46:28Z</time>
      </trkpt>
      <trkpt lat="44.16817" lon="4.25899">
        <ele>267.86</ele>
        <time>2011-12-28T13:46:29Z</time>
      </trkpt>
      <trkpt lat="44.16824" lon="4.25898">
        <ele>267.86</ele>
        <time>2011-12-28T13:46:30Z</time>
      </trkpt>
      <trkpt lat="44.1683" lon="4.25896">
        <ele>265.94</ele>
        <time>2011-12-28T13:46:31Z</time>
      </trkpt>
      <trkpt lat="44.16836" lon="4.25893">
        <ele>266.9</ele>
        <time>2011-12-28T13:46:32Z</time>
      </trkpt>
      <trkpt lat="44.16841" lon="4.2589">
        <ele>266.9</ele>
        <time>2011-12-28T13:46:33Z</time>
      </trkpt>
      <trkpt lat="44.16846" lon="4.25888">
        <ele>266.42</ele>
        <time>2011-12-28T13:46:34Z</time>
      </trkpt>
      <trkpt lat="44.16883" lon="4.2587">
        <ele>264.98</ele>
        <time>2011-12-28T13:46:45Z</time>
      </trkpt>
      <trkpt lat="44.16884" lon="4.25869">
        <ele>264.98</ele>
        <time>2011-12-28T13:46:46Z</time>
      </trkpt>
      <trkpt lat="44.16886" lon="4.25868">
        <ele>264.98</ele>
        <time>2011-12-28T13:46:47Z</time>
      </trkpt>
      <trkpt lat="44.16889" lon="4.25865">
        <ele>264.5</ele>
        <time>2011-12-28T13:46:49Z</time>
      </trkpt>
      <trkpt lat="44.16918" lon="4.25872">
        <ele>261.62</ele>
        <time>2011-12-28T13:47:00Z</time>
      </trkpt>
      <trkpt lat="44.1692" lon="4.25875">
        <ele>261.62</ele>
        <time>2011-12-28T13:47:11Z</time>
      </trkpt>
      <trkpt lat="44.16921" lon="4.25877">
        <ele>260.65</ele>
        <time>2011-12-28T13:47:22Z</time>
      </trkpt>
      <trkpt lat="44.16921" lon="4.25877">
        <ele>261.14</ele>
        <time>2011-12-28T13:47:47Z</time>
      </trkpt>
      <trkpt lat="44.16921" lon="4.25877">
        <ele>260.17</ele>
        <time>2011-12-28T13:48:07Z</time>
      </trkpt>
      <trkpt lat="44.16921" lon="4.25877">
        <ele>260.65</ele>
        <time>2011-12-28T13:48:33Z</time>
      </trkpt>
      <trkpt lat="44.16922" lon="4.25877">
        <ele>260.65</ele>
        <time>2011-12-28T13:48:58Z</time>
      </trkpt>
      <trkpt lat="44.16928" lon="4.2588">
        <ele>259.69</ele>
        <time>2011-12-28T13:49:01Z</time>
      </trkpt>
      <trkpt lat="44.1693" lon="4.25879">
        <ele>260.17</ele>
        <time>2011-12-28T13:49:02Z</time>
      </trkpt>
      <trkpt lat="44.16932" lon="4.25877">
        <ele>259.69</ele>
        <time>2011-12-28T13:49:03Z</time>
      </trkpt>
      <trkpt lat="44.16932" lon="4.25874">
        <ele>260.17</ele>
        <time>2011-12-28T13:49:04Z</time>
      </trkpt>
      <trkpt lat="44.16931" lon="4.25871">
        <ele>260.17</ele>
        <time>2011-12-28T13:49:05Z</time>
      </trkpt>
      <trkpt lat="44.16931" lon="4.25869">
        <ele>260.17</ele>
        <time>2011-12-28T13:49:06Z</time>
      </trkpt>
      <trkpt lat="44.1693" lon="4.25866">
        <ele>260.17</ele>
        <time>2011-12-28T13:49:07Z</time>
      </trkpt>
      <trkpt lat="44.16929" lon="4.25863">
        <ele>260.17</ele>
        <time>2011-12-28T13:49:08Z</time>
      </trkpt>
      <trkpt lat="44.16922" lon="4.25838">
        <ele>260.65</ele>
        <time>2011-12-28T13:49:19Z</time>
      </trkpt>
      <trkpt lat="44.1692" lon="4.25829">
        <ele>260.17</ele>
        <time>2011-12-28T13:49:36Z</time>
      </trkpt>
      <trkpt lat="44.1692" lon="4.25829">
        <ele>265.94</ele>
        <time>2011-12-28T13:49:44Z</time>
      </trkpt>
      <trkpt lat="44.1692" lon="4.25829">
        <ele>260.65</ele>
        <time>2011-12-28T13:49:45Z</time>
      </trkpt>
      <trkpt lat="44.1692" lon="4.25829">
        <ele>256.81</ele>
        <time>2011-12-28T13:49:46Z</time>
      </trkpt>
      <trkpt lat="44.1692" lon="4.25829">
        <ele>263.54</ele>
        <time>2011-12-28T13:49:47Z</time>
      </trkpt>
      <trkpt lat="44.1692" lon="4.25829">
        <ele>260.65</ele>
        <time>2011-12-28T13:49:51Z</time>
      </trkpt>
      <trkpt lat="44.1692" lon="4.25829">
        <ele>261.14</ele>
        <time>2011-12-28T13:50:16Z</time>
      </trkpt>
      <trkpt lat="44.1692" lon="4.25829">
        <ele>265.46</ele>
        <time>2011-12-28T13:50:27Z</time>
      </trkpt>
      <trkpt lat="44.1692" lon="4.25829">
        <ele>261.14</ele>
        <time>2011-12-28T13:50:28Z</time>
      </trkpt>
      <trkpt lat="44.1692" lon="4.25827">
        <ele>260.65</ele>
        <time>2011-12-28T13:50:31Z</time>
      </trkpt>
      <trkpt lat="44.16921" lon="4.25825">
        <ele>260.65</ele>
        <time>2011-12-28T13:50:43Z</time>
      </trkpt>
      <trkpt lat="44.16921" lon="4.25825">
        <ele>260.17</ele>
        <time>2011-12-28T13:51:06Z</time>
      </trkpt>
      <trkpt lat="44.16921" lon="4.25825">
        <ele>263.54</ele>
        <time>2011-12-28T13:51:16Z</time>
      </trkpt>
      <trkpt lat="44.16921" lon="4.25825">
        <ele>260.65</ele>
        <time>2011-12-28T13:51:18Z</time>
      </trkpt>
      <trkpt lat="44.16921" lon="4.25824">
        <ele>266.9</ele>
        <time>2011-12-28T13:51:24Z</time>
      </trkpt>
      <trkpt lat="44.16921" lon="4.25824">
        <ele>260.65</ele>
        <time>2011-12-28T13:51:25Z</time>
      </trkpt>
      <trkpt lat="44.16922" lon="4.2582">
        <ele>261.14</ele>
        <time>2011-12-28T13:51:33Z</time>
      </trkpt>
      <trkpt lat="44.16923" lon="4.25818">
        <ele>260.65</ele>
        <time>2011-12-28T13:51:34Z</time>
      </trkpt>
      <trkpt lat="44.16924" lon="4.25816">
        <ele>261.14</ele>
        <time>2011-12-28T13:51:35Z</time>
      </trkpt>
      <trkpt lat="44.16924" lon="4.25814">
        <ele>260.65</ele>
        <time>2011-12-28T13:51:36Z</time>
      </trkpt>
      <trkpt lat="44.16924" lon="4.25811">
        <ele>260.65</ele>
        <time>2011-12-28T13:51:37Z</time>
      </trkpt>
      <trkpt lat="44.16923" lon="4.25807">
        <ele>261.14</ele>
        <time>2011-12-28T13:51:38Z</time>
      </trkpt>
      <trkpt lat="44.16922" lon="4.25803">
        <ele>256.33</ele>
        <time>2011-12-28T13:51:39Z</time>
      </trkpt>
      <trkpt lat="44.16922" lon="4.25798">
        <ele>267.38</ele>
        <time>2011-12-28T13:51:40Z</time>
      </trkpt>
      <trkpt lat="44.16922" lon="4.25794">
        <ele>260.65</ele>
        <time>2011-12-28T13:51:41Z</time>
      </trkpt>
      <trkpt lat="44.16922" lon="4.25789">
        <ele>265.46</ele>
        <time>2011-12-28T13:51:42Z</time>
      </trkpt>
      <trkpt lat="44.16921" lon="4.25784">
        <ele>260.65</ele>
        <time>2011-12-28T13:51:43Z</time>
      </trkpt>
      <trkpt lat="44.16921" lon="4.25773">
        <ele>259.69</ele>
        <time>2011-12-28T13:51:45Z</time>
      </trkpt>
      <trkpt lat="44.16923" lon="4.25746">
        <ele>258.25</ele>
        <time>2011-12-28T13:51:49Z</time>
      </trkpt>
      <trkpt lat="44.16926" lon="4.25731">
        <ele>257.29</ele>
        <time>2011-12-28T13:51:51Z</time>
      </trkpt>
      <trkpt lat="44.16927" lon="4.25725">
        <ele>256.81</ele>
        <time>2011-12-28T13:51:52Z</time>
      </trkpt>
      <trkpt lat="44.16927" lon="4.25719">
        <ele>256.33</ele>
        <time>2011-12-28T13:51:53Z</time>
      </trkpt>
      <trkpt lat="44.16929" lon="4.25714">
        <ele>255.85</ele>
        <time>2011-12-28T13:51:54Z</time>
      </trkpt>
      <trkpt lat="44.16933" lon="4.25703">
        <ele>254.89</ele>
        <time>2011-12-28T13:51:56Z</time>
      </trkpt>
      <trkpt lat="44.16934" lon="4.25697">
        <ele>254.41</ele>
        <time>2011-12-28T13:51:57Z</time>
      </trkpt>
      <trkpt lat="44.16934" lon="4.25691">
        <ele>253.44</ele>
        <time>2011-12-28T13:51:58Z</time>
      </trkpt>
      <trkpt lat="44.16932" lon="4.25685">
        <ele>252.96</ele>
        <time>2011-12-28T13:51:59Z</time>
      </trkpt>
      <trkpt lat="44.16929" lon="4.2568">
        <ele>252</ele>
        <time>2011-12-28T13:52:00Z</time>
      </trkpt>
      <trkpt lat="44.16924" lon="4.25675">
        <ele>252</ele>
        <time>2011-12-28T13:52:01Z</time>
      </trkpt>
      <trkpt lat="44.16919" lon="4.25671">
        <ele>251.52</ele>
        <time>2011-12-28T13:52:02Z</time>
      </trkpt>
      <trkpt lat="44.16913" lon="4.25667">
        <ele>250.08</ele>
        <time>2011-12-28T13:52:03Z</time>
      </trkpt>
      <trkpt lat="44.16903" lon="4.25659">
        <ele>248.64</ele>
        <time>2011-12-28T13:52:05Z</time>
      </trkpt>
      <trkpt lat="44.16899" lon="4.25655">
        <ele>247.68</ele>
        <time>2011-12-28T13:52:06Z</time>
      </trkpt>
      <trkpt lat="44.16896" lon="4.25651">
        <ele>247.2</ele>
        <time>2011-12-28T13:52:07Z</time>
      </trkpt>
      <trkpt lat="44.16895" lon="4.25646">
        <ele>246.72</ele>
        <time>2011-12-28T13:52:08Z</time>
      </trkpt>
      <trkpt lat="44.16894" lon="4.2564">
        <ele>245.75</ele>
        <time>2011-12-28T13:52:09Z</time>
      </trkpt>
      <trkpt lat="44.16895" lon="4.25634">
        <ele>245.75</ele>
        <time>2011-12-28T13:52:10Z</time>
      </trkpt>
      <trkpt lat="44.16896" lon="4.25627">
        <ele>245.75</ele>
        <time>2011-12-28T13:52:11Z</time>
      </trkpt>
      <trkpt lat="44.16899" lon="4.25605">
        <ele>243.83</ele>
        <time>2011-12-28T13:52:14Z</time>
      </trkpt>
      <trkpt lat="44.16898" lon="4.25598">
        <ele>243.35</ele>
        <time>2011-12-28T13:52:15Z</time>
      </trkpt>
      <trkpt lat="44.16893" lon="4.25564">
        <ele>242.87</ele>
        <time>2011-12-28T13:52:21Z</time>
      </trkpt>
      <trkpt lat="44.16892" lon="4.25557">
        <ele>242.39</ele>
        <time>2011-12-28T13:52:22Z</time>
      </trkpt>
      <trkpt lat="44.1689" lon="4.2555">
        <ele>241.91</ele>
        <time>2011-12-28T13:52:23Z</time>
      </trkpt>
      <trkpt lat="44.16881" lon="4.25514">
        <ele>240.47</ele>
        <time>2011-12-28T13:52:28Z</time>
      </trkpt>
      <trkpt lat="44.16878" lon="4.25504">
        <ele>239.51</ele>
        <time>2011-12-28T13:52:35Z</time>
      </trkpt>
      <trkpt lat="44.16877" lon="4.25503">
        <ele>239.02</ele>
        <time>2011-12-28T13:52:47Z</time>
      </trkpt>
      <trkpt lat="44.16876" lon="4.255">
        <ele>239.51</ele>
        <time>2011-12-28T13:52:48Z</time>
      </trkpt>
      <trkpt lat="44.16874" lon="4.25498">
        <ele>239.02</ele>
        <time>2011-12-28T13:52:49Z</time>
      </trkpt>
      <trkpt lat="44.16845" lon="4.25455">
        <ele>238.54</ele>
        <time>2011-12-28T13:52:57Z</time>
      </trkpt>
      <trkpt lat="44.16829" lon="4.25438">
        <ele>238.06</ele>
        <time>2011-12-28T13:53:00Z</time>
      </trkpt>
      <trkpt lat="44.16777" lon="4.25394">
        <ele>241.43</ele>
        <time>2011-12-28T13:53:12Z</time>
      </trkpt>
      <trkpt lat="44.1677" lon="4.25388">
        <ele>241.91</ele>
        <time>2011-12-28T13:53:14Z</time>
      </trkpt>
      <trkpt lat="44.16757" lon="4.25375">
        <ele>242.39</ele>
        <time>2011-12-28T13:53:18Z</time>
      </trkpt>
      <trkpt lat="44.1671" lon="4.25333">
        <ele>239.51</ele>
        <time>2011-12-28T13:53:29Z</time>
      </trkpt>
      <trkpt lat="44.16656" lon="4.25269">
        <ele>240.95</ele>
        <time>2011-12-28T13:53:44Z</time>
      </trkpt>
      <trkpt lat="44.16612" lon="4.25207">
        <ele>241.43</ele>
        <time>2011-12-28T13:53:58Z</time>
      </trkpt>
      <trkpt lat="44.16599" lon="4.25181">
        <ele>241.43</ele>
        <time>2011-12-28T13:54:03Z</time>
      </trkpt>
      <trkpt lat="44.16579" lon="4.25093">
        <ele>244.79</ele>
        <time>2011-12-28T13:54:19Z</time>
      </trkpt>
      <trkpt lat="44.16565" lon="4.25058">
        <ele>248.16</ele>
        <time>2011-12-28T13:54:28Z</time>
      </trkpt>
      <trkpt lat="44.16562" lon="4.2501">
        <ele>250.08</ele>
        <time>2011-12-28T13:54:40Z</time>
      </trkpt>
      <trkpt lat="44.16569" lon="4.24971">
        <ele>248.64</ele>
        <time>2011-12-28T13:54:48Z</time>
      </trkpt>
      <trkpt lat="44.1657" lon="4.24905">
        <ele>245.27</ele>
        <time>2011-12-28T13:54:58Z</time>
      </trkpt>
      <trkpt lat="44.1657" lon="4.249">
        <ele>245.27</ele>
        <time>2011-12-28T13:54:59Z</time>
      </trkpt>
      <trkpt lat="44.16563" lon="4.24884">
        <ele>243.83</ele>
        <time>2011-12-28T13:55:07Z</time>
      </trkpt>
      <trkpt lat="44.16561" lon="4.24883">
        <ele>243.83</ele>
        <time>2011-12-28T13:55:08Z</time>
      </trkpt>
      <trkpt lat="44.16559" lon="4.24883">
        <ele>243.35</ele>
        <time>2011-12-28T13:55:09Z</time>
      </trkpt>
      <trkpt lat="44.16556" lon="4.24882">
        <ele>243.83</ele>
        <time>2011-12-28T13:55:10Z</time>
      </trkpt>
      <trkpt lat="44.16554" lon="4.24882">
        <ele>243.83</ele>
        <time>2011-12-28T13:55:11Z</time>
      </trkpt>
      <trkpt lat="44.16551" lon="4.24882">
        <ele>243.83</ele>
        <time>2011-12-28T13:55:12Z</time>
      </trkpt>
      <trkpt lat="44.16523" lon="4.24882">
        <ele>244.31</ele>
        <time>2011-12-28T13:55:24Z</time>
      </trkpt>
      <trkpt lat="44.16514" lon="4.24882">
        <ele>244.31</ele>
        <time>2011-12-28T13:55:26Z</time>
      </trkpt>
      <trkpt lat="44.16509" lon="4.24883">
        <ele>244.31</ele>
        <time>2011-12-28T13:55:27Z</time>
      </trkpt>
      <trkpt lat="44.16504" lon="4.24883">
        <ele>244.79</ele>
        <time>2011-12-28T13:55:28Z</time>
      </trkpt>
      <trkpt lat="44.16498" lon="4.24883">
        <ele>244.31</ele>
        <time>2011-12-28T13:55:29Z</time>
      </trkpt>
      <trkpt lat="44.16493" lon="4.24883">
        <ele>244.31</ele>
        <time>2011-12-28T13:55:30Z</time>
      </trkpt>
      <trkpt lat="44.16472" lon="4.24885">
        <ele>244.31</ele>
        <time>2011-12-28T13:55:34Z</time>
      </trkpt>
      <trkpt lat="44.16446" lon="4.24887">
        <ele>245.75</ele>
        <time>2011-12-28T13:55:40Z</time>
      </trkpt>
      <trkpt lat="44.16436" lon="4.24886">
        <ele>244.79</ele>
        <time>2011-12-28T13:55:42Z</time>
      </trkpt>
      <trkpt lat="44.164" lon="4.24886">
        <ele>245.27</ele>
        <time>2011-12-28T13:55:53Z</time>
      </trkpt>
      <trkpt lat="44.16351" lon="4.24892">
        <ele>245.27</ele>
        <time>2011-12-28T13:56:06Z</time>
      </trkpt>
      <trkpt lat="44.16302" lon="4.24896">
        <ele>247.2</ele>
        <time>2011-12-28T13:56:20Z</time>
      </trkpt>
      <trkpt lat="44.1626" lon="4.24904">
        <ele>250.08</ele>
        <time>2011-12-28T13:56:33Z</time>
      </trkpt>
      <trkpt lat="44.16256" lon="4.24906">
        <ele>250.56</ele>
        <time>2011-12-28T13:56:34Z</time>
      </trkpt>
      <trkpt lat="44.16253" lon="4.24907">
        <ele>251.04</ele>
        <time>2011-12-28T13:56:35Z</time>
      </trkpt>
      <trkpt lat="44.16251" lon="4.24908">
        <ele>251.52</ele>
        <time>2011-12-28T13:56:36Z</time>
      </trkpt>
      <trkpt lat="44.16249" lon="4.24908">
        <ele>251.52</ele>
        <time>2011-12-28T13:56:37Z</time>
      </trkpt>
      <trkpt lat="44.16247" lon="4.24909">
        <ele>251.52</ele>
        <time>2011-12-28T13:56:38Z</time>
      </trkpt>
      <trkpt lat="44.16245" lon="4.24911">
        <ele>252.48</ele>
        <time>2011-12-28T13:56:39Z</time>
      </trkpt>
      <trkpt lat="44.16243" lon="4.24914">
        <ele>252.48</ele>
        <time>2011-12-28T13:56:40Z</time>
      </trkpt>
      <trkpt lat="44.16234" lon="4.24925">
        <ele>253.93</ele>
        <time>2011-12-28T13:56:44Z</time>
      </trkpt>
      <trkpt lat="44.16212" lon="4.24943">
        <ele>256.33</ele>
        <time>2011-12-28T13:56:54Z</time>
      </trkpt>
      <trkpt lat="44.16209" lon="4.24946">
        <ele>256.81</ele>
        <time>2011-12-28T13:56:56Z</time>
      </trkpt>
      <trkpt lat="44.16207" lon="4.24947">
        <ele>256.81</ele>
        <time>2011-12-28T13:56:57Z</time>
      </trkpt>
      <trkpt lat="44.16187" lon="4.2496">
        <ele>257.77</ele>
        <time>2011-12-28T13:57:08Z</time>
      </trkpt>
      <trkpt lat="44.16159" lon="4.2498">
        <ele>257.29</ele>
        <time>2011-12-28T13:57:21Z</time>
      </trkpt>
      <trkpt lat="44.16129" lon="4.24999">
        <ele>255.85</ele>
        <time>2011-12-28T13:57:33Z</time>
      </trkpt>
      <trkpt lat="44.16095" lon="4.25003">
        <ele>256.33</ele>
        <time>2011-12-28T13:57:44Z</time>
      </trkpt>
      <trkpt lat="44.16057" lon="4.24991">
        <ele>256.33</ele>
        <time>2011-12-28T13:57:57Z</time>
      </trkpt>
      <trkpt lat="44.1602" lon="4.24979">
        <ele>255.85</ele>
        <time>2011-12-28T13:58:10Z</time>
      </trkpt>
      <trkpt lat="44.16001" lon="4.24981">
        <ele>253.93</ele>
        <time>2011-12-28T13:58:18Z</time>
      </trkpt>
      <trkpt lat="44.15999" lon="4.24991">
        <ele>252.96</ele>
        <time>2011-12-28T13:58:24Z</time>
      </trkpt>
      <trkpt lat="44.15999" lon="4.24986">
        <ele>252.96</ele>
        <time>2011-12-28T13:58:40Z</time>
      </trkpt>
      <trkpt lat="44.15999" lon="4.24986">
        <ele>252.96</ele>
        <time>2011-12-28T13:59:03Z</time>
      </trkpt>
      <trkpt lat="44.15999" lon="4.24986">
        <ele>253.44</ele>
        <time>2011-12-28T13:59:36Z</time>
      </trkpt>
      <trkpt lat="44.15999" lon="4.24985">
        <ele>252.48</ele>
        <time>2011-12-28T14:00:02Z</time>
      </trkpt>
      <trkpt lat="44.15999" lon="4.24985">
        <ele>252.96</ele>
        <time>2011-12-28T14:00:04Z</time>
      </trkpt>
      <trkpt lat="44.15998" lon="4.24981">
        <ele>252.48</ele>
        <time>2011-12-28T14:00:09Z</time>
      </trkpt>
      <trkpt lat="44.16004" lon="4.24949">
        <ele>253.44</ele>
        <time>2011-12-28T14:00:18Z</time>
      </trkpt>
      <trkpt lat="44.1601" lon="4.2493">
        <ele>253.93</ele>
        <time>2011-12-28T14:00:23Z</time>
      </trkpt>
      <trkpt lat="44.16015" lon="4.2492">
        <ele>252.96</ele>
        <time>2011-12-28T14:00:26Z</time>
      </trkpt>
      <trkpt lat="44.16019" lon="4.24896">
        <ele>252</ele>
        <time>2011-12-28T14:00:32Z</time>
      </trkpt>
      <trkpt lat="44.16019" lon="4.24881">
        <ele>251.52</ele>
        <time>2011-12-28T14:00:35Z</time>
      </trkpt>
      <trkpt lat="44.1602" lon="4.24875">
        <ele>250.56</ele>
        <time>2011-12-28T14:00:36Z</time>
      </trkpt>
      <trkpt lat="44.16021" lon="4.24869">
        <ele>250.56</ele>
        <time>2011-12-28T14:00:37Z</time>
      </trkpt>
      <trkpt lat="44.16022" lon="4.24863">
        <ele>249.12</ele>
        <time>2011-12-28T14:00:38Z</time>
      </trkpt>
      <trkpt lat="44.16023" lon="4.24858">
        <ele>250.08</ele>
        <time>2011-12-28T14:00:39Z</time>
      </trkpt>
      <trkpt lat="44.16029" lon="4.2482">
        <ele>247.68</ele>
        <time>2011-12-28T14:00:45Z</time>
      </trkpt>
      <trkpt lat="44.16029" lon="4.24814">
        <ele>247.68</ele>
        <time>2011-12-28T14:00:46Z</time>
      </trkpt>
      <trkpt lat="44.16029" lon="4.24808">
        <ele>247.2</ele>
        <time>2011-12-28T14:00:47Z</time>
      </trkpt>
      <trkpt lat="44.16021" lon="4.24759">
        <ele>243.83</ele>
        <time>2011-12-28T14:00:56Z</time>
      </trkpt>
      <trkpt lat="44.16014" lon="4.2474">
        <ele>243.35</ele>
        <time>2011-12-28T14:01:04Z</time>
      </trkpt>
      <trkpt lat="44.16013" lon="4.24736">
        <ele>242.39</ele>
        <time>2011-12-28T14:01:06Z</time>
      </trkpt>
      <trkpt lat="44.16013" lon="4.24734">
        <ele>242.87</ele>
        <time>2011-12-28T14:01:07Z</time>
      </trkpt>
      <trkpt lat="44.16012" lon="4.24731">
        <ele>241.91</ele>
        <time>2011-12-28T14:01:08Z</time>
      </trkpt>
      <trkpt lat="44.16012" lon="4.24729">
        <ele>241.91</ele>
        <time>2011-12-28T14:01:09Z</time>
      </trkpt>
      <trkpt lat="44.16011" lon="4.24727">
        <ele>241.91</ele>
        <time>2011-12-28T14:01:10Z</time>
      </trkpt>
      <trkpt lat="44.1601" lon="4.24725">
        <ele>242.39</ele>
        <time>2011-12-28T14:01:11Z</time>
      </trkpt>
      <trkpt lat="44.16009" lon="4.24719">
        <ele>241.43</ele>
        <time>2011-12-28T14:01:17Z</time>
      </trkpt>
      <trkpt lat="44.16009" lon="4.24716">
        <ele>240.47</ele>
        <time>2011-12-28T14:01:19Z</time>
      </trkpt>
      <trkpt lat="44.16008" lon="4.24713">
        <ele>239.99</ele>
        <time>2011-12-28T14:01:20Z</time>
      </trkpt>
      <trkpt lat="44.16007" lon="4.2471">
        <ele>239.99</ele>
        <time>2011-12-28T14:01:21Z</time>
      </trkpt>
      <trkpt lat="44.16004" lon="4.24692">
        <ele>239.02</ele>
        <time>2011-12-28T14:01:25Z</time>
      </trkpt>
      <trkpt lat="44.16004" lon="4.24688">
        <ele>238.54</ele>
        <time>2011-12-28T14:01:26Z</time>
      </trkpt>
      <trkpt lat="44.16004" lon="4.24682">
        <ele>238.54</ele>
        <time>2011-12-28T14:01:27Z</time>
      </trkpt>
      <trkpt lat="44.16004" lon="4.24677">
        <ele>238.54</ele>
        <time>2011-12-28T14:01:28Z</time>
      </trkpt>
      <trkpt lat="44.16004" lon="4.24672">
        <ele>238.06</ele>
        <time>2011-12-28T14:01:29Z</time>
      </trkpt>
      <trkpt lat="44.16005" lon="4.24666">
        <ele>237.58</ele>
        <time>2011-12-28T14:01:30Z</time>
      </trkpt>
      <trkpt lat="44.16005" lon="4.2466">
        <ele>237.1</ele>
        <time>2011-12-28T14:01:31Z</time>
      </trkpt>
      <trkpt lat="44.16006" lon="4.24654">
        <ele>236.14</ele>
        <time>2011-12-28T14:01:32Z</time>
      </trkpt>
      <trkpt lat="44.16007" lon="4.24648">
        <ele>235.66</ele>
        <time>2011-12-28T14:01:33Z</time>
      </trkpt>
      <trkpt lat="44.16012" lon="4.24632">
        <ele>232.78</ele>
        <time>2011-12-28T14:01:37Z</time>
      </trkpt>
      <trkpt lat="44.16018" lon="4.24609">
        <ele>229.89</ele>
        <time>2011-12-28T14:01:42Z</time>
      </trkpt>
      <trkpt lat="44.16026" lon="4.24578">
        <ele>226.53</ele>
        <time>2011-12-28T14:01:49Z</time>
      </trkpt>
      <trkpt lat="44.16028" lon="4.24568">
        <ele>225.09</ele>
        <time>2011-12-28T14:01:51Z</time>
      </trkpt>
      <trkpt lat="44.1603" lon="4.24564">
        <ele>224.61</ele>
        <time>2011-12-28T14:01:52Z</time>
      </trkpt>
      <trkpt lat="44.16033" lon="4.24561">
        <ele>223.16</ele>
        <time>2011-12-28T14:01:53Z</time>
      </trkpt>
      <trkpt lat="44.16036" lon="4.2456">
        <ele>223.16</ele>
        <time>2011-12-28T14:01:54Z</time>
      </trkpt>
      <trkpt lat="44.16038" lon="4.24557">
        <ele>222.2</ele>
        <time>2011-12-28T14:01:55Z</time>
      </trkpt>
      <trkpt lat="44.16041" lon="4.24553">
        <ele>222.68</ele>
        <time>2011-12-28T14:01:56Z</time>
      </trkpt>
      <trkpt lat="44.16043" lon="4.2455">
        <ele>221.24</ele>
        <time>2011-12-28T14:01:57Z</time>
      </trkpt>
      <trkpt lat="44.16045" lon="4.24546">
        <ele>220.76</ele>
        <time>2011-12-28T14:01:58Z</time>
      </trkpt>
      <trkpt lat="44.16046" lon="4.24542">
        <ele>219.8</ele>
        <time>2011-12-28T14:01:59Z</time>
      </trkpt>
      <trkpt lat="44.16048" lon="4.24538">
        <ele>219.32</ele>
        <time>2011-12-28T14:02:00Z</time>
      </trkpt>
      <trkpt lat="44.1605" lon="4.24534">
        <ele>218.84</ele>
        <time>2011-12-28T14:02:01Z</time>
      </trkpt>
      <trkpt lat="44.16051" lon="4.2453">
        <ele>218.36</ele>
        <time>2011-12-28T14:02:02Z</time>
      </trkpt>
      <trkpt lat="44.16053" lon="4.24526">
        <ele>216.91</ele>
        <time>2011-12-28T14:02:03Z</time>
      </trkpt>
      <trkpt lat="44.16055" lon="4.24521">
        <ele>216.43</ele>
        <time>2011-12-28T14:02:04Z</time>
      </trkpt>
      <trkpt lat="44.1606" lon="4.24512">
        <ele>215.47</ele>
        <time>2011-12-28T14:02:06Z</time>
      </trkpt>
      <trkpt lat="44.16063" lon="4.24508">
        <ele>214.99</ele>
        <time>2011-12-28T14:02:07Z</time>
      </trkpt>
      <trkpt lat="44.1607" lon="4.245">
        <ele>214.99</ele>
        <time>2011-12-28T14:02:09Z</time>
      </trkpt>
      <trkpt lat="44.16074" lon="4.24496">
        <ele>215.47</ele>
        <time>2011-12-28T14:02:10Z</time>
      </trkpt>
      <trkpt lat="44.16078" lon="4.24493">
        <ele>215.47</ele>
        <time>2011-12-28T14:02:11Z</time>
      </trkpt>
      <trkpt lat="44.16082" lon="4.2449">
        <ele>215.47</ele>
        <time>2011-12-28T14:02:12Z</time>
      </trkpt>
      <trkpt lat="44.16086" lon="4.24487">
        <ele>215.47</ele>
        <time>2011-12-28T14:02:13Z</time>
      </trkpt>
      <trkpt lat="44.16126" lon="4.2445">
        <ele>212.59</ele>
        <time>2011-12-28T14:02:25Z</time>
      </trkpt>
      <trkpt lat="44.16129" lon="4.24445">
        <ele>211.15</ele>
        <time>2011-12-28T14:02:26Z</time>
      </trkpt>
      <trkpt lat="44.16131" lon="4.24438">
        <ele>210.67</ele>
        <time>2011-12-28T14:02:27Z</time>
      </trkpt>
      <trkpt lat="44.16133" lon="4.24431">
        <ele>210.19</ele>
        <time>2011-12-28T14:02:28Z</time>
      </trkpt>
      <trkpt lat="44.16139" lon="4.24406">
        <ele>206.34</ele>
        <time>2011-12-28T14:02:32Z</time>
      </trkpt>
      <trkpt lat="44.16142" lon="4.24399">
        <ele>206.34</ele>
        <time>2011-12-28T14:02:33Z</time>
      </trkpt>
      <trkpt lat="44.16147" lon="4.24372">
        <ele>202.49</ele>
        <time>2011-12-28T14:02:37Z</time>
      </trkpt>
      <trkpt lat="44.16147" lon="4.24369">
        <ele>202.49</ele>
        <time>2011-12-28T14:02:38Z</time>
      </trkpt>
      <trkpt lat="44.1615" lon="4.24365">
        <ele>200.57</ele>
        <time>2011-12-28T14:02:49Z</time>
      </trkpt>
      <trkpt lat="44.1615" lon="4.24365">
        <ele>200.09</ele>
        <time>2011-12-28T14:03:06Z</time>
      </trkpt>
      <trkpt lat="44.16152" lon="4.24359">
        <ele>199.13</ele>
        <time>2011-12-28T14:03:16Z</time>
      </trkpt>
      <trkpt lat="44.16152" lon="4.24355">
        <ele>199.13</ele>
        <time>2011-12-28T14:03:17Z</time>
      </trkpt>
      <trkpt lat="44.16153" lon="4.24352">
        <ele>198.65</ele>
        <time>2011-12-28T14:03:18Z</time>
      </trkpt>
      <trkpt lat="44.16154" lon="4.24349">
        <ele>198.65</ele>
        <time>2011-12-28T14:03:19Z</time>
      </trkpt>
      <trkpt lat="44.16155" lon="4.24346">
        <ele>197.69</ele>
        <time>2011-12-28T14:03:20Z</time>
      </trkpt>
      <trkpt lat="44.16162" lon="4.24311">
        <ele>194.32</ele>
        <time>2011-12-28T14:03:29Z</time>
      </trkpt>
      <trkpt lat="44.16165" lon="4.24302">
        <ele>192.88</ele>
        <time>2011-12-28T14:03:31Z</time>
      </trkpt>
      <trkpt lat="44.16165" lon="4.24298">
        <ele>192.88</ele>
        <time>2011-12-28T14:03:32Z</time>
      </trkpt>
      <trkpt lat="44.16166" lon="4.24295">
        <ele>192.88</ele>
        <time>2011-12-28T14:03:33Z</time>
      </trkpt>
      <trkpt lat="44.16167" lon="4.24292">
        <ele>191.92</ele>
        <time>2011-12-28T14:03:34Z</time>
      </trkpt>
      <trkpt lat="44.16168" lon="4.24289">
        <ele>192.4</ele>
        <time>2011-12-28T14:03:35Z</time>
      </trkpt>
      <trkpt lat="44.16176" lon="4.24261">
        <ele>188.56</ele>
        <time>2011-12-28T14:03:41Z</time>
      </trkpt>
      <trkpt lat="44.16189" lon="4.24239">
        <ele>184.71</ele>
        <time>2011-12-28T14:03:47Z</time>
      </trkpt>
      <trkpt lat="44.16202" lon="4.24217">
        <ele>181.83</ele>
        <time>2011-12-28T14:03:53Z</time>
      </trkpt>
      <trkpt lat="44.16204" lon="4.24215">
        <ele>181.35</ele>
        <time>2011-12-28T14:03:54Z</time>
      </trkpt>
      <trkpt lat="44.16217" lon="4.24209">
        <ele>181.35</ele>
        <time>2011-12-28T14:04:01Z</time>
      </trkpt>
      <trkpt lat="44.16218" lon="4.24207">
        <ele>181.35</ele>
        <time>2011-12-28T14:04:02Z</time>
      </trkpt>
      <trkpt lat="44.16219" lon="4.24205">
        <ele>180.87</ele>
        <time>2011-12-28T14:04:03Z</time>
      </trkpt>
      <trkpt lat="44.1622" lon="4.24198">
        <ele>180.38</ele>
        <time>2011-12-28T14:04:12Z</time>
      </trkpt>
      <trkpt lat="44.1622" lon="4.24198">
        <ele>180.87</ele>
        <time>2011-12-28T14:04:35Z</time>
      </trkpt>
      <trkpt lat="44.1622" lon="4.24198">
        <ele>180.38</ele>
        <time>2011-12-28T14:05:00Z</time>
      </trkpt>
      <trkpt lat="44.16219" lon="4.24199">
        <ele>180.38</ele>
        <time>2011-12-28T14:05:08Z</time>
      </trkpt>
      <trkpt lat="44.16217" lon="4.242">
        <ele>180.87</ele>
        <time>2011-12-28T14:05:09Z</time>
      </trkpt>
      <trkpt lat="44.16214" lon="4.24201">
        <ele>179.9</ele>
        <time>2011-12-28T14:05:10Z</time>
      </trkpt>
      <trkpt lat="44.16211" lon="4.24201">
        <ele>179.9</ele>
        <time>2011-12-28T14:05:11Z</time>
      </trkpt>
      <trkpt lat="44.16209" lon="4.24201">
        <ele>179.9</ele>
        <time>2011-12-28T14:05:12Z</time>
      </trkpt>
      <trkpt lat="44.16206" lon="4.24199">
        <ele>179.42</ele>
        <time>2011-12-28T14:05:13Z</time>
      </trkpt>
      <trkpt lat="44.16203" lon="4.24197">
        <ele>178.94</ele>
        <time>2011-12-28T14:05:14Z</time>
      </trkpt>
      <trkpt lat="44.16201" lon="4.24192">
        <ele>179.42</ele>
        <time>2011-12-28T14:05:15Z</time>
      </trkpt>
      <trkpt lat="44.16199" lon="4.24187">
        <ele>179.42</ele>
        <time>2011-12-28T14:05:16Z</time>
      </trkpt>
      <trkpt lat="44.16192" lon="4.24171">
        <ele>177.98</ele>
        <time>2011-12-28T14:05:19Z</time>
      </trkpt>
      <trkpt lat="44.16182" lon="4.24155">
        <ele>177.98</ele>
        <time>2011-12-28T14:05:25Z</time>
      </trkpt>
      <trkpt lat="44.16181" lon="4.24154">
        <ele>174.14</ele>
        <time>2011-12-28T14:05:26Z</time>
      </trkpt>
      <trkpt lat="44.1618" lon="4.24152">
        <ele>178.94</ele>
        <time>2011-12-28T14:05:27Z</time>
      </trkpt>
      <trkpt lat="44.16161" lon="4.24125">
        <ele>175.58</ele>
        <time>2011-12-28T14:05:36Z</time>
      </trkpt>
      <trkpt lat="44.16152" lon="4.24098">
        <ele>174.62</ele>
        <time>2011-12-28T14:05:40Z</time>
      </trkpt>
      <trkpt lat="44.16152" lon="4.24091">
        <ele>174.62</ele>
        <time>2011-12-28T14:05:41Z</time>
      </trkpt>
      <trkpt lat="44.16152" lon="4.24083">
        <ele>174.14</ele>
        <time>2011-12-28T14:05:42Z</time>
      </trkpt>
      <trkpt lat="44.16154" lon="4.24076">
        <ele>173.66</ele>
        <time>2011-12-28T14:05:43Z</time>
      </trkpt>
      <trkpt lat="44.16158" lon="4.2407">
        <ele>173.17</ele>
        <time>2011-12-28T14:05:44Z</time>
      </trkpt>
      <trkpt lat="44.16162" lon="4.24064">
        <ele>172.69</ele>
        <time>2011-12-28T14:05:45Z</time>
      </trkpt>
      <trkpt lat="44.16166" lon="4.24059">
        <ele>171.73</ele>
        <time>2011-12-28T14:05:46Z</time>
      </trkpt>
      <trkpt lat="44.1617" lon="4.24053">
        <ele>171.73</ele>
        <time>2011-12-28T14:05:47Z</time>
      </trkpt>
      <trkpt lat="44.16187" lon="4.24029">
        <ele>170.29</ele>
        <time>2011-12-28T14:05:56Z</time>
      </trkpt>
      <trkpt lat="44.16188" lon="4.24026">
        <ele>169.33</ele>
        <time>2011-12-28T14:06:08Z</time>
      </trkpt>
      <trkpt lat="44.16189" lon="4.24024">
        <ele>170.29</ele>
        <time>2011-12-28T14:06:09Z</time>
      </trkpt>
      <trkpt lat="44.1619" lon="4.24022">
        <ele>169.81</ele>
        <time>2011-12-28T14:06:10Z</time>
      </trkpt>
      <trkpt lat="44.16191" lon="4.2402">
        <ele>169.81</ele>
        <time>2011-12-28T14:06:11Z</time>
      </trkpt>
      <trkpt lat="44.16192" lon="4.24018">
        <ele>169.81</ele>
        <time>2011-12-28T14:06:12Z</time>
      </trkpt>
      <trkpt lat="44.16193" lon="4.24016">
        <ele>169.81</ele>
        <time>2011-12-28T14:06:13Z</time>
      </trkpt>
      <trkpt lat="44.16194" lon="4.24013">
        <ele>169.81</ele>
        <time>2011-12-28T14:06:14Z</time>
      </trkpt>
      <trkpt lat="44.16214" lon="4.23958">
        <ele>167.89</ele>
        <time>2011-12-28T14:06:25Z</time>
      </trkpt>
      <trkpt lat="44.16217" lon="4.23952">
        <ele>166.93</ele>
        <time>2011-12-28T14:06:26Z</time>
      </trkpt>
      <trkpt lat="44.16222" lon="4.23946">
        <ele>166.93</ele>
        <time>2011-12-28T14:06:27Z</time>
      </trkpt>
      <trkpt lat="44.16227" lon="4.23942">
        <ele>166.45</ele>
        <time>2011-12-28T14:06:28Z</time>
      </trkpt>
      <trkpt lat="44.16246" lon="4.23932">
        <ele>172.69</ele>
        <time>2011-12-28T14:06:31Z</time>
      </trkpt>
      <trkpt lat="44.16253" lon="4.23928">
        <ele>165.48</ele>
        <time>2011-12-28T14:06:32Z</time>
      </trkpt>
      <trkpt lat="44.16266" lon="4.2392">
        <ele>144.82</ele>
        <time>2011-12-28T14:06:34Z</time>
      </trkpt>
      <trkpt lat="44.16272" lon="4.23916">
        <ele>165.96</ele>
        <time>2011-12-28T14:06:35Z</time>
      </trkpt>
      <trkpt lat="44.16279" lon="4.23913">
        <ele>164.52</ele>
        <time>2011-12-28T14:06:36Z</time>
      </trkpt>
      <trkpt lat="44.16287" lon="4.23911">
        <ele>163.08</ele>
        <time>2011-12-28T14:06:37Z</time>
      </trkpt>
      <trkpt lat="44.16316" lon="4.23902">
        <ele>161.64</ele>
        <time>2011-12-28T14:06:41Z</time>
      </trkpt>
      <trkpt lat="44.16323" lon="4.23898">
        <ele>161.16</ele>
        <time>2011-12-28T14:06:42Z</time>
      </trkpt>
      <trkpt lat="44.16335" lon="4.23889">
        <ele>159.72</ele>
        <time>2011-12-28T14:06:44Z</time>
      </trkpt>
      <trkpt lat="44.1634" lon="4.23882">
        <ele>160.2</ele>
        <time>2011-12-28T14:06:45Z</time>
      </trkpt>
      <trkpt lat="44.16344" lon="4.23874">
        <ele>160.2</ele>
        <time>2011-12-28T14:06:46Z</time>
      </trkpt>
      <trkpt lat="44.16347" lon="4.23864">
        <ele>158.75</ele>
        <time>2011-12-28T14:06:47Z</time>
      </trkpt>
      <trkpt lat="44.16348" lon="4.23853">
        <ele>158.75</ele>
        <time>2011-12-28T14:06:48Z</time>
      </trkpt>
      <trkpt lat="44.16347" lon="4.23842">
        <ele>158.75</ele>
        <time>2011-12-28T14:06:49Z</time>
      </trkpt>
      <trkpt lat="44.16347" lon="4.23832">
        <ele>157.79</ele>
        <time>2011-12-28T14:06:50Z</time>
      </trkpt>
      <trkpt lat="44.16342" lon="4.23752">
        <ele>154.43</ele>
        <time>2011-12-28T14:06:57Z</time>
      </trkpt>
      <trkpt lat="44.16335" lon="4.23706">
        <ele>152.51</ele>
        <time>2011-12-28T14:07:05Z</time>
      </trkpt>
      <trkpt lat="44.16332" lon="4.23697">
        <ele>152.03</ele>
        <time>2011-12-28T14:07:07Z</time>
      </trkpt>
      <trkpt lat="44.16329" lon="4.23693">
        <ele>151.54</ele>
        <time>2011-12-28T14:07:08Z</time>
      </trkpt>
      <trkpt lat="44.16326" lon="4.23691">
        <ele>151.54</ele>
        <time>2011-12-28T14:07:09Z</time>
      </trkpt>
      <trkpt lat="44.16316" lon="4.23692">
        <ele>152.03</ele>
        <time>2011-12-28T14:07:12Z</time>
      </trkpt>
      <trkpt lat="44.16303" lon="4.23695">
        <ele>152.03</ele>
        <time>2011-12-28T14:07:15Z</time>
      </trkpt>
      <trkpt lat="44.16299" lon="4.23696">
        <ele>152.03</ele>
        <time>2011-12-28T14:07:16Z</time>
      </trkpt>
      <trkpt lat="44.16228" lon="4.23718">
        <ele>151.54</ele>
        <time>2011-12-28T14:07:31Z</time>
      </trkpt>
      <trkpt lat="44.16168" lon="4.23744">
        <ele>152.03</ele>
        <time>2011-12-28T14:07:44Z</time>
      </trkpt>
      <trkpt lat="44.1616" lon="4.23747">
        <ele>152.03</ele>
        <time>2011-12-28T14:07:46Z</time>
      </trkpt>
      <trkpt lat="44.16122" lon="4.23764">
        <ele>152.99</ele>
        <time>2011-12-28T14:07:58Z</time>
      </trkpt>
      <trkpt lat="44.16076" lon="4.2379">
        <ele>154.43</ele>
        <time>2011-12-28T14:08:13Z</time>
      </trkpt>
      <trkpt lat="44.16036" lon="4.23814">
        <ele>154.91</ele>
        <time>2011-12-28T14:08:25Z</time>
      </trkpt>
      <trkpt lat="44.15989" lon="4.23825">
        <ele>154.91</ele>
        <time>2011-12-28T14:08:38Z</time>
      </trkpt>
      <trkpt lat="44.15947" lon="4.23831">
        <ele>158.27</ele>
        <time>2011-12-28T14:08:50Z</time>
      </trkpt>
      <trkpt lat="44.15903" lon="4.23833">
        <ele>159.24</ele>
        <time>2011-12-28T14:09:03Z</time>
      </trkpt>
      <trkpt lat="44.15857" lon="4.23829">
        <ele>161.64</ele>
        <time>2011-12-28T14:09:17Z</time>
      </trkpt>
      <trkpt lat="44.15814" lon="4.23827">
        <ele>162.6</ele>
        <time>2011-12-28T14:09:31Z</time>
      </trkpt>
      <trkpt lat="44.15765" lon="4.23832">
        <ele>164.52</ele>
        <time>2011-12-28T14:09:46Z</time>
      </trkpt>
      <trkpt lat="44.15719" lon="4.23837">
        <ele>164.52</ele>
        <time>2011-12-28T14:09:59Z</time>
      </trkpt>
      <trkpt lat="44.15673" lon="4.23844">
        <ele>165.48</ele>
        <time>2011-12-28T14:10:12Z</time>
      </trkpt>
      <trkpt lat="44.15613" lon="4.2386">
        <ele>165.48</ele>
        <time>2011-12-28T14:10:28Z</time>
      </trkpt>
      <trkpt lat="44.1559" lon="4.2387">
        <ele>165.96</ele>
        <time>2011-12-28T14:10:34Z</time>
      </trkpt>
      <trkpt lat="44.15587" lon="4.23872">
        <ele>165.48</ele>
        <time>2011-12-28T14:10:35Z</time>
      </trkpt>
      <trkpt lat="44.15537" lon="4.23898">
        <ele>166.45</ele>
        <time>2011-12-28T14:10:49Z</time>
      </trkpt>
      <trkpt lat="44.15521" lon="4.23915">
        <ele>166.93</ele>
        <time>2011-12-28T14:10:54Z</time>
      </trkpt>
      <trkpt lat="44.15518" lon="4.23918">
        <ele>166.45</ele>
        <time>2011-12-28T14:10:55Z</time>
      </trkpt>
      <trkpt lat="44.15515" lon="4.23922">
        <ele>166.93</ele>
        <time>2011-12-28T14:10:56Z</time>
      </trkpt>
      <trkpt lat="44.15474" lon="4.23959">
        <ele>168.37</ele>
        <time>2011-12-28T14:11:10Z</time>
      </trkpt>
      <trkpt lat="44.1544" lon="4.23977">
        <ele>169.33</ele>
        <time>2011-12-28T14:11:25Z</time>
      </trkpt>
      <trkpt lat="44.15412" lon="4.23991">
        <ele>170.29</ele>
        <time>2011-12-28T14:11:39Z</time>
      </trkpt>
      <trkpt lat="44.15377" lon="4.24009">
        <ele>172.21</ele>
        <time>2011-12-28T14:11:54Z</time>
      </trkpt>
      <trkpt lat="44.15337" lon="4.24027">
        <ele>172.69</ele>
        <time>2011-12-28T14:12:10Z</time>
      </trkpt>
      <trkpt lat="44.15291" lon="4.24053">
        <ele>173.66</ele>
        <time>2011-12-28T14:12:28Z</time>
      </trkpt>
      <trkpt lat="44.15245" lon="4.24084">
        <ele>175.58</ele>
        <time>2011-12-28T14:12:46Z</time>
      </trkpt>
      <trkpt lat="44.15213" lon="4.24106">
        <ele>177.02</ele>
        <time>2011-12-28T14:12:59Z</time>
      </trkpt>
      <trkpt lat="44.15184" lon="4.24123">
        <ele>178.46</ele>
        <time>2011-12-28T14:13:11Z</time>
      </trkpt>
      <trkpt lat="44.15149" lon="4.24143">
        <ele>179.9</ele>
        <time>2011-12-28T14:13:25Z</time>
      </trkpt>
      <trkpt lat="44.15104" lon="4.2416">
        <ele>181.35</ele>
        <time>2011-12-28T14:13:41Z</time>
      </trkpt>
      <trkpt lat="44.15064" lon="4.24173">
        <ele>181.35</ele>
        <time>2011-12-28T14:13:54Z</time>
      </trkpt>
      <trkpt lat="44.15018" lon="4.24194">
        <ele>182.79</ele>
        <time>2011-12-28T14:14:09Z</time>
      </trkpt>
      <trkpt lat="44.14966" lon="4.2422">
        <ele>183.27</ele>
        <time>2011-12-28T14:14:24Z</time>
      </trkpt>
      <trkpt lat="44.14923" lon="4.24242">
        <ele>184.71</ele>
        <time>2011-12-28T14:14:39Z</time>
      </trkpt>
      <trkpt lat="44.14864" lon="4.24244">
        <ele>183.75</ele>
        <time>2011-12-28T14:14:55Z</time>
      </trkpt>
      <trkpt lat="44.14849" lon="4.24232">
        <ele>183.27</ele>
        <time>2011-12-28T14:15:00Z</time>
      </trkpt>
      <trkpt lat="44.14841" lon="4.242">
        <ele>182.31</ele>
        <time>2011-12-28T14:15:05Z</time>
      </trkpt>
      <trkpt lat="44.14837" lon="4.24164">
        <ele>180.38</ele>
        <time>2011-12-28T14:15:14Z</time>
      </trkpt>
      <trkpt lat="44.14837" lon="4.24164">
        <ele>180.87</ele>
        <time>2011-12-28T14:15:35Z</time>
      </trkpt>
      <trkpt lat="44.14837" lon="4.24164">
        <ele>180.87</ele>
        <time>2011-12-28T14:16:02Z</time>
      </trkpt>
      <trkpt lat="44.14837" lon="4.24164">
        <ele>180.87</ele>
        <time>2011-12-28T14:16:30Z</time>
      </trkpt>
      <trkpt lat="44.14837" lon="4.24163">
        <ele>180.87</ele>
        <time>2011-12-28T14:16:53Z</time>
      </trkpt>
      <trkpt lat="44.14837" lon="4.24161">
        <ele>180.87</ele>
        <time>2011-12-28T14:16:55Z</time>
      </trkpt>
      <trkpt lat="44.14837" lon="4.24159">
        <ele>181.35</ele>
        <time>2011-12-28T14:16:56Z</time>
      </trkpt>
      <trkpt lat="44.14836" lon="4.24157">
        <ele>180.87</ele>
        <time>2011-12-28T14:16:57Z</time>
      </trkpt>
      <trkpt lat="44.14836" lon="4.24154">
        <ele>180.38</ele>
        <time>2011-12-28T14:16:58Z</time>
      </trkpt>
      <trkpt lat="44.14835" lon="4.24151">
        <ele>181.35</ele>
        <time>2011-12-28T14:16:59Z</time>
      </trkpt>
      <trkpt lat="44.14821" lon="4.24089">
        <ele>180.87</ele>
        <time>2011-12-28T14:17:13Z</time>
      </trkpt>
      <trkpt lat="44.14794" lon="4.24029">
        <ele>181.83</ele>
        <time>2011-12-28T14:17:27Z</time>
      </trkpt>
      <trkpt lat="44.14788" lon="4.23973">
        <ele>178.94</ele>
        <time>2011-12-28T14:17:36Z</time>
      </trkpt>
      <trkpt lat="44.1478" lon="4.23899">
        <ele>177.02</ele>
        <time>2011-12-28T14:17:45Z</time>
      </trkpt>
      <trkpt lat="44.14779" lon="4.23891">
        <ele>177.02</ele>
        <time>2011-12-28T14:17:46Z</time>
      </trkpt>
      <trkpt lat="44.14778" lon="4.23884">
        <ele>177.02</ele>
        <time>2011-12-28T14:17:47Z</time>
      </trkpt>
      <trkpt lat="44.14776" lon="4.23877">
        <ele>176.54</ele>
        <time>2011-12-28T14:17:48Z</time>
      </trkpt>
      <trkpt lat="44.14774" lon="4.2387">
        <ele>176.54</ele>
        <time>2011-12-28T14:17:49Z</time>
      </trkpt>
      <trkpt lat="44.14764" lon="4.23809">
        <ele>174.14</ele>
        <time>2011-12-28T14:17:57Z</time>
      </trkpt>
      <trkpt lat="44.14763" lon="4.23803">
        <ele>174.14</ele>
        <time>2011-12-28T14:17:58Z</time>
      </trkpt>
      <trkpt lat="44.14761" lon="4.23791">
        <ele>173.66</ele>
        <time>2011-12-28T14:18:00Z</time>
      </trkpt>
      <trkpt lat="44.14755" lon="4.23713">
        <ele>171.25</ele>
        <time>2011-12-28T14:18:11Z</time>
      </trkpt>
      <trkpt lat="44.14754" lon="4.23706">
        <ele>171.25</ele>
        <time>2011-12-28T14:18:12Z</time>
      </trkpt>
      <trkpt lat="44.14742" lon="4.23608">
        <ele>168.85</ele>
        <time>2011-12-28T14:18:23Z</time>
      </trkpt>
      <trkpt lat="44.14715" lon="4.23502">
        <ele>166.93</ele>
        <time>2011-12-28T14:18:38Z</time>
      </trkpt>
      <trkpt lat="44.14711" lon="4.23487">
        <ele>166.45</ele>
        <time>2011-12-28T14:18:40Z</time>
      </trkpt>
      <trkpt lat="44.1471" lon="4.23479">
        <ele>165.96</ele>
        <time>2011-12-28T14:18:41Z</time>
      </trkpt>
      <trkpt lat="44.1471" lon="4.2347">
        <ele>165.48</ele>
        <time>2011-12-28T14:18:42Z</time>
      </trkpt>
      <trkpt lat="44.14707" lon="4.23403">
        <ele>164.04</ele>
        <time>2011-12-28T14:18:50Z</time>
      </trkpt>
      <trkpt lat="44.14706" lon="4.23394">
        <ele>164.04</ele>
        <time>2011-12-28T14:18:51Z</time>
      </trkpt>
      <trkpt lat="44.14706" lon="4.23386">
        <ele>163.56</ele>
        <time>2011-12-28T14:18:52Z</time>
      </trkpt>
      <trkpt lat="44.14705" lon="4.23377">
        <ele>163.56</ele>
        <time>2011-12-28T14:18:53Z</time>
      </trkpt>
      <trkpt lat="44.14704" lon="4.23369">
        <ele>163.56</ele>
        <time>2011-12-28T14:18:54Z</time>
      </trkpt>
      <trkpt lat="44.14703" lon="4.2336">
        <ele>162.6</ele>
        <time>2011-12-28T14:18:55Z</time>
      </trkpt>
      <trkpt lat="44.14691" lon="4.23248">
        <ele>162.12</ele>
        <time>2011-12-28T14:19:10Z</time>
      </trkpt>
      <trkpt lat="44.1469" lon="4.2324">
        <ele>162.12</ele>
        <time>2011-12-28T14:19:11Z</time>
      </trkpt>
      <trkpt lat="44.14679" lon="4.23123">
        <ele>161.16</ele>
        <time>2011-12-28T14:19:27Z</time>
      </trkpt>
      <trkpt lat="44.14669" lon="4.23007">
        <ele>159.72</ele>
        <time>2011-12-28T14:19:44Z</time>
      </trkpt>
      <trkpt lat="44.1466" lon="4.22894">
        <ele>159.24</ele>
        <time>2011-12-28T14:20:01Z</time>
      </trkpt>
      <trkpt lat="44.14654" lon="4.22863">
        <ele>159.72</ele>
        <time>2011-12-28T14:20:06Z</time>
      </trkpt>
      <trkpt lat="44.14653" lon="4.22857">
        <ele>158.75</ele>
        <time>2011-12-28T14:20:07Z</time>
      </trkpt>
      <trkpt lat="44.1465" lon="4.22844">
        <ele>158.27</ele>
        <time>2011-12-28T14:20:09Z</time>
      </trkpt>
      <trkpt lat="44.14648" lon="4.2283">
        <ele>158.75</ele>
        <time>2011-12-28T14:20:11Z</time>
      </trkpt>
      <trkpt lat="44.14647" lon="4.22823">
        <ele>158.75</ele>
        <time>2011-12-28T14:20:12Z</time>
      </trkpt>
      <trkpt lat="44.14648" lon="4.22816">
        <ele>158.27</ele>
        <time>2011-12-28T14:20:13Z</time>
      </trkpt>
      <trkpt lat="44.14648" lon="4.22786">
        <ele>158.27</ele>
        <time>2011-12-28T14:20:17Z</time>
      </trkpt>
      <trkpt lat="44.14648" lon="4.22778">
        <ele>158.27</ele>
        <time>2011-12-28T14:20:18Z</time>
      </trkpt>
      <trkpt lat="44.14648" lon="4.22749">
        <ele>157.31</ele>
        <time>2011-12-28T14:20:22Z</time>
      </trkpt>
      <trkpt lat="44.14648" lon="4.22736">
        <ele>156.83</ele>
        <time>2011-12-28T14:20:24Z</time>
      </trkpt>
      <trkpt lat="44.14646" lon="4.22731">
        <ele>156.35</ele>
        <time>2011-12-28T14:20:25Z</time>
      </trkpt>
      <trkpt lat="44.14644" lon="4.22727">
        <ele>156.83</ele>
        <time>2011-12-28T14:20:26Z</time>
      </trkpt>
      <trkpt lat="44.14639" lon="4.22726">
        <ele>156.35</ele>
        <time>2011-12-28T14:20:27Z</time>
      </trkpt>
      <trkpt lat="44.14634" lon="4.22726">
        <ele>156.83</ele>
        <time>2011-12-28T14:20:28Z</time>
      </trkpt>
      <trkpt lat="44.1463" lon="4.22728">
        <ele>157.31</ele>
        <time>2011-12-28T14:20:29Z</time>
      </trkpt>
      <trkpt lat="44.14626" lon="4.22729">
        <ele>157.31</ele>
        <time>2011-12-28T14:20:30Z</time>
      </trkpt>
      <trkpt lat="44.14566" lon="4.22748">
        <ele>157.31</ele>
        <time>2011-12-28T14:20:46Z</time>
      </trkpt>
      <trkpt lat="44.14519" lon="4.22767">
        <ele>154.91</ele>
        <time>2011-12-28T14:20:57Z</time>
      </trkpt>
      <trkpt lat="44.14513" lon="4.22768">
        <ele>154.43</ele>
        <time>2011-12-28T14:20:58Z</time>
      </trkpt>
      <trkpt lat="44.14503" lon="4.22768">
        <ele>154.43</ele>
        <time>2011-12-28T14:21:00Z</time>
      </trkpt>
      <trkpt lat="44.14484" lon="4.22763">
        <ele>154.91</ele>
        <time>2011-12-28T14:21:04Z</time>
      </trkpt>
      <trkpt lat="44.14479" lon="4.22763">
        <ele>154.91</ele>
        <time>2011-12-28T14:21:05Z</time>
      </trkpt>
      <trkpt lat="44.14474" lon="4.22763">
        <ele>154.43</ele>
        <time>2011-12-28T14:21:06Z</time>
      </trkpt>
      <trkpt lat="44.1447" lon="4.22763">
        <ele>154.43</ele>
        <time>2011-12-28T14:21:07Z</time>
      </trkpt>
      <trkpt lat="44.14465" lon="4.22764">
        <ele>154.91</ele>
        <time>2011-12-28T14:21:08Z</time>
      </trkpt>
      <trkpt lat="44.14461" lon="4.22766">
        <ele>154.43</ele>
        <time>2011-12-28T14:21:09Z</time>
      </trkpt>
      <trkpt lat="44.14432" lon="4.2278">
        <ele>154.43</ele>
        <time>2011-12-28T14:21:16Z</time>
      </trkpt>
      <trkpt lat="44.14428" lon="4.22783">
        <ele>154.91</ele>
        <time>2011-12-28T14:21:17Z</time>
      </trkpt>
      <trkpt lat="44.14425" lon="4.22787">
        <ele>154.43</ele>
        <time>2011-12-28T14:21:18Z</time>
      </trkpt>
      <trkpt lat="44.14423" lon="4.22791">
        <ele>154.43</ele>
        <time>2011-12-28T14:21:19Z</time>
      </trkpt>
      <trkpt lat="44.14421" lon="4.22796">
        <ele>154.91</ele>
        <time>2011-12-28T14:21:20Z</time>
      </trkpt>
      <trkpt lat="44.14419" lon="4.22801">
        <ele>154.91</ele>
        <time>2011-12-28T14:21:21Z</time>
      </trkpt>
      <trkpt lat="44.14415" lon="4.22812">
        <ele>154.43</ele>
        <time>2011-12-28T14:21:23Z</time>
      </trkpt>
      <trkpt lat="44.14413" lon="4.22817">
        <ele>154.43</ele>
        <time>2011-12-28T14:21:24Z</time>
      </trkpt>
      <trkpt lat="44.14401" lon="4.22833">
        <ele>154.91</ele>
        <time>2011-12-28T14:21:29Z</time>
      </trkpt>
      <trkpt lat="44.1439" lon="4.22835">
        <ele>155.39</ele>
        <time>2011-12-28T14:21:32Z</time>
      </trkpt>
      <trkpt lat="44.14386" lon="4.22838">
        <ele>154.91</ele>
        <time>2011-12-28T14:21:33Z</time>
      </trkpt>
      <trkpt lat="44.14366" lon="4.22848">
        <ele>155.39</ele>
        <time>2011-12-28T14:21:41Z</time>
      </trkpt>
      <trkpt lat="44.14364" lon="4.22847">
        <ele>155.39</ele>
        <time>2011-12-28T14:21:42Z</time>
      </trkpt>
      <trkpt lat="44.14361" lon="4.22845">
        <ele>155.39</ele>
        <time>2011-12-28T14:21:43Z</time>
      </trkpt>
      <trkpt lat="44.14359" lon="4.22843">
        <ele>155.87</ele>
        <time>2011-12-28T14:21:44Z</time>
      </trkpt>
      <trkpt lat="44.14358" lon="4.22841">
        <ele>155.87</ele>
        <time>2011-12-28T14:21:45Z</time>
      </trkpt>
      <trkpt lat="44.14357" lon="4.22839">
        <ele>155.87</ele>
        <time>2011-12-28T14:21:46Z</time>
      </trkpt>
      <trkpt lat="44.14356" lon="4.22837">
        <ele>155.87</ele>
        <time>2011-12-28T14:21:47Z</time>
      </trkpt>
      <trkpt lat="44.14356" lon="4.22835">
        <ele>155.87</ele>
        <time>2011-12-28T14:21:48Z</time>
      </trkpt>
      <trkpt lat="44.14355" lon="4.22833">
        <ele>155.87</ele>
        <time>2011-12-28T14:21:49Z</time>
      </trkpt>
      <trkpt lat="44.14353" lon="4.22832">
        <ele>155.87</ele>
        <time>2011-12-28T14:21:50Z</time>
      </trkpt>
      <trkpt lat="44.14352" lon="4.22831">
        <ele>155.87</ele>
        <time>2011-12-28T14:21:51Z</time>
      </trkpt>
      <trkpt lat="44.1435" lon="4.2283">
        <ele>155.87</ele>
        <time>2011-12-28T14:21:52Z</time>
      </trkpt>
      <trkpt lat="44.14348" lon="4.2283">
        <ele>155.87</ele>
        <time>2011-12-28T14:21:54Z</time>
      </trkpt>
      <trkpt lat="44.14346" lon="4.2283">
        <ele>155.87</ele>
        <time>2011-12-28T14:21:55Z</time>
      </trkpt>
      <trkpt lat="44.14345" lon="4.2283">
        <ele>155.87</ele>
        <time>2011-12-28T14:21:56Z</time>
      </trkpt>
      <trkpt lat="44.14336" lon="4.22831">
        <ele>156.83</ele>
        <time>2011-12-28T14:22:05Z</time>
      </trkpt>
      <trkpt lat="44.14335" lon="4.22832">
        <ele>156.35</ele>
        <time>2011-12-28T14:22:06Z</time>
      </trkpt>
      <trkpt lat="44.14334" lon="4.22834">
        <ele>156.35</ele>
        <time>2011-12-28T14:22:07Z</time>
      </trkpt>
      <trkpt lat="44.14333" lon="4.22836">
        <ele>156.83</ele>
        <time>2011-12-28T14:22:08Z</time>
      </trkpt>
      <trkpt lat="44.14331" lon="4.22838">
        <ele>156.83</ele>
        <time>2011-12-28T14:22:09Z</time>
      </trkpt>
      <trkpt lat="44.14328" lon="4.22841">
        <ele>156.83</ele>
        <time>2011-12-28T14:22:10Z</time>
      </trkpt>
      <trkpt lat="44.14324" lon="4.22844">
        <ele>157.31</ele>
        <time>2011-12-28T14:22:11Z</time>
      </trkpt>
      <trkpt lat="44.1432" lon="4.22848">
        <ele>156.83</ele>
        <time>2011-12-28T14:22:12Z</time>
      </trkpt>
      <trkpt lat="44.1428" lon="4.22873">
        <ele>158.75</ele>
        <time>2011-12-28T14:22:22Z</time>
      </trkpt>
      <trkpt lat="44.14233" lon="4.22893">
        <ele>160.68</ele>
        <time>2011-12-28T14:22:37Z</time>
      </trkpt>
      <trkpt lat="44.14196" lon="4.22913">
        <ele>161.16</ele>
        <time>2011-12-28T14:22:49Z</time>
      </trkpt>
      <trkpt lat="44.14145" lon="4.22929">
        <ele>161.64</ele>
        <time>2011-12-28T14:23:04Z</time>
      </trkpt>
      <trkpt lat="44.14102" lon="4.22959">
        <ele>162.6</ele>
        <time>2011-12-28T14:23:18Z</time>
      </trkpt>
      <trkpt lat="44.1406" lon="4.23003">
        <ele>164.04</ele>
        <time>2011-12-28T14:23:34Z</time>
      </trkpt>
      <trkpt lat="44.14034" lon="4.23019">
        <ele>163.08</ele>
        <time>2011-12-28T14:23:50Z</time>
      </trkpt>
      <trkpt lat="44.14033" lon="4.23019">
        <ele>164.04</ele>
        <time>2011-12-28T14:24:04Z</time>
      </trkpt>
      <trkpt lat="44.14033" lon="4.23019">
        <ele>164.04</ele>
        <time>2011-12-28T14:24:33Z</time>
      </trkpt>
      <trkpt lat="44.14033" lon="4.23019">
        <ele>164.04</ele>
        <time>2011-12-28T14:24:56Z</time>
      </trkpt>
      <trkpt lat="44.14033" lon="4.23019">
        <ele>164.04</ele>
        <time>2011-12-28T14:25:20Z</time>
      </trkpt>
      <trkpt lat="44.14032" lon="4.2302">
        <ele>163.56</ele>
        <time>2011-12-28T14:25:28Z</time>
      </trkpt>
      <trkpt lat="44.14028" lon="4.2302">
        <ele>163.56</ele>
        <time>2011-12-28T14:25:30Z</time>
      </trkpt>
      <trkpt lat="44.14026" lon="4.23018">
        <ele>163.56</ele>
        <time>2011-12-28T14:25:31Z</time>
      </trkpt>
      <trkpt lat="44.14025" lon="4.23015">
        <ele>163.56</ele>
        <time>2011-12-28T14:25:32Z</time>
      </trkpt>
      <trkpt lat="44.14025" lon="4.23011">
        <ele>163.56</ele>
        <time>2011-12-28T14:25:33Z</time>
      </trkpt>
      <trkpt lat="44.14026" lon="4.23007">
        <ele>163.08</ele>
        <time>2011-12-28T14:25:34Z</time>
      </trkpt>
      <trkpt lat="44.14027" lon="4.23002">
        <ele>163.08</ele>
        <time>2011-12-28T14:25:35Z</time>
      </trkpt>
      <trkpt lat="44.14041" lon="4.22928">
        <ele>164.04</ele>
        <time>2011-12-28T14:25:49Z</time>
      </trkpt>
      <trkpt lat="44.14057" lon="4.22829">
        <ele>160.68</ele>
        <time>2011-12-28T14:26:03Z</time>
      </trkpt>
      <trkpt lat="44.14067" lon="4.22715">
        <ele>159.24</ele>
        <time>2011-12-28T14:26:16Z</time>
      </trkpt>
      <trkpt lat="44.14063" lon="4.22617">
        <ele>159.72</ele>
        <time>2011-12-28T14:26:28Z</time>
      </trkpt>
      <trkpt lat="44.14063" lon="4.22608">
        <ele>159.24</ele>
        <time>2011-12-28T14:26:29Z</time>
      </trkpt>
      <trkpt lat="44.14061" lon="4.22495">
        <ele>162.6</ele>
        <time>2011-12-28T14:26:43Z</time>
      </trkpt>
      <trkpt lat="44.1406" lon="4.22469">
        <ele>162.6</ele>
        <time>2011-12-28T14:26:47Z</time>
      </trkpt>
      <trkpt lat="44.14059" lon="4.22464">
        <ele>163.08</ele>
        <time>2011-12-28T14:26:48Z</time>
      </trkpt>
      <trkpt lat="44.14055" lon="4.22461">
        <ele>162.6</ele>
        <time>2011-12-28T14:26:49Z</time>
      </trkpt>
      <trkpt lat="44.14051" lon="4.22459">
        <ele>162.6</ele>
        <time>2011-12-28T14:26:50Z</time>
      </trkpt>
      <trkpt lat="44.14046" lon="4.22459">
        <ele>163.08</ele>
        <time>2011-12-28T14:26:51Z</time>
      </trkpt>
      <trkpt lat="44.14042" lon="4.2246">
        <ele>162.6</ele>
        <time>2011-12-28T14:26:52Z</time>
      </trkpt>
      <trkpt lat="44.14037" lon="4.2246">
        <ele>162.6</ele>
        <time>2011-12-28T14:26:53Z</time>
      </trkpt>
      <trkpt lat="44.14032" lon="4.22461">
        <ele>163.56</ele>
        <time>2011-12-28T14:26:54Z</time>
      </trkpt>
      <trkpt lat="44.14019" lon="4.22464">
        <ele>163.56</ele>
        <time>2011-12-28T14:26:57Z</time>
      </trkpt>
      <trkpt lat="44.14015" lon="4.22465">
        <ele>163.08</ele>
        <time>2011-12-28T14:26:58Z</time>
      </trkpt>
      <trkpt lat="44.1401" lon="4.22466">
        <ele>163.56</ele>
        <time>2011-12-28T14:26:59Z</time>
      </trkpt>
      <trkpt lat="44.13993" lon="4.2247">
        <ele>164.52</ele>
        <time>2011-12-28T14:27:03Z</time>
      </trkpt>
      <trkpt lat="44.13939" lon="4.22467">
        <ele>165.48</ele>
        <time>2011-12-28T14:27:17Z</time>
      </trkpt>
      <trkpt lat="44.13906" lon="4.22479">
        <ele>165.48</ele>
        <time>2011-12-28T14:27:26Z</time>
      </trkpt>
      <trkpt lat="44.13897" lon="4.22483">
        <ele>165.48</ele>
        <time>2011-12-28T14:27:28Z</time>
      </trkpt>
      <trkpt lat="44.13892" lon="4.22484">
        <ele>165.48</ele>
        <time>2011-12-28T14:27:29Z</time>
      </trkpt>
      <trkpt lat="44.13888" lon="4.22486">
        <ele>165.48</ele>
        <time>2011-12-28T14:27:30Z</time>
      </trkpt>
      <trkpt lat="44.1384" lon="4.22504">
        <ele>165.48</ele>
        <time>2011-12-28T14:27:41Z</time>
      </trkpt>
      <trkpt lat="44.13814" lon="4.22512">
        <ele>165.48</ele>
        <time>2011-12-28T14:27:47Z</time>
      </trkpt>
      <trkpt lat="44.13744" lon="4.22526">
        <ele>166.45</ele>
        <time>2011-12-28T14:28:03Z</time>
      </trkpt>
      <trkpt lat="44.13672" lon="4.22543">
        <ele>167.89</ele>
        <time>2011-12-28T14:28:21Z</time>
      </trkpt>
      <trkpt lat="44.13623" lon="4.22551">
        <ele>170.29</ele>
        <time>2011-12-28T14:28:35Z</time>
      </trkpt>
      <trkpt lat="44.13595" lon="4.22557">
        <ele>172.21</ele>
        <time>2011-12-28T14:28:49Z</time>
      </trkpt>
      <trkpt lat="44.13553" lon="4.2256">
        <ele>172.69</ele>
        <time>2011-12-28T14:29:05Z</time>
      </trkpt>
      <trkpt lat="44.1351" lon="4.22567">
        <ele>171.73</ele>
        <time>2011-12-28T14:29:17Z</time>
      </trkpt>
      <trkpt lat="44.135" lon="4.22566">
        <ele>171.73</ele>
        <time>2011-12-28T14:29:19Z</time>
      </trkpt>
      <trkpt lat="44.13495" lon="4.22565">
        <ele>171.25</ele>
        <time>2011-12-28T14:29:20Z</time>
      </trkpt>
      <trkpt lat="44.13491" lon="4.22562">
        <ele>171.25</ele>
        <time>2011-12-28T14:29:21Z</time>
      </trkpt>
      <trkpt lat="44.13471" lon="4.22554">
        <ele>171.25</ele>
        <time>2011-12-28T14:29:25Z</time>
      </trkpt>
      <trkpt lat="44.13466" lon="4.22553">
        <ele>171.73</ele>
        <time>2011-12-28T14:29:26Z</time>
      </trkpt>
      <trkpt lat="44.13385" lon="4.22517">
        <ele>169.81</ele>
        <time>2011-12-28T14:29:42Z</time>
      </trkpt>
      <trkpt lat="44.13357" lon="4.22504">
        <ele>171.73</ele>
        <time>2011-12-28T14:29:50Z</time>
      </trkpt>
      <trkpt lat="44.13337" lon="4.22498">
        <ele>171.73</ele>
        <time>2011-12-28T14:29:59Z</time>
      </trkpt>
      <trkpt lat="44.13335" lon="4.22498">
        <ele>172.21</ele>
        <time>2011-12-28T14:30:00Z</time>
      </trkpt>
      <trkpt lat="44.13333" lon="4.22497">
        <ele>172.21</ele>
        <time>2011-12-28T14:30:01Z</time>
      </trkpt>
      <trkpt lat="44.1333" lon="4.22496">
        <ele>172.21</ele>
        <time>2011-12-28T14:30:02Z</time>
      </trkpt>
      <trkpt lat="44.13327" lon="4.22495">
        <ele>172.21</ele>
        <time>2011-12-28T14:30:03Z</time>
      </trkpt>
      <trkpt lat="44.13293" lon="4.22486">
        <ele>172.69</ele>
        <time>2011-12-28T14:30:18Z</time>
      </trkpt>
      <trkpt lat="44.13249" lon="4.22471">
        <ele>174.14</ele>
        <time>2011-12-28T14:30:34Z</time>
      </trkpt>
      <trkpt lat="44.13214" lon="4.22453">
        <ele>175.1</ele>
        <time>2011-12-28T14:30:46Z</time>
      </trkpt>
      <trkpt lat="44.13163" lon="4.22421">
        <ele>175.58</ele>
        <time>2011-12-28T14:31:03Z</time>
      </trkpt>
      <trkpt lat="44.13129" lon="4.22383">
        <ele>176.06</ele>
        <time>2011-12-28T14:31:18Z</time>
      </trkpt>
      <trkpt lat="44.13107" lon="4.22359">
        <ele>177.5</ele>
        <time>2011-12-28T14:31:30Z</time>
      </trkpt>
      <trkpt lat="44.1309" lon="4.22348">
        <ele>180.38</ele>
        <time>2011-12-28T14:31:42Z</time>
      </trkpt>
      <trkpt lat="44.13089" lon="4.22349">
        <ele>179.9</ele>
        <time>2011-12-28T14:32:02Z</time>
      </trkpt>
      <trkpt lat="44.13089" lon="4.22349">
        <ele>179.9</ele>
        <time>2011-12-28T14:32:35Z</time>
      </trkpt>
      <trkpt lat="44.13089" lon="4.22349">
        <ele>179.42</ele>
        <time>2011-12-28T14:33:06Z</time>
      </trkpt>
      <trkpt lat="44.13081" lon="4.22346">
        <ele>180.87</ele>
        <time>2011-12-28T14:33:26Z</time>
      </trkpt>
      <trkpt lat="44.13065" lon="4.22345">
        <ele>180.38</ele>
        <time>2011-12-28T14:33:34Z</time>
      </trkpt>
      <trkpt lat="44.13063" lon="4.22346">
        <ele>179.9</ele>
        <time>2011-12-28T14:33:35Z</time>
      </trkpt>
      <trkpt lat="44.13061" lon="4.22347">
        <ele>180.38</ele>
        <time>2011-12-28T14:33:37Z</time>
      </trkpt>
      <trkpt lat="44.13059" lon="4.22348">
        <ele>180.87</ele>
        <time>2011-12-28T14:33:38Z</time>
      </trkpt>
      <trkpt lat="44.13058" lon="4.22349">
        <ele>180.38</ele>
        <time>2011-12-28T14:33:39Z</time>
      </trkpt>
      <trkpt lat="44.13056" lon="4.22348">
        <ele>180.38</ele>
        <time>2011-12-28T14:33:40Z</time>
      </trkpt>
      <trkpt lat="44.13055" lon="4.22347">
        <ele>180.87</ele>
        <time>2011-12-28T14:33:41Z</time>
      </trkpt>
      <trkpt lat="44.13054" lon="4.22347">
        <ele>180.38</ele>
        <time>2011-12-28T14:33:42Z</time>
      </trkpt>
      <trkpt lat="44.13053" lon="4.22348">
        <ele>179.9</ele>
        <time>2011-12-28T14:33:43Z</time>
      </trkpt>
      <trkpt lat="44.13053" lon="4.22347">
        <ele>178.94</ele>
        <time>2011-12-28T14:33:57Z</time>
      </trkpt>
      <trkpt lat="44.13053" lon="4.22347">
        <ele>182.31</ele>
        <time>2011-12-28T14:34:00Z</time>
      </trkpt>
      <trkpt lat="44.13053" lon="4.22347">
        <ele>175.1</ele>
        <time>2011-12-28T14:34:07Z</time>
      </trkpt>
      <trkpt lat="44.13053" lon="4.22347">
        <ele>180.38</ele>
        <time>2011-12-28T14:34:08Z</time>
      </trkpt>
      <trkpt lat="44.13053" lon="4.22347">
        <ele>180.87</ele>
        <time>2011-12-28T14:34:10Z</time>
      </trkpt>
      <trkpt lat="44.13052" lon="4.22348">
        <ele>180.38</ele>
        <time>2011-12-28T14:34:11Z</time>
      </trkpt>
      <trkpt lat="44.1305" lon="4.22347">
        <ele>180.87</ele>
        <time>2011-12-28T14:34:12Z</time>
      </trkpt>
      <trkpt lat="44.13048" lon="4.22347">
        <ele>180.38</ele>
        <time>2011-12-28T14:34:13Z</time>
      </trkpt>
      <trkpt lat="44.13045" lon="4.22348">
        <ele>180.87</ele>
        <time>2011-12-28T14:34:14Z</time>
      </trkpt>
      <trkpt lat="44.13043" lon="4.22348">
        <ele>180.87</ele>
        <time>2011-12-28T14:34:15Z</time>
      </trkpt>
      <trkpt lat="44.1304" lon="4.22348">
        <ele>180.38</ele>
        <time>2011-12-28T14:34:16Z</time>
      </trkpt>
      <trkpt lat="44.13038" lon="4.22347">
        <ele>180.87</ele>
        <time>2011-12-28T14:34:17Z</time>
      </trkpt>
      <trkpt lat="44.12996" lon="4.22349">
        <ele>181.83</ele>
        <time>2011-12-28T14:34:31Z</time>
      </trkpt>
      <trkpt lat="44.12957" lon="4.22337">
        <ele>181.83</ele>
        <time>2011-12-28T14:34:43Z</time>
      </trkpt>
      <trkpt lat="44.12928" lon="4.22295">
        <ele>182.79</ele>
        <time>2011-12-28T14:34:54Z</time>
      </trkpt>
      <trkpt lat="44.1292" lon="4.22278">
        <ele>183.27</ele>
        <time>2011-12-28T14:34:58Z</time>
      </trkpt>
      <trkpt lat="44.12918" lon="4.22273">
        <ele>183.27</ele>
        <time>2011-12-28T14:34:59Z</time>
      </trkpt>
      <trkpt lat="44.12917" lon="4.22268">
        <ele>183.27</ele>
        <time>2011-12-28T14:35:00Z</time>
      </trkpt>
      <trkpt lat="44.12915" lon="4.22264">
        <ele>183.75</ele>
        <time>2011-12-28T14:35:01Z</time>
      </trkpt>
      <trkpt lat="44.12913" lon="4.22259">
        <ele>184.23</ele>
        <time>2011-12-28T14:35:02Z</time>
      </trkpt>
      <trkpt lat="44.12908" lon="4.22251">
        <ele>184.23</ele>
        <time>2011-12-28T14:35:04Z</time>
      </trkpt>
      <trkpt lat="44.12902" lon="4.22242">
        <ele>183.75</ele>
        <time>2011-12-28T14:35:06Z</time>
      </trkpt>
      <trkpt lat="44.12873" lon="4.22219">
        <ele>183.75</ele>
        <time>2011-12-28T14:35:15Z</time>
      </trkpt>
      <trkpt lat="44.1287" lon="4.22216">
        <ele>184.71</ele>
        <time>2011-12-28T14:35:16Z</time>
      </trkpt>
      <trkpt lat="44.12866" lon="4.22214">
        <ele>184.23</ele>
        <time>2011-12-28T14:35:17Z</time>
      </trkpt>
      <trkpt lat="44.12862" lon="4.22214">
        <ele>184.23</ele>
        <time>2011-12-28T14:35:18Z</time>
      </trkpt>
      <trkpt lat="44.12859" lon="4.22215">
        <ele>183.27</ele>
        <time>2011-12-28T14:35:19Z</time>
      </trkpt>
      <trkpt lat="44.12855" lon="4.22216">
        <ele>183.27</ele>
        <time>2011-12-28T14:35:20Z</time>
      </trkpt>
      <trkpt lat="44.12852" lon="4.22216">
        <ele>182.79</ele>
        <time>2011-12-28T14:35:21Z</time>
      </trkpt>
      <trkpt lat="44.12848" lon="4.22214">
        <ele>182.31</ele>
        <time>2011-12-28T14:35:22Z</time>
      </trkpt>
      <trkpt lat="44.12844" lon="4.22212">
        <ele>182.79</ele>
        <time>2011-12-28T14:35:23Z</time>
      </trkpt>
      <trkpt lat="44.12808" lon="4.22195">
        <ele>185.19</ele>
        <time>2011-12-28T14:35:34Z</time>
      </trkpt>
      <trkpt lat="44.12806" lon="4.22193">
        <ele>185.19</ele>
        <time>2011-12-28T14:35:35Z</time>
      </trkpt>
      <trkpt lat="44.12799" lon="4.22189">
        <ele>185.19</ele>
        <time>2011-12-28T14:35:46Z</time>
      </trkpt>
      <trkpt lat="44.12799" lon="4.22189">
        <ele>184.71</ele>
        <time>2011-12-28T14:36:06Z</time>
      </trkpt>
      <trkpt lat="44.12797" lon="4.22188">
        <ele>185.67</ele>
        <time>2011-12-28T14:36:07Z</time>
      </trkpt>
      <trkpt lat="44.12796" lon="4.22186">
        <ele>184.71</ele>
        <time>2011-12-28T14:36:08Z</time>
      </trkpt>
      <trkpt lat="44.12795" lon="4.22184">
        <ele>185.19</ele>
        <time>2011-12-28T14:36:09Z</time>
      </trkpt>
      <trkpt lat="44.12793" lon="4.22182">
        <ele>185.19</ele>
        <time>2011-12-28T14:36:10Z</time>
      </trkpt>
      <trkpt lat="44.12792" lon="4.2218">
        <ele>185.67</ele>
        <time>2011-12-28T14:36:11Z</time>
      </trkpt>
      <trkpt lat="44.1279" lon="4.22179">
        <ele>185.19</ele>
        <time>2011-12-28T14:36:12Z</time>
      </trkpt>
      <trkpt lat="44.12788" lon="4.22179">
        <ele>185.67</ele>
        <time>2011-12-28T14:36:13Z</time>
      </trkpt>
      <trkpt lat="44.12786" lon="4.22178">
        <ele>185.19</ele>
        <time>2011-12-28T14:36:14Z</time>
      </trkpt>
      <trkpt lat="44.12785" lon="4.22177">
        <ele>185.19</ele>
        <time>2011-12-28T14:36:15Z</time>
      </trkpt>
      <trkpt lat="44.12783" lon="4.22174">
        <ele>185.19</ele>
        <time>2011-12-28T14:36:17Z</time>
      </trkpt>
      <trkpt lat="44.12782" lon="4.22173">
        <ele>185.67</ele>
        <time>2011-12-28T14:36:18Z</time>
      </trkpt>
      <trkpt lat="44.1278" lon="4.2217">
        <ele>185.67</ele>
        <time>2011-12-28T14:36:19Z</time>
      </trkpt>
      <trkpt lat="44.12778" lon="4.22168">
        <ele>186.15</ele>
        <time>2011-12-28T14:36:20Z</time>
      </trkpt>
      <trkpt lat="44.12776" lon="4.22166">
        <ele>186.15</ele>
        <time>2011-12-28T14:36:21Z</time>
      </trkpt>
      <trkpt lat="44.12773" lon="4.22165">
        <ele>185.67</ele>
        <time>2011-12-28T14:36:22Z</time>
      </trkpt>
      <trkpt lat="44.12771" lon="4.22164">
        <ele>185.67</ele>
        <time>2011-12-28T14:36:23Z</time>
      </trkpt>
      <trkpt lat="44.12769" lon="4.22163">
        <ele>186.15</ele>
        <time>2011-12-28T14:36:24Z</time>
      </trkpt>
      <trkpt lat="44.12757" lon="4.22135">
        <ele>187.11</ele>
        <time>2011-12-28T14:36:34Z</time>
      </trkpt>
      <trkpt lat="44.12745" lon="4.22094">
        <ele>188.56</ele>
        <time>2011-12-28T14:36:46Z</time>
      </trkpt>
      <trkpt lat="44.12741" lon="4.22043">
        <ele>189.52</ele>
        <time>2011-12-28T14:36:59Z</time>
      </trkpt>
      <trkpt lat="44.12743" lon="4.21981">
        <ele>190.48</ele>
        <time>2011-12-28T14:37:13Z</time>
      </trkpt>
      <trkpt lat="44.12752" lon="4.21928">
        <ele>191.92</ele>
        <time>2011-12-28T14:37:27Z</time>
      </trkpt>
      <trkpt lat="44.1276" lon="4.2188">
        <ele>192.88</ele>
        <time>2011-12-28T14:37:39Z</time>
      </trkpt>
      <trkpt lat="44.12777" lon="4.21833">
        <ele>194.32</ele>
        <time>2011-12-28T14:37:52Z</time>
      </trkpt>
      <trkpt lat="44.1279" lon="4.21789">
        <ele>195.77</ele>
        <time>2011-12-28T14:38:05Z</time>
      </trkpt>
      <trkpt lat="44.12795" lon="4.21752">
        <ele>195.77</ele>
        <time>2011-12-28T14:38:16Z</time>
      </trkpt>
      <trkpt lat="44.12804" lon="4.21729">
        <ele>197.21</ele>
        <time>2011-12-28T14:38:27Z</time>
      </trkpt>
      <trkpt lat="44.12809" lon="4.21725">
        <ele>198.17</ele>
        <time>2011-12-28T14:38:33Z</time>
      </trkpt>
      <trkpt lat="44.1281" lon="4.21725">
        <ele>198.17</ele>
        <time>2011-12-28T14:38:34Z</time>
      </trkpt>
      <trkpt lat="44.12811" lon="4.21725">
        <ele>197.69</ele>
        <time>2011-12-28T14:38:35Z</time>
      </trkpt>
      <trkpt lat="44.12812" lon="4.21724">
        <ele>198.17</ele>
        <time>2011-12-28T14:38:36Z</time>
      </trkpt>
      <trkpt lat="44.12814" lon="4.21723">
        <ele>198.17</ele>
        <time>2011-12-28T14:38:37Z</time>
      </trkpt>
      <trkpt lat="44.12815" lon="4.21722">
        <ele>197.69</ele>
        <time>2011-12-28T14:38:38Z</time>
      </trkpt>
      <trkpt lat="44.12816" lon="4.21721">
        <ele>198.65</ele>
        <time>2011-12-28T14:38:39Z</time>
      </trkpt>
      <trkpt lat="44.12817" lon="4.2172">
        <ele>198.17</ele>
        <time>2011-12-28T14:38:40Z</time>
      </trkpt>
      <trkpt lat="44.12822" lon="4.21714">
        <ele>199.13</ele>
        <time>2011-12-28T14:38:45Z</time>
      </trkpt>
      <trkpt lat="44.12823" lon="4.21712">
        <ele>199.61</ele>
        <time>2011-12-28T14:38:46Z</time>
      </trkpt>
      <trkpt lat="44.12824" lon="4.21711">
        <ele>200.09</ele>
        <time>2011-12-28T14:38:47Z</time>
      </trkpt>
      <trkpt lat="44.12835" lon="4.21692">
        <ele>201.53</ele>
        <time>2011-12-28T14:38:57Z</time>
      </trkpt>
      <trkpt lat="44.12845" lon="4.21662">
        <ele>203.94</ele>
        <time>2011-12-28T14:39:07Z</time>
      </trkpt>
      <trkpt lat="44.1285" lon="4.21633">
        <ele>205.86</ele>
        <time>2011-12-28T14:39:18Z</time>
      </trkpt>
      <trkpt lat="44.12859" lon="4.21604">
        <ele>208.74</ele>
        <time>2011-12-28T14:39:35Z</time>
      </trkpt>
      <trkpt lat="44.12864" lon="4.21585">
        <ele>211.15</ele>
        <time>2011-12-28T14:39:46Z</time>
      </trkpt>
      <trkpt lat="44.12866" lon="4.21582">
        <ele>211.63</ele>
        <time>2011-12-28T14:39:48Z</time>
      </trkpt>
      <trkpt lat="44.12866" lon="4.2158">
        <ele>211.15</ele>
        <time>2011-12-28T14:39:49Z</time>
      </trkpt>
      <trkpt lat="44.12867" lon="4.21578">
        <ele>211.63</ele>
        <time>2011-12-28T14:39:50Z</time>
      </trkpt>
      <trkpt lat="44.12868" lon="4.21575">
        <ele>212.11</ele>
        <time>2011-12-28T14:39:52Z</time>
      </trkpt>
      <trkpt lat="44.12868" lon="4.21571">
        <ele>212.11</ele>
        <time>2011-12-28T14:39:54Z</time>
      </trkpt>
      <trkpt lat="44.12869" lon="4.21569">
        <ele>212.59</ele>
        <time>2011-12-28T14:39:55Z</time>
      </trkpt>
      <trkpt lat="44.1287" lon="4.21568">
        <ele>212.59</ele>
        <time>2011-12-28T14:39:56Z</time>
      </trkpt>
      <trkpt lat="44.12871" lon="4.21566">
        <ele>212.59</ele>
        <time>2011-12-28T14:39:57Z</time>
      </trkpt>
      <trkpt lat="44.12872" lon="4.21565">
        <ele>213.07</ele>
        <time>2011-12-28T14:39:58Z</time>
      </trkpt>
      <trkpt lat="44.12873" lon="4.21563">
        <ele>213.07</ele>
        <time>2011-12-28T14:39:59Z</time>
      </trkpt>
      <trkpt lat="44.12879" lon="4.21542">
        <ele>214.99</ele>
        <time>2011-12-28T14:40:11Z</time>
      </trkpt>
      <trkpt lat="44.1288" lon="4.21541">
        <ele>215.47</ele>
        <time>2011-12-28T14:40:12Z</time>
      </trkpt>
      <trkpt lat="44.1288" lon="4.21539">
        <ele>214.99</ele>
        <time>2011-12-28T14:40:13Z</time>
      </trkpt>
      <trkpt lat="44.12889" lon="4.21514">
        <ele>215.95</ele>
        <time>2011-12-28T14:40:23Z</time>
      </trkpt>
      <trkpt lat="44.12902" lon="4.21475">
        <ele>215.47</ele>
        <time>2011-12-28T14:40:33Z</time>
      </trkpt>
      <trkpt lat="44.12906" lon="4.21466">
        <ele>214.51</ele>
        <time>2011-12-28T14:40:35Z</time>
      </trkpt>
      <trkpt lat="44.12916" lon="4.21445">
        <ele>213.55</ele>
        <time>2011-12-28T14:40:39Z</time>
      </trkpt>
      <trkpt lat="44.12919" lon="4.2144">
        <ele>213.55</ele>
        <time>2011-12-28T14:40:40Z</time>
      </trkpt>
      <trkpt lat="44.12922" lon="4.21435">
        <ele>213.55</ele>
        <time>2011-12-28T14:40:41Z</time>
      </trkpt>
      <trkpt lat="44.12929" lon="4.21424">
        <ele>213.07</ele>
        <time>2011-12-28T14:40:43Z</time>
      </trkpt>
      <trkpt lat="44.12933" lon="4.21418">
        <ele>212.11</ele>
        <time>2011-12-28T14:40:44Z</time>
      </trkpt>
      <trkpt lat="44.12936" lon="4.21412">
        <ele>212.11</ele>
        <time>2011-12-28T14:40:45Z</time>
      </trkpt>
      <trkpt lat="44.1294" lon="4.21406">
        <ele>211.63</ele>
        <time>2011-12-28T14:40:46Z</time>
      </trkpt>
      <trkpt lat="44.12945" lon="4.214">
        <ele>211.15</ele>
        <time>2011-12-28T14:40:47Z</time>
      </trkpt>
      <trkpt lat="44.12949" lon="4.21393">
        <ele>210.67</ele>
        <time>2011-12-28T14:40:48Z</time>
      </trkpt>
      <trkpt lat="44.12953" lon="4.21386">
        <ele>210.67</ele>
        <time>2011-12-28T14:40:49Z</time>
      </trkpt>
      <trkpt lat="44.12956" lon="4.21377">
        <ele>210.19</ele>
        <time>2011-12-28T14:40:50Z</time>
      </trkpt>
      <trkpt lat="44.12958" lon="4.21369">
        <ele>209.7</ele>
        <time>2011-12-28T14:40:51Z</time>
      </trkpt>
      <trkpt lat="44.12961" lon="4.21364">
        <ele>209.7</ele>
        <time>2011-12-28T14:40:52Z</time>
      </trkpt>
      <trkpt lat="44.12965" lon="4.21359">
        <ele>209.22</ele>
        <time>2011-12-28T14:40:53Z</time>
      </trkpt>
      <trkpt lat="44.1297" lon="4.21355">
        <ele>208.26</ele>
        <time>2011-12-28T14:40:54Z</time>
      </trkpt>
      <trkpt lat="44.12973" lon="4.21349">
        <ele>209.22</ele>
        <time>2011-12-28T14:40:55Z</time>
      </trkpt>
      <trkpt lat="44.12975" lon="4.21342">
        <ele>208.26</ele>
        <time>2011-12-28T14:40:56Z</time>
      </trkpt>
      <trkpt lat="44.12976" lon="4.21336">
        <ele>208.74</ele>
        <time>2011-12-28T14:40:57Z</time>
      </trkpt>
      <trkpt lat="44.12977" lon="4.21332">
        <ele>207.78</ele>
        <time>2011-12-28T14:40:58Z</time>
      </trkpt>
      <trkpt lat="44.1298" lon="4.2133">
        <ele>207.3</ele>
        <time>2011-12-28T14:40:59Z</time>
      </trkpt>
      <trkpt lat="44.12982" lon="4.21329">
        <ele>207.3</ele>
        <time>2011-12-28T14:41:00Z</time>
      </trkpt>
      <trkpt lat="44.12984" lon="4.21329">
        <ele>206.82</ele>
        <time>2011-12-28T14:41:01Z</time>
      </trkpt>
      <trkpt lat="44.12985" lon="4.21329">
        <ele>206.82</ele>
        <time>2011-12-28T14:41:02Z</time>
      </trkpt>
      <trkpt lat="44.12986" lon="4.21328">
        <ele>207.3</ele>
        <time>2011-12-28T14:41:03Z</time>
      </trkpt>
      <trkpt lat="44.12987" lon="4.21327">
        <ele>207.3</ele>
        <time>2011-12-28T14:41:15Z</time>
      </trkpt>
      <trkpt lat="44.12986" lon="4.21327">
        <ele>206.82</ele>
        <time>2011-12-28T14:41:45Z</time>
      </trkpt>
      <trkpt lat="44.12985" lon="4.21328">
        <ele>206.82</ele>
        <time>2011-12-28T14:41:46Z</time>
      </trkpt>
      <trkpt lat="44.12983" lon="4.21329">
        <ele>207.3</ele>
        <time>2011-12-28T14:41:47Z</time>
      </trkpt>
      <trkpt lat="44.1298" lon="4.2133">
        <ele>207.78</ele>
        <time>2011-12-28T14:41:48Z</time>
      </trkpt>
      <trkpt lat="44.12977" lon="4.21333">
        <ele>207.78</ele>
        <time>2011-12-28T14:41:49Z</time>
      </trkpt>
      <trkpt lat="44.12976" lon="4.21337">
        <ele>207.78</ele>
        <time>2011-12-28T14:41:50Z</time>
      </trkpt>
      <trkpt lat="44.12976" lon="4.21341">
        <ele>207.78</ele>
        <time>2011-12-28T14:41:51Z</time>
      </trkpt>
      <trkpt lat="44.12976" lon="4.21345">
        <ele>207.78</ele>
        <time>2011-12-28T14:41:52Z</time>
      </trkpt>
      <trkpt lat="44.12975" lon="4.21349">
        <ele>208.26</ele>
        <time>2011-12-28T14:41:53Z</time>
      </trkpt>
      <trkpt lat="44.12974" lon="4.21351">
        <ele>207.78</ele>
        <time>2011-12-28T14:41:54Z</time>
      </trkpt>
      <trkpt lat="44.12972" lon="4.21355">
        <ele>208.26</ele>
        <time>2011-12-28T14:41:55Z</time>
      </trkpt>
      <trkpt lat="44.1297" lon="4.21358">
        <ele>208.26</ele>
        <time>2011-12-28T14:41:56Z</time>
      </trkpt>
      <trkpt lat="44.12968" lon="4.21361">
        <ele>207.78</ele>
        <time>2011-12-28T14:41:57Z</time>
      </trkpt>
      <trkpt lat="44.12967" lon="4.21363">
        <ele>207.78</ele>
        <time>2011-12-28T14:41:58Z</time>
      </trkpt>
      <trkpt lat="44.12966" lon="4.21366">
        <ele>208.26</ele>
        <time>2011-12-28T14:41:59Z</time>
      </trkpt>
      <trkpt lat="44.12966" lon="4.21369">
        <ele>208.26</ele>
        <time>2011-12-28T14:42:00Z</time>
      </trkpt>
      <trkpt lat="44.12966" lon="4.21372">
        <ele>208.26</ele>
        <time>2011-12-28T14:42:01Z</time>
      </trkpt>
      <trkpt lat="44.12966" lon="4.21376">
        <ele>208.74</ele>
        <time>2011-12-28T14:42:02Z</time>
      </trkpt>
      <trkpt lat="44.12965" lon="4.21378">
        <ele>208.74</ele>
        <time>2011-12-28T14:42:03Z</time>
      </trkpt>
      <trkpt lat="44.12962" lon="4.21381">
        <ele>209.22</ele>
        <time>2011-12-28T14:42:04Z</time>
      </trkpt>
      <trkpt lat="44.1296" lon="4.21384">
        <ele>208.74</ele>
        <time>2011-12-28T14:42:05Z</time>
      </trkpt>
      <trkpt lat="44.12958" lon="4.21388">
        <ele>209.22</ele>
        <time>2011-12-28T14:42:06Z</time>
      </trkpt>
      <trkpt lat="44.12955" lon="4.21391">
        <ele>209.7</ele>
        <time>2011-12-28T14:42:07Z</time>
      </trkpt>
      <trkpt lat="44.12952" lon="4.21394">
        <ele>209.22</ele>
        <time>2011-12-28T14:42:08Z</time>
      </trkpt>
      <trkpt lat="44.12949" lon="4.21396">
        <ele>210.19</ele>
        <time>2011-12-28T14:42:09Z</time>
      </trkpt>
      <trkpt lat="44.12947" lon="4.21398">
        <ele>210.19</ele>
        <time>2011-12-28T14:42:10Z</time>
      </trkpt>
      <trkpt lat="44.12935" lon="4.21416">
        <ele>211.15</ele>
        <time>2011-12-28T14:42:18Z</time>
      </trkpt>
      <trkpt lat="44.1293" lon="4.21426">
        <ele>211.63</ele>
        <time>2011-12-28T14:42:23Z</time>
      </trkpt>
      <trkpt lat="44.12929" lon="4.21427">
        <ele>212.11</ele>
        <time>2011-12-28T14:42:24Z</time>
      </trkpt>
      <trkpt lat="44.12928" lon="4.21428">
        <ele>212.11</ele>
        <time>2011-12-28T14:42:25Z</time>
      </trkpt>
      <trkpt lat="44.12926" lon="4.2143">
        <ele>211.63</ele>
        <time>2011-12-28T14:42:26Z</time>
      </trkpt>
      <trkpt lat="44.12923" lon="4.21434">
        <ele>213.07</ele>
        <time>2011-12-28T14:42:27Z</time>
      </trkpt>
      <trkpt lat="44.12921" lon="4.21437">
        <ele>212.59</ele>
        <time>2011-12-28T14:42:28Z</time>
      </trkpt>
      <trkpt lat="44.12915" lon="4.2145">
        <ele>214.03</ele>
        <time>2011-12-28T14:42:31Z</time>
      </trkpt>
      <trkpt lat="44.12912" lon="4.21455">
        <ele>214.03</ele>
        <time>2011-12-28T14:42:32Z</time>
      </trkpt>
      <trkpt lat="44.12901" lon="4.21476">
        <ele>215.47</ele>
        <time>2011-12-28T14:42:36Z</time>
      </trkpt>
      <trkpt lat="44.12899" lon="4.21483">
        <ele>216.43</ele>
        <time>2011-12-28T14:42:37Z</time>
      </trkpt>
      <trkpt lat="44.12897" lon="4.21489">
        <ele>216.43</ele>
        <time>2011-12-28T14:42:38Z</time>
      </trkpt>
      <trkpt lat="44.12881" lon="4.21529">
        <ele>215.95</ele>
        <time>2011-12-28T14:42:49Z</time>
      </trkpt>
      <trkpt lat="44.1288" lon="4.2153">
        <ele>215.95</ele>
        <time>2011-12-28T14:43:06Z</time>
      </trkpt>
      <trkpt lat="44.12882" lon="4.21528">
        <ele>215.95</ele>
        <time>2011-12-28T14:43:37Z</time>
      </trkpt>
      <trkpt lat="44.12883" lon="4.21527">
        <ele>216.43</ele>
        <time>2011-12-28T14:43:48Z</time>
      </trkpt>
      <trkpt lat="44.12884" lon="4.21525">
        <ele>215.95</ele>
        <time>2011-12-28T14:43:49Z</time>
      </trkpt>
      <trkpt lat="44.12885" lon="4.21523">
        <ele>215.95</ele>
        <time>2011-12-28T14:43:50Z</time>
      </trkpt>
      <trkpt lat="44.12898" lon="4.21485">
        <ele>215.47</ele>
        <time>2011-12-28T14:44:03Z</time>
      </trkpt>
      <trkpt lat="44.12914" lon="4.21453">
        <ele>213.55</ele>
        <time>2011-12-28T14:44:14Z</time>
      </trkpt>
      <trkpt lat="44.12931" lon="4.21425">
        <ele>212.11</ele>
        <time>2011-12-28T14:44:23Z</time>
      </trkpt>
      <trkpt lat="44.12954" lon="4.21387">
        <ele>209.22</ele>
        <time>2011-12-28T14:44:31Z</time>
      </trkpt>
      <trkpt lat="44.1296" lon="4.21366">
        <ele>209.7</ele>
        <time>2011-12-28T14:44:35Z</time>
      </trkpt>
      <trkpt lat="44.12963" lon="4.21363">
        <ele>209.22</ele>
        <time>2011-12-28T14:44:36Z</time>
      </trkpt>
      <trkpt lat="44.12971" lon="4.21355">
        <ele>208.74</ele>
        <time>2011-12-28T14:44:38Z</time>
      </trkpt>
      <trkpt lat="44.12973" lon="4.2135">
        <ele>208.26</ele>
        <time>2011-12-28T14:44:39Z</time>
      </trkpt>
      <trkpt lat="44.12974" lon="4.21345">
        <ele>208.26</ele>
        <time>2011-12-28T14:44:40Z</time>
      </trkpt>
      <trkpt lat="44.12975" lon="4.2134">
        <ele>207.78</ele>
        <time>2011-12-28T14:44:41Z</time>
      </trkpt>
      <trkpt lat="44.12975" lon="4.21337">
        <ele>207.78</ele>
        <time>2011-12-28T14:44:42Z</time>
      </trkpt>
      <trkpt lat="44.12976" lon="4.21334">
        <ele>208.26</ele>
        <time>2011-12-28T14:44:43Z</time>
      </trkpt>
      <trkpt lat="44.12977" lon="4.21332">
        <ele>207.3</ele>
        <time>2011-12-28T14:44:44Z</time>
      </trkpt>
      <trkpt lat="44.12978" lon="4.21331">
        <ele>208.26</ele>
        <time>2011-12-28T14:44:45Z</time>
      </trkpt>
      <trkpt lat="44.12979" lon="4.21329">
        <ele>207.3</ele>
        <time>2011-12-28T14:44:58Z</time>
      </trkpt>
      <trkpt lat="44.12979" lon="4.21329">
        <ele>207.78</ele>
        <time>2011-12-28T14:45:24Z</time>
      </trkpt>
      <trkpt lat="44.12979" lon="4.21329">
        <ele>207.3</ele>
        <time>2011-12-28T14:45:45Z</time>
      </trkpt>
      <trkpt lat="44.1298" lon="4.21328">
        <ele>207.78</ele>
        <time>2011-12-28T14:45:58Z</time>
      </trkpt>
      <trkpt lat="44.12982" lon="4.21326">
        <ele>207.3</ele>
        <time>2011-12-28T14:45:59Z</time>
      </trkpt>
      <trkpt lat="44.12984" lon="4.21325">
        <ele>206.82</ele>
        <time>2011-12-28T14:46:00Z</time>
      </trkpt>
      <trkpt lat="44.12986" lon="4.21323">
        <ele>206.82</ele>
        <time>2011-12-28T14:46:01Z</time>
      </trkpt>
      <trkpt lat="44.12989" lon="4.21322">
        <ele>207.3</ele>
        <time>2011-12-28T14:46:02Z</time>
      </trkpt>
      <trkpt lat="44.12991" lon="4.2132">
        <ele>206.82</ele>
        <time>2011-12-28T14:46:03Z</time>
      </trkpt>
      <trkpt lat="44.13019" lon="4.21269">
        <ele>205.86</ele>
        <time>2011-12-28T14:46:16Z</time>
      </trkpt>
      <trkpt lat="44.13039" lon="4.21221">
        <ele>203.46</ele>
        <time>2011-12-28T14:46:24Z</time>
      </trkpt>
      <trkpt lat="44.13048" lon="4.21192">
        <ele>202.98</ele>
        <time>2011-12-28T14:46:28Z</time>
      </trkpt>
      <trkpt lat="44.13051" lon="4.21185">
        <ele>202.98</ele>
        <time>2011-12-28T14:46:29Z</time>
      </trkpt>
      <trkpt lat="44.13055" lon="4.21179">
        <ele>202.98</ele>
        <time>2011-12-28T14:46:30Z</time>
      </trkpt>
      <trkpt lat="44.13058" lon="4.21173">
        <ele>202.98</ele>
        <time>2011-12-28T14:46:31Z</time>
      </trkpt>
      <trkpt lat="44.13062" lon="4.21167">
        <ele>202.98</ele>
        <time>2011-12-28T14:46:32Z</time>
      </trkpt>
      <trkpt lat="44.13065" lon="4.21161">
        <ele>202.98</ele>
        <time>2011-12-28T14:46:33Z</time>
      </trkpt>
      <trkpt lat="44.13068" lon="4.21154">
        <ele>202.01</ele>
        <time>2011-12-28T14:46:34Z</time>
      </trkpt>
      <trkpt lat="44.13073" lon="4.2115">
        <ele>202.01</ele>
        <time>2011-12-28T14:46:35Z</time>
      </trkpt>
      <trkpt lat="44.13081" lon="4.21144">
        <ele>202.01</ele>
        <time>2011-12-28T14:46:37Z</time>
      </trkpt>
      <trkpt lat="44.13084" lon="4.21139">
        <ele>201.53</ele>
        <time>2011-12-28T14:46:38Z</time>
      </trkpt>
      <trkpt lat="44.13087" lon="4.21134">
        <ele>201.53</ele>
        <time>2011-12-28T14:46:39Z</time>
      </trkpt>
      <trkpt lat="44.13091" lon="4.21131">
        <ele>201.53</ele>
        <time>2011-12-28T14:46:40Z</time>
      </trkpt>
      <trkpt lat="44.13097" lon="4.21128">
        <ele>201.05</ele>
        <time>2011-12-28T14:46:41Z</time>
      </trkpt>
      <trkpt lat="44.13102" lon="4.21127">
        <ele>201.53</ele>
        <time>2011-12-28T14:46:42Z</time>
      </trkpt>
      <trkpt lat="44.13107" lon="4.21126">
        <ele>201.53</ele>
        <time>2011-12-28T14:46:43Z</time>
      </trkpt>
      <trkpt lat="44.13143" lon="4.21119">
        <ele>199.61</ele>
        <time>2011-12-28T14:46:50Z</time>
      </trkpt>
      <trkpt lat="44.13148" lon="4.2112">
        <ele>199.61</ele>
        <time>2011-12-28T14:46:51Z</time>
      </trkpt>
      <trkpt lat="44.13153" lon="4.21121">
        <ele>200.09</ele>
        <time>2011-12-28T14:46:52Z</time>
      </trkpt>
      <trkpt lat="44.13159" lon="4.21124">
        <ele>199.13</ele>
        <time>2011-12-28T14:46:53Z</time>
      </trkpt>
      <trkpt lat="44.13164" lon="4.21127">
        <ele>198.65</ele>
        <time>2011-12-28T14:46:54Z</time>
      </trkpt>
      <trkpt lat="44.13228" lon="4.21148">
        <ele>196.25</ele>
        <time>2011-12-28T14:47:06Z</time>
      </trkpt>
      <trkpt lat="44.13235" lon="4.21149">
        <ele>196.25</ele>
        <time>2011-12-28T14:47:07Z</time>
      </trkpt>
      <trkpt lat="44.13278" lon="4.21158">
        <ele>193.36</ele>
        <time>2011-12-28T14:47:14Z</time>
      </trkpt>
      <trkpt lat="44.13309" lon="4.21158">
        <ele>190.96</ele>
        <time>2011-12-28T14:47:18Z</time>
      </trkpt>
      <trkpt lat="44.13331" lon="4.21153">
        <ele>189.52</ele>
        <time>2011-12-28T14:47:21Z</time>
      </trkpt>
      <trkpt lat="44.13351" lon="4.21146">
        <ele>188.08</ele>
        <time>2011-12-28T14:47:24Z</time>
      </trkpt>
      <trkpt lat="44.13357" lon="4.21142">
        <ele>187.59</ele>
        <time>2011-12-28T14:47:25Z</time>
      </trkpt>
      <trkpt lat="44.13376" lon="4.21128">
        <ele>186.15</ele>
        <time>2011-12-28T14:47:31Z</time>
      </trkpt>
      <trkpt lat="44.1338" lon="4.21128">
        <ele>185.67</ele>
        <time>2011-12-28T14:47:32Z</time>
      </trkpt>
      <trkpt lat="44.134" lon="4.21135">
        <ele>184.23</ele>
        <time>2011-12-28T14:47:36Z</time>
      </trkpt>
      <trkpt lat="44.13442" lon="4.21153">
        <ele>181.83</ele>
        <time>2011-12-28T14:47:47Z</time>
      </trkpt>
      <trkpt lat="44.13443" lon="4.21154">
        <ele>181.35</ele>
        <time>2011-12-28T14:48:00Z</time>
      </trkpt>
      <trkpt lat="44.13452" lon="4.21163">
        <ele>181.35</ele>
        <time>2011-12-28T14:48:18Z</time>
      </trkpt>
      <trkpt lat="44.13453" lon="4.21173">
        <ele>181.35</ele>
        <time>2011-12-28T14:48:21Z</time>
      </trkpt>
      <trkpt lat="44.13451" lon="4.21175">
        <ele>180.87</ele>
        <time>2011-12-28T14:48:22Z</time>
      </trkpt>
      <trkpt lat="44.1345" lon="4.21178">
        <ele>181.35</ele>
        <time>2011-12-28T14:48:23Z</time>
      </trkpt>
      <trkpt lat="44.13449" lon="4.2118">
        <ele>181.83</ele>
        <time>2011-12-28T14:48:24Z</time>
      </trkpt>
      <trkpt lat="44.13448" lon="4.21182">
        <ele>181.83</ele>
        <time>2011-12-28T14:48:25Z</time>
      </trkpt>
      <trkpt lat="44.13448" lon="4.21185">
        <ele>181.35</ele>
        <time>2011-12-28T14:48:26Z</time>
      </trkpt>
      <trkpt lat="44.13448" lon="4.21188">
        <ele>181.35</ele>
        <time>2011-12-28T14:48:27Z</time>
      </trkpt>
      <trkpt lat="44.13448" lon="4.21192">
        <ele>181.83</ele>
        <time>2011-12-28T14:48:28Z</time>
      </trkpt>
      <trkpt lat="44.13449" lon="4.21195">
        <ele>181.83</ele>
        <time>2011-12-28T14:48:29Z</time>
      </trkpt>
      <trkpt lat="44.1345" lon="4.21198">
        <ele>181.83</ele>
        <time>2011-12-28T14:48:30Z</time>
      </trkpt>
      <trkpt lat="44.13451" lon="4.21201">
        <ele>181.83</ele>
        <time>2011-12-28T14:48:31Z</time>
      </trkpt>
      <trkpt lat="44.13452" lon="4.21203">
        <ele>181.83</ele>
        <time>2011-12-28T14:48:32Z</time>
      </trkpt>
      <trkpt lat="44.13452" lon="4.21206">
        <ele>182.31</ele>
        <time>2011-12-28T14:48:33Z</time>
      </trkpt>
      <trkpt lat="44.13452" lon="4.21209">
        <ele>181.83</ele>
        <time>2011-12-28T14:48:34Z</time>
      </trkpt>
      <trkpt lat="44.13454" lon="4.21246">
        <ele>184.23</ele>
        <time>2011-12-28T14:48:48Z</time>
      </trkpt>
      <trkpt lat="44.13455" lon="4.21257">
        <ele>185.19</ele>
        <time>2011-12-28T14:48:52Z</time>
      </trkpt>
      <trkpt lat="44.13455" lon="4.2126">
        <ele>185.19</ele>
        <time>2011-12-28T14:48:53Z</time>
      </trkpt>
      <trkpt lat="44.13457" lon="4.21304">
        <ele>187.59</ele>
        <time>2011-12-28T14:49:06Z</time>
      </trkpt>
      <trkpt lat="44.13469" lon="4.21375">
        <ele>189.04</ele>
        <time>2011-12-28T14:49:23Z</time>
      </trkpt>
      <trkpt lat="44.13504" lon="4.21416">
        <ele>188.56</ele>
        <time>2011-12-28T14:49:36Z</time>
      </trkpt>
      <trkpt lat="44.13527" lon="4.21463">
        <ele>189.52</ele>
        <time>2011-12-28T14:49:49Z</time>
      </trkpt>
      <trkpt lat="44.13533" lon="4.21475">
        <ele>189.52</ele>
        <time>2011-12-28T14:49:53Z</time>
      </trkpt>
      <trkpt lat="44.13565" lon="4.21497">
        <ele>190.48</ele>
        <time>2011-12-28T14:50:05Z</time>
      </trkpt>
      <trkpt lat="44.13573" lon="4.21501">
        <ele>190</ele>
        <time>2011-12-28T14:50:08Z</time>
      </trkpt>
      <trkpt lat="44.13595" lon="4.21533">
        <ele>188.08</ele>
        <time>2011-12-28T14:50:17Z</time>
      </trkpt>
      <trkpt lat="44.13598" lon="4.21537">
        <ele>187.59</ele>
        <time>2011-12-28T14:50:18Z</time>
      </trkpt>
      <trkpt lat="44.136" lon="4.21542">
        <ele>188.08</ele>
        <time>2011-12-28T14:50:19Z</time>
      </trkpt>
      <trkpt lat="44.13602" lon="4.21546">
        <ele>187.59</ele>
        <time>2011-12-28T14:50:20Z</time>
      </trkpt>
      <trkpt lat="44.13603" lon="4.2155">
        <ele>187.11</ele>
        <time>2011-12-28T14:50:21Z</time>
      </trkpt>
      <trkpt lat="44.13607" lon="4.2156">
        <ele>187.11</ele>
        <time>2011-12-28T14:50:33Z</time>
      </trkpt>
      <trkpt lat="44.13608" lon="4.21561">
        <ele>187.59</ele>
        <time>2011-12-28T14:50:46Z</time>
      </trkpt>
      <trkpt lat="44.13609" lon="4.21562">
        <ele>188.08</ele>
        <time>2011-12-28T14:50:47Z</time>
      </trkpt>
      <trkpt lat="44.13633" lon="4.2155">
        <ele>186.63</ele>
        <time>2011-12-28T14:50:58Z</time>
      </trkpt>
      <trkpt lat="44.1366" lon="4.21525">
        <ele>184.71</ele>
        <time>2011-12-28T14:51:10Z</time>
      </trkpt>
      <trkpt lat="44.13684" lon="4.21486">
        <ele>184.23</ele>
        <time>2011-12-28T14:51:23Z</time>
      </trkpt>
      <trkpt lat="44.1369" lon="4.21484">
        <ele>183.75</ele>
        <time>2011-12-28T14:51:25Z</time>
      </trkpt>
      <trkpt lat="44.13701" lon="4.21467">
        <ele>183.75</ele>
        <time>2011-12-28T14:51:37Z</time>
      </trkpt>
      <trkpt lat="44.13702" lon="4.21464">
        <ele>184.23</ele>
        <time>2011-12-28T14:51:48Z</time>
      </trkpt>
      <trkpt lat="44.13703" lon="4.2146">
        <ele>183.75</ele>
        <time>2011-12-28T14:51:50Z</time>
      </trkpt>
      <trkpt lat="44.13722" lon="4.21448">
        <ele>183.75</ele>
        <time>2011-12-28T14:52:00Z</time>
      </trkpt>
      <trkpt lat="44.13752" lon="4.21415">
        <ele>183.27</ele>
        <time>2011-12-28T14:52:13Z</time>
      </trkpt>
      <trkpt lat="44.1378" lon="4.21398">
        <ele>183.27</ele>
        <time>2011-12-28T14:52:24Z</time>
      </trkpt>
      <trkpt lat="44.13817" lon="4.21406">
        <ele>183.27</ele>
        <time>2011-12-28T14:52:36Z</time>
      </trkpt>
      <trkpt lat="44.13828" lon="4.21436">
        <ele>184.71</ele>
        <time>2011-12-28T14:52:48Z</time>
      </trkpt>
      <trkpt lat="44.13843" lon="4.21463">
        <ele>186.63</ele>
        <time>2011-12-28T14:53:00Z</time>
      </trkpt>
      <trkpt lat="44.1387" lon="4.21486">
        <ele>186.63</ele>
        <time>2011-12-28T14:53:13Z</time>
      </trkpt>
      <trkpt lat="44.13883" lon="4.21489">
        <ele>185.19</ele>
        <time>2011-12-28T14:53:18Z</time>
      </trkpt>
      <trkpt lat="44.13926" lon="4.21479">
        <ele>182.79</ele>
        <time>2011-12-28T14:53:29Z</time>
      </trkpt>
      <trkpt lat="44.1393" lon="4.21479">
        <ele>182.79</ele>
        <time>2011-12-28T14:53:30Z</time>
      </trkpt>
      <trkpt lat="44.13934" lon="4.21479">
        <ele>182.31</ele>
        <time>2011-12-28T14:53:31Z</time>
      </trkpt>
      <trkpt lat="44.13937" lon="4.21478">
        <ele>181.83</ele>
        <time>2011-12-28T14:53:32Z</time>
      </trkpt>
      <trkpt lat="44.13938" lon="4.21478">
        <ele>181.35</ele>
        <time>2011-12-28T14:53:33Z</time>
      </trkpt>
      <trkpt lat="44.13945" lon="4.21477">
        <ele>180.87</ele>
        <time>2011-12-28T14:53:43Z</time>
      </trkpt>
      <trkpt lat="44.13947" lon="4.21478">
        <ele>181.35</ele>
        <time>2011-12-28T14:53:57Z</time>
      </trkpt>
      <trkpt lat="44.13948" lon="4.2148">
        <ele>181.35</ele>
        <time>2011-12-28T14:53:58Z</time>
      </trkpt>
      <trkpt lat="44.13949" lon="4.21481">
        <ele>181.35</ele>
        <time>2011-12-28T14:53:59Z</time>
      </trkpt>
      <trkpt lat="44.1395" lon="4.21483">
        <ele>181.35</ele>
        <time>2011-12-28T14:54:00Z</time>
      </trkpt>
      <trkpt lat="44.13951" lon="4.2149">
        <ele>182.79</ele>
        <time>2011-12-28T14:54:04Z</time>
      </trkpt>
      <trkpt lat="44.13959" lon="4.21489">
        <ele>182.31</ele>
        <time>2011-12-28T14:54:09Z</time>
      </trkpt>
      <trkpt lat="44.13976" lon="4.21483">
        <ele>181.83</ele>
        <time>2011-12-28T14:54:19Z</time>
      </trkpt>
      <trkpt lat="44.13977" lon="4.21471">
        <ele>180.87</ele>
        <time>2011-12-28T14:54:24Z</time>
      </trkpt>
      <trkpt lat="44.13992" lon="4.21458">
        <ele>179.9</ele>
        <time>2011-12-28T14:54:34Z</time>
      </trkpt>
      <trkpt lat="44.13993" lon="4.21457">
        <ele>179.42</ele>
        <time>2011-12-28T14:54:35Z</time>
      </trkpt>
      <trkpt lat="44.14003" lon="4.21446">
        <ele>177.98</ele>
        <time>2011-12-28T14:54:44Z</time>
      </trkpt>
      <trkpt lat="44.14006" lon="4.21442">
        <ele>177.98</ele>
        <time>2011-12-28T14:54:47Z</time>
      </trkpt>
      <trkpt lat="44.14014" lon="4.21421">
        <ele>175.1</ele>
        <time>2011-12-28T14:54:53Z</time>
      </trkpt>
      <trkpt lat="44.14023" lon="4.21415">
        <ele>174.14</ele>
        <time>2011-12-28T14:54:56Z</time>
      </trkpt>
      <trkpt lat="44.14032" lon="4.21411">
        <ele>173.17</ele>
        <time>2011-12-28T14:54:58Z</time>
      </trkpt>
      <trkpt lat="44.14036" lon="4.21408">
        <ele>172.69</ele>
        <time>2011-12-28T14:54:59Z</time>
      </trkpt>
      <trkpt lat="44.1404" lon="4.21404">
        <ele>172.69</ele>
        <time>2011-12-28T14:55:00Z</time>
      </trkpt>
      <trkpt lat="44.14074" lon="4.2138">
        <ele>171.25</ele>
        <time>2011-12-28T14:55:10Z</time>
      </trkpt>
      <trkpt lat="44.14087" lon="4.21369">
        <ele>168.37</ele>
        <time>2011-12-28T14:55:15Z</time>
      </trkpt>
      <trkpt lat="44.14089" lon="4.21368">
        <ele>168.85</ele>
        <time>2011-12-28T14:55:16Z</time>
      </trkpt>
      <trkpt lat="44.1409" lon="4.21368">
        <ele>168.85</ele>
        <time>2011-12-28T14:55:17Z</time>
      </trkpt>
      <trkpt lat="44.14092" lon="4.21369">
        <ele>168.37</ele>
        <time>2011-12-28T14:55:18Z</time>
      </trkpt>
      <trkpt lat="44.14094" lon="4.21372">
        <ele>168.85</ele>
        <time>2011-12-28T14:55:19Z</time>
      </trkpt>
      <trkpt lat="44.14096" lon="4.21374">
        <ele>169.33</ele>
        <time>2011-12-28T14:55:20Z</time>
      </trkpt>
      <trkpt lat="44.14097" lon="4.21378">
        <ele>169.33</ele>
        <time>2011-12-28T14:55:21Z</time>
      </trkpt>
      <trkpt lat="44.14118" lon="4.21398">
        <ele>170.77</ele>
        <time>2011-12-28T14:55:32Z</time>
      </trkpt>
      <trkpt lat="44.14142" lon="4.21405">
        <ele>170.29</ele>
        <time>2011-12-28T14:55:45Z</time>
      </trkpt>
      <trkpt lat="44.14147" lon="4.21405">
        <ele>169.81</ele>
        <time>2011-12-28T14:55:58Z</time>
      </trkpt>
      <trkpt lat="44.14148" lon="4.21406">
        <ele>169.81</ele>
        <time>2011-12-28T14:56:20Z</time>
      </trkpt>
      <trkpt lat="44.14151" lon="4.21409">
        <ele>169.33</ele>
        <time>2011-12-28T14:56:23Z</time>
      </trkpt>
      <trkpt lat="44.14153" lon="4.21417">
        <ele>168.85</ele>
        <time>2011-12-28T14:56:27Z</time>
      </trkpt>
      <trkpt lat="44.14153" lon="4.2142">
        <ele>168.85</ele>
        <time>2011-12-28T14:56:28Z</time>
      </trkpt>
      <trkpt lat="44.14143" lon="4.21447">
        <ele>166.93</ele>
        <time>2011-12-28T14:56:35Z</time>
      </trkpt>
      <trkpt lat="44.14124" lon="4.21466">
        <ele>165.48</ele>
        <time>2011-12-28T14:56:40Z</time>
      </trkpt>
      <trkpt lat="44.1412" lon="4.21472">
        <ele>165</ele>
        <time>2011-12-28T14:56:41Z</time>
      </trkpt>
      <trkpt lat="44.14117" lon="4.21479">
        <ele>165</ele>
        <time>2011-12-28T14:56:42Z</time>
      </trkpt>
      <trkpt lat="44.14115" lon="4.21488">
        <ele>164.52</ele>
        <time>2011-12-28T14:56:43Z</time>
      </trkpt>
      <trkpt lat="44.14114" lon="4.21497">
        <ele>164.52</ele>
        <time>2011-12-28T14:56:44Z</time>
      </trkpt>
      <trkpt lat="44.14109" lon="4.21528">
        <ele>162.6</ele>
        <time>2011-12-28T14:56:47Z</time>
      </trkpt>
      <trkpt lat="44.14093" lon="4.21591">
        <ele>159.72</ele>
        <time>2011-12-28T14:56:53Z</time>
      </trkpt>
      <trkpt lat="44.14089" lon="4.21611">
        <ele>159.72</ele>
        <time>2011-12-28T14:56:55Z</time>
      </trkpt>
      <trkpt lat="44.14088" lon="4.21622">
        <ele>160.2</ele>
        <time>2011-12-28T14:56:56Z</time>
      </trkpt>
      <trkpt lat="44.14088" lon="4.21632">
        <ele>159.24</ele>
        <time>2011-12-28T14:56:57Z</time>
      </trkpt>
      <trkpt lat="44.141" lon="4.21767">
        <ele>159.72</ele>
        <time>2011-12-28T14:57:10Z</time>
      </trkpt>
      <trkpt lat="44.14103" lon="4.21776">
        <ele>159.24</ele>
        <time>2011-12-28T14:57:11Z</time>
      </trkpt>
      <trkpt lat="44.14108" lon="4.21784">
        <ele>158.75</ele>
        <time>2011-12-28T14:57:12Z</time>
      </trkpt>
      <trkpt lat="44.14113" lon="4.2179">
        <ele>159.24</ele>
        <time>2011-12-28T14:57:13Z</time>
      </trkpt>
      <trkpt lat="44.1412" lon="4.21794">
        <ele>158.75</ele>
        <time>2011-12-28T14:57:14Z</time>
      </trkpt>
      <trkpt lat="44.14126" lon="4.21797">
        <ele>158.75</ele>
        <time>2011-12-28T14:57:15Z</time>
      </trkpt>
      <trkpt lat="44.14133" lon="4.218">
        <ele>158.75</ele>
        <time>2011-12-28T14:57:16Z</time>
      </trkpt>
      <trkpt lat="44.14216" lon="4.21825">
        <ele>158.75</ele>
        <time>2011-12-28T14:57:29Z</time>
      </trkpt>
      <trkpt lat="44.14302" lon="4.21838">
        <ele>156.35</ele>
        <time>2011-12-28T14:57:44Z</time>
      </trkpt>
      <trkpt lat="44.14362" lon="4.2185">
        <ele>154.43</ele>
        <time>2011-12-28T14:57:53Z</time>
      </trkpt>
      <trkpt lat="44.14368" lon="4.21854">
        <ele>154.91</ele>
        <time>2011-12-28T14:57:54Z</time>
      </trkpt>
      <trkpt lat="44.14374" lon="4.21858">
        <ele>154.43</ele>
        <time>2011-12-28T14:57:55Z</time>
      </trkpt>
      <trkpt lat="44.14469" lon="4.21922">
        <ele>152.51</ele>
        <time>2011-12-28T14:58:11Z</time>
      </trkpt>
      <trkpt lat="44.14475" lon="4.21924">
        <ele>152.03</ele>
        <time>2011-12-28T14:58:12Z</time>
      </trkpt>
      <trkpt lat="44.14569" lon="4.2194">
        <ele>152.03</ele>
        <time>2011-12-28T14:58:27Z</time>
      </trkpt>
      <trkpt lat="44.14643" lon="4.21961">
        <ele>151.54</ele>
        <time>2011-12-28T14:58:40Z</time>
      </trkpt>
      <trkpt lat="44.14661" lon="4.21963">
        <ele>151.06</ele>
        <time>2011-12-28T14:58:49Z</time>
      </trkpt>
      <trkpt lat="44.14661" lon="4.21963">
        <ele>151.54</ele>
        <time>2011-12-28T14:59:08Z</time>
      </trkpt>
      <trkpt lat="44.14661" lon="4.21963">
        <ele>151.54</ele>
        <time>2011-12-28T14:59:31Z</time>
      </trkpt>
      <trkpt lat="44.14661" lon="4.21963">
        <ele>151.54</ele>
        <time>2011-12-28T14:59:52Z</time>
      </trkpt>
      <trkpt lat="44.14661" lon="4.21963">
        <ele>151.54</ele>
        <time>2011-12-28T15:00:12Z</time>
      </trkpt>
      <trkpt lat="44.14661" lon="4.21963">
        <ele>152.03</ele>
        <time>2011-12-28T15:00:35Z</time>
      </trkpt>
      <trkpt lat="44.14666" lon="4.21967">
        <ele>151.54</ele>
        <time>2011-12-28T15:00:41Z</time>
      </trkpt>
      <trkpt lat="44.14666" lon="4.21969">
        <ele>151.54</ele>
        <time>2011-12-28T15:00:42Z</time>
      </trkpt>
      <trkpt lat="44.14667" lon="4.21971">
        <ele>152.03</ele>
        <time>2011-12-28T15:00:43Z</time>
      </trkpt>
      <trkpt lat="44.14667" lon="4.21973">
        <ele>152.03</ele>
        <time>2011-12-28T15:00:44Z</time>
      </trkpt>
      <trkpt lat="44.14667" lon="4.21976">
        <ele>152.03</ele>
        <time>2011-12-28T15:00:45Z</time>
      </trkpt>
      <trkpt lat="44.14667" lon="4.21979">
        <ele>151.54</ele>
        <time>2011-12-28T15:00:46Z</time>
      </trkpt>
      <trkpt lat="44.14666" lon="4.21983">
        <ele>152.03</ele>
        <time>2011-12-28T15:00:47Z</time>
      </trkpt>
      <trkpt lat="44.14664" lon="4.21987">
        <ele>151.54</ele>
        <time>2011-12-28T15:00:48Z</time>
      </trkpt>
      <trkpt lat="44.14663" lon="4.2199">
        <ele>152.03</ele>
        <time>2011-12-28T15:00:49Z</time>
      </trkpt>
      <trkpt lat="44.14662" lon="4.21994">
        <ele>151.54</ele>
        <time>2011-12-28T15:00:50Z</time>
      </trkpt>
      <trkpt lat="44.14637" lon="4.22037">
        <ele>151.54</ele>
        <time>2011-12-28T15:01:02Z</time>
      </trkpt>
      <trkpt lat="44.14599" lon="4.22081">
        <ele>152.51</ele>
        <time>2011-12-28T15:01:15Z</time>
      </trkpt>
      <trkpt lat="44.14598" lon="4.22086">
        <ele>152.03</ele>
        <time>2011-12-28T15:01:16Z</time>
      </trkpt>
      <trkpt lat="44.14596" lon="4.22091">
        <ele>152.51</ele>
        <time>2011-12-28T15:01:17Z</time>
      </trkpt>
      <trkpt lat="44.14584" lon="4.22164">
        <ele>152.99</ele>
        <time>2011-12-28T15:01:31Z</time>
      </trkpt>
      <trkpt lat="44.1458" lon="4.22186">
        <ele>153.95</ele>
        <time>2011-12-28T15:01:35Z</time>
      </trkpt>
      <trkpt lat="44.14579" lon="4.22192">
        <ele>153.47</ele>
        <time>2011-12-28T15:01:36Z</time>
      </trkpt>
      <trkpt lat="44.14578" lon="4.22198">
        <ele>154.91</ele>
        <time>2011-12-28T15:01:37Z</time>
      </trkpt>
      <trkpt lat="44.14573" lon="4.22209">
        <ele>154.43</ele>
        <time>2011-12-28T15:01:39Z</time>
      </trkpt>
      <trkpt lat="44.1457" lon="4.22214">
        <ele>154.91</ele>
        <time>2011-12-28T15:01:40Z</time>
      </trkpt>
      <trkpt lat="44.14567" lon="4.22219">
        <ele>155.39</ele>
        <time>2011-12-28T15:01:41Z</time>
      </trkpt>
      <trkpt lat="44.14544" lon="4.22245">
        <ele>157.79</ele>
        <time>2011-12-28T15:01:48Z</time>
      </trkpt>
      <trkpt lat="44.1451" lon="4.2229">
        <ele>159.24</ele>
        <time>2011-12-28T15:02:00Z</time>
      </trkpt>
      <trkpt lat="44.14475" lon="4.22318">
        <ele>158.27</ele>
        <time>2011-12-28T15:02:13Z</time>
      </trkpt>
      <trkpt lat="44.14474" lon="4.22317">
        <ele>157.79</ele>
        <time>2011-12-28T15:02:15Z</time>
      </trkpt>
      <trkpt lat="44.14472" lon="4.22316">
        <ele>158.75</ele>
        <time>2011-12-28T15:02:16Z</time>
      </trkpt>
      <trkpt lat="44.1447" lon="4.22315">
        <ele>157.31</ele>
        <time>2011-12-28T15:02:17Z</time>
      </trkpt>
      <trkpt lat="44.14465" lon="4.2231">
        <ele>157.79</ele>
        <time>2011-12-28T15:02:25Z</time>
      </trkpt>
      <trkpt lat="44.14464" lon="4.2231">
        <ele>157.79</ele>
        <time>2011-12-28T15:02:26Z</time>
      </trkpt>
      <trkpt lat="44.14463" lon="4.22311">
        <ele>157.79</ele>
        <time>2011-12-28T15:02:27Z</time>
      </trkpt>
      <trkpt lat="44.1446" lon="4.22316">
        <ele>157.31</ele>
        <time>2011-12-28T15:02:30Z</time>
      </trkpt>
      <trkpt lat="44.1446" lon="4.22318">
        <ele>157.79</ele>
        <time>2011-12-28T15:02:31Z</time>
      </trkpt>
      <trkpt lat="44.14461" lon="4.22321">
        <ele>157.79</ele>
        <time>2011-12-28T15:02:32Z</time>
      </trkpt>
      <trkpt lat="44.14462" lon="4.22323">
        <ele>157.79</ele>
        <time>2011-12-28T15:02:33Z</time>
      </trkpt>
      <trkpt lat="44.14464" lon="4.22325">
        <ele>158.27</ele>
        <time>2011-12-28T15:02:34Z</time>
      </trkpt>
      <trkpt lat="44.14466" lon="4.22325">
        <ele>157.79</ele>
        <time>2011-12-28T15:02:35Z</time>
      </trkpt>
      <trkpt lat="44.14468" lon="4.22324">
        <ele>156.83</ele>
        <time>2011-12-28T15:02:36Z</time>
      </trkpt>
      <trkpt lat="44.1447" lon="4.22324">
        <ele>158.27</ele>
        <time>2011-12-28T15:02:37Z</time>
      </trkpt>
      <trkpt lat="44.14473" lon="4.22325">
        <ele>158.75</ele>
        <time>2011-12-28T15:02:38Z</time>
      </trkpt>
      <trkpt lat="44.14476" lon="4.22329">
        <ele>158.27</ele>
        <time>2011-12-28T15:02:39Z</time>
      </trkpt>
      <trkpt lat="44.14477" lon="4.22333">
        <ele>158.27</ele>
        <time>2011-12-28T15:02:40Z</time>
      </trkpt>
      <trkpt lat="44.14478" lon="4.22338">
        <ele>157.79</ele>
        <time>2011-12-28T15:02:41Z</time>
      </trkpt>
      <trkpt lat="44.14479" lon="4.22343">
        <ele>158.27</ele>
        <time>2011-12-28T15:02:42Z</time>
      </trkpt>
      <trkpt lat="44.14479" lon="4.22348">
        <ele>158.27</ele>
        <time>2011-12-28T15:02:43Z</time>
      </trkpt>
      <trkpt lat="44.14479" lon="4.22353">
        <ele>157.79</ele>
        <time>2011-12-28T15:02:44Z</time>
      </trkpt>
      <trkpt lat="44.14483" lon="4.22381">
        <ele>157.31</ele>
        <time>2011-12-28T15:02:50Z</time>
      </trkpt>
      <trkpt lat="44.14484" lon="4.22388">
        <ele>157.31</ele>
        <time>2011-12-28T15:02:51Z</time>
      </trkpt>
      <trkpt lat="44.14491" lon="4.225">
        <ele>156.35</ele>
        <time>2011-12-28T15:03:07Z</time>
      </trkpt>
      <trkpt lat="44.14496" lon="4.22587">
        <ele>154.43</ele>
        <time>2011-12-28T15:03:19Z</time>
      </trkpt>
      <trkpt lat="44.14496" lon="4.22593">
        <ele>154.91</ele>
        <time>2011-12-28T15:03:20Z</time>
      </trkpt>
      <trkpt lat="44.14507" lon="4.22608">
        <ele>154.43</ele>
        <time>2011-12-28T15:03:25Z</time>
      </trkpt>
      <trkpt lat="44.14532" lon="4.22597">
        <ele>153.95</ele>
        <time>2011-12-28T15:03:36Z</time>
      </trkpt>
      <trkpt lat="44.14555" lon="4.22587">
        <ele>154.43</ele>
        <time>2011-12-28T15:03:45Z</time>
      </trkpt>
      <trkpt lat="44.14566" lon="4.22583">
        <ele>153.47</ele>
        <time>2011-12-28T15:03:49Z</time>
      </trkpt>
      <trkpt lat="44.14571" lon="4.22569">
        <ele>153.47</ele>
        <time>2011-12-28T15:04:00Z</time>
      </trkpt>
      <trkpt lat="44.14571" lon="4.22569">
        <ele>153.95</ele>
        <time>2011-12-28T15:04:23Z</time>
      </trkpt>
      <trkpt lat="44.14571" lon="4.22569">
        <ele>153.95</ele>
        <time>2011-12-28T15:04:43Z</time>
      </trkpt>
      <trkpt lat="44.14571" lon="4.2257">
        <ele>153.47</ele>
        <time>2011-12-28T15:05:11Z</time>
      </trkpt>
      <trkpt lat="44.14571" lon="4.2257">
        <ele>152.99</ele>
        <time>2011-12-28T15:05:16Z</time>
      </trkpt>
      <trkpt lat="44.14571" lon="4.2257">
        <ele>153.47</ele>
        <time>2011-12-28T15:05:19Z</time>
      </trkpt>
      <trkpt lat="44.14574" lon="4.22575">
        <ele>152.51</ele>
        <time>2011-12-28T15:05:23Z</time>
      </trkpt>
      <trkpt lat="44.14578" lon="4.226">
        <ele>152.99</ele>
        <time>2011-12-28T15:05:34Z</time>
      </trkpt>
      <trkpt lat="44.14578" lon="4.22602">
        <ele>152.03</ele>
        <time>2011-12-28T15:05:48Z</time>
      </trkpt>
      <trkpt lat="44.14577" lon="4.22606">
        <ele>152.51</ele>
        <time>2011-12-28T15:06:06Z</time>
      </trkpt>
      <trkpt lat="44.14562" lon="4.22645">
        <ele>152.99</ele>
        <time>2011-12-28T15:06:18Z</time>
      </trkpt>
      <trkpt lat="44.14562" lon="4.22695">
        <ele>156.35</ele>
        <time>2011-12-28T15:06:27Z</time>
      </trkpt>
      <trkpt lat="44.14562" lon="4.22742">
        <ele>158.27</ele>
        <time>2011-12-28T15:06:41Z</time>
      </trkpt>
      <trkpt lat="44.14564" lon="4.22747">
        <ele>158.27</ele>
        <time>2011-12-28T15:06:45Z</time>
      </trkpt>
      <trkpt lat="44.1457" lon="4.22747">
        <ele>157.79</ele>
        <time>2011-12-28T15:06:51Z</time>
      </trkpt>
      <trkpt lat="44.1458" lon="4.22741">
        <ele>158.27</ele>
        <time>2011-12-28T15:07:03Z</time>
      </trkpt>
      <trkpt lat="44.14581" lon="4.2274">
        <ele>158.75</ele>
        <time>2011-12-28T15:07:14Z</time>
      </trkpt>
      <trkpt lat="44.14581" lon="4.2274">
        <ele>157.79</ele>
        <time>2011-12-28T15:07:46Z</time>
      </trkpt>
      <trkpt lat="44.1459" lon="4.22741">
        <ele>158.27</ele>
        <time>2011-12-28T15:08:01Z</time>
      </trkpt>
      <trkpt lat="44.14622" lon="4.22734">
        <ele>157.79</ele>
        <time>2011-12-28T15:08:13Z</time>
      </trkpt>
      <trkpt lat="44.14625" lon="4.22733">
        <ele>158.27</ele>
        <time>2011-12-28T15:08:25Z</time>
      </trkpt>
      <trkpt lat="44.14637" lon="4.22728">
        <ele>157.79</ele>
        <time>2011-12-28T15:08:34Z</time>
      </trkpt>
      <trkpt lat="44.14648" lon="4.22736">
        <ele>156.83</ele>
        <time>2011-12-28T15:08:41Z</time>
      </trkpt>
      <trkpt lat="44.14649" lon="4.22744">
        <ele>157.79</ele>
        <time>2011-12-28T15:08:45Z</time>
      </trkpt>
      <trkpt lat="44.14648" lon="4.22796">
        <ele>158.75</ele>
        <time>2011-12-28T15:09:00Z</time>
      </trkpt>
      <trkpt lat="44.14655" lon="4.22865">
        <ele>159.72</ele>
        <time>2011-12-28T15:09:17Z</time>
      </trkpt>
      <trkpt lat="44.14665" lon="4.2294">
        <ele>160.2</ele>
        <time>2011-12-28T15:09:33Z</time>
      </trkpt>
      <trkpt lat="44.14671" lon="4.23021">
        <ele>161.16</ele>
        <time>2011-12-28T15:09:48Z</time>
      </trkpt>
      <trkpt lat="44.14676" lon="4.23096">
        <ele>161.64</ele>
        <time>2011-12-28T15:10:01Z</time>
      </trkpt>
      <trkpt lat="44.14677" lon="4.23101">
        <ele>161.64</ele>
        <time>2011-12-28T15:10:02Z</time>
      </trkpt>
      <trkpt lat="44.1468" lon="4.2313">
        <ele>162.12</ele>
        <time>2011-12-28T15:10:07Z</time>
      </trkpt>
      <trkpt lat="44.14681" lon="4.23136">
        <ele>162.12</ele>
        <time>2011-12-28T15:10:08Z</time>
      </trkpt>
      <trkpt lat="44.1469" lon="4.23219">
        <ele>163.08</ele>
        <time>2011-12-28T15:10:23Z</time>
      </trkpt>
      <trkpt lat="44.14697" lon="4.23296">
        <ele>163.08</ele>
        <time>2011-12-28T15:10:38Z</time>
      </trkpt>
      <trkpt lat="44.14706" lon="4.23379">
        <ele>164.52</ele>
        <time>2011-12-28T15:10:55Z</time>
      </trkpt>
      <trkpt lat="44.14709" lon="4.2345">
        <ele>165</ele>
        <time>2011-12-28T15:11:11Z</time>
      </trkpt>
      <trkpt lat="44.14714" lon="4.23496">
        <ele>167.41</ele>
        <time>2011-12-28T15:11:25Z</time>
      </trkpt>
      <trkpt lat="44.14731" lon="4.23552">
        <ele>167.89</ele>
        <time>2011-12-28T15:11:43Z</time>
      </trkpt>
      <trkpt lat="44.14741" lon="4.23594">
        <ele>168.37</ele>
        <time>2011-12-28T15:11:57Z</time>
      </trkpt>
      <trkpt lat="44.14746" lon="4.23627">
        <ele>170.29</ele>
        <time>2011-12-28T15:12:09Z</time>
      </trkpt>
      <trkpt lat="44.14751" lon="4.2367">
        <ele>171.25</ele>
        <time>2011-12-28T15:12:24Z</time>
      </trkpt>
      <trkpt lat="44.14756" lon="4.23722">
        <ele>172.69</ele>
        <time>2011-12-28T15:12:41Z</time>
      </trkpt>
      <trkpt lat="44.14759" lon="4.23763">
        <ele>173.66</ele>
        <time>2011-12-28T15:12:56Z</time>
      </trkpt>
      <trkpt lat="44.14765" lon="4.23811">
        <ele>175.58</ele>
        <time>2011-12-28T15:13:12Z</time>
      </trkpt>
      <trkpt lat="44.14772" lon="4.23857">
        <ele>177.02</ele>
        <time>2011-12-28T15:13:27Z</time>
      </trkpt>
      <trkpt lat="44.14781" lon="4.23897">
        <ele>177.5</ele>
        <time>2011-12-28T15:13:41Z</time>
      </trkpt>
      <trkpt lat="44.14786" lon="4.23952">
        <ele>177.98</ele>
        <time>2011-12-28T15:13:57Z</time>
      </trkpt>
      <trkpt lat="44.14792" lon="4.23999">
        <ele>181.35</ele>
        <time>2011-12-28T15:14:11Z</time>
      </trkpt>
      <trkpt lat="44.14794" lon="4.24013">
        <ele>182.79</ele>
        <time>2011-12-28T15:14:16Z</time>
      </trkpt>
      <trkpt lat="44.14794" lon="4.24015">
        <ele>182.31</ele>
        <time>2011-12-28T15:14:17Z</time>
      </trkpt>
      <trkpt lat="44.14794" lon="4.24025">
        <ele>183.27</ele>
        <time>2011-12-28T15:14:31Z</time>
      </trkpt>
      <trkpt lat="44.14795" lon="4.24026">
        <ele>182.79</ele>
        <time>2011-12-28T15:14:32Z</time>
      </trkpt>
      <trkpt lat="44.14795" lon="4.24028">
        <ele>182.79</ele>
        <time>2011-12-28T15:14:33Z</time>
      </trkpt>
      <trkpt lat="44.14814" lon="4.24057">
        <ele>182.79</ele>
        <time>2011-12-28T15:14:46Z</time>
      </trkpt>
      <trkpt lat="44.14825" lon="4.24106">
        <ele>181.83</ele>
        <time>2011-12-28T15:14:59Z</time>
      </trkpt>
      <trkpt lat="44.14837" lon="4.2416">
        <ele>182.79</ele>
        <time>2011-12-28T15:15:14Z</time>
      </trkpt>
      <trkpt lat="44.14835" lon="4.2418">
        <ele>183.27</ele>
        <time>2011-12-28T15:15:20Z</time>
      </trkpt>
      <trkpt lat="44.14833" lon="4.24182">
        <ele>182.31</ele>
        <time>2011-12-28T15:15:21Z</time>
      </trkpt>
      <trkpt lat="44.14831" lon="4.24182">
        <ele>182.31</ele>
        <time>2011-12-28T15:15:22Z</time>
      </trkpt>
      <trkpt lat="44.14829" lon="4.24182">
        <ele>181.35</ele>
        <time>2011-12-28T15:15:23Z</time>
      </trkpt>
      <trkpt lat="44.14828" lon="4.24181">
        <ele>181.35</ele>
        <time>2011-12-28T15:15:35Z</time>
      </trkpt>
      <trkpt lat="44.14825" lon="4.24181">
        <ele>181.35</ele>
        <time>2011-12-28T15:15:59Z</time>
      </trkpt>
      <trkpt lat="44.14823" lon="4.24181">
        <ele>181.83</ele>
        <time>2011-12-28T15:16:00Z</time>
      </trkpt>
      <trkpt lat="44.14821" lon="4.2418">
        <ele>181.35</ele>
        <time>2011-12-28T15:16:01Z</time>
      </trkpt>
      <trkpt lat="44.14819" lon="4.2418">
        <ele>181.83</ele>
        <time>2011-12-28T15:16:02Z</time>
      </trkpt>
      <trkpt lat="44.14817" lon="4.2418">
        <ele>181.35</ele>
        <time>2011-12-28T15:16:03Z</time>
      </trkpt>
      <trkpt lat="44.14773" lon="4.24181">
        <ele>179.9</ele>
        <time>2011-12-28T15:16:18Z</time>
      </trkpt>
      <trkpt lat="44.14746" lon="4.2418">
        <ele>177.98</ele>
        <time>2011-12-28T15:16:31Z</time>
      </trkpt>
      <trkpt lat="44.14745" lon="4.2418">
        <ele>178.94</ele>
        <time>2011-12-28T15:16:49Z</time>
      </trkpt>
      <trkpt lat="44.14737" lon="4.2418">
        <ele>178.46</ele>
        <time>2011-12-28T15:17:12Z</time>
      </trkpt>
      <trkpt lat="44.14693" lon="4.24177">
        <ele>176.54</ele>
        <time>2011-12-28T15:17:24Z</time>
      </trkpt>
      <trkpt lat="44.14599" lon="4.24155">
        <ele>175.1</ele>
        <time>2011-12-28T15:17:43Z</time>
      </trkpt>
      <trkpt lat="44.14529" lon="4.24133">
        <ele>174.14</ele>
        <time>2011-12-28T15:17:57Z</time>
      </trkpt>
      <trkpt lat="44.14466" lon="4.24097">
        <ele>175.1</ele>
        <time>2011-12-28T15:18:12Z</time>
      </trkpt>
      <trkpt lat="44.14405" lon="4.24087">
        <ele>175.58</ele>
        <time>2011-12-28T15:18:27Z</time>
      </trkpt>
      <trkpt lat="44.14342" lon="4.24096">
        <ele>177.02</ele>
        <time>2011-12-28T15:18:43Z</time>
      </trkpt>
      <trkpt lat="44.14314" lon="4.24102">
        <ele>177.5</ele>
        <time>2011-12-28T15:18:50Z</time>
      </trkpt>
      <trkpt lat="44.14259" lon="4.24127">
        <ele>178.46</ele>
        <time>2011-12-28T15:19:06Z</time>
      </trkpt>
      <trkpt lat="44.14214" lon="4.24164">
        <ele>179.42</ele>
        <time>2011-12-28T15:19:21Z</time>
      </trkpt>
      <trkpt lat="44.14165" lon="4.24186">
        <ele>179.9</ele>
        <time>2011-12-28T15:19:36Z</time>
      </trkpt>
      <trkpt lat="44.1411" lon="4.24221">
        <ele>180.87</ele>
        <time>2011-12-28T15:19:53Z</time>
      </trkpt>
      <trkpt lat="44.14072" lon="4.24273">
        <ele>182.31</ele>
        <time>2011-12-28T15:20:09Z</time>
      </trkpt>
      <trkpt lat="44.14046" lon="4.24348">
        <ele>183.27</ele>
        <time>2011-12-28T15:20:27Z</time>
      </trkpt>
      <trkpt lat="44.14025" lon="4.24401">
        <ele>184.71</ele>
        <time>2011-12-28T15:20:41Z</time>
      </trkpt>
      <trkpt lat="44.14004" lon="4.24421">
        <ele>185.19</ele>
        <time>2011-12-28T15:20:49Z</time>
      </trkpt>
      <trkpt lat="44.14" lon="4.24424">
        <ele>185.19</ele>
        <time>2011-12-28T15:20:50Z</time>
      </trkpt>
      <trkpt lat="44.13998" lon="4.24426">
        <ele>185.19</ele>
        <time>2011-12-28T15:20:51Z</time>
      </trkpt>
      <trkpt lat="44.13996" lon="4.24429">
        <ele>185.19</ele>
        <time>2011-12-28T15:20:52Z</time>
      </trkpt>
      <trkpt lat="44.13993" lon="4.24431">
        <ele>184.71</ele>
        <time>2011-12-28T15:20:53Z</time>
      </trkpt>
      <trkpt lat="44.13991" lon="4.24434">
        <ele>185.67</ele>
        <time>2011-12-28T15:20:54Z</time>
      </trkpt>
      <trkpt lat="44.13989" lon="4.24437">
        <ele>184.71</ele>
        <time>2011-12-28T15:20:55Z</time>
      </trkpt>
      <trkpt lat="44.13986" lon="4.2444">
        <ele>184.71</ele>
        <time>2011-12-28T15:20:56Z</time>
      </trkpt>
      <trkpt lat="44.13984" lon="4.24443">
        <ele>185.19</ele>
        <time>2011-12-28T15:20:57Z</time>
      </trkpt>
      <trkpt lat="44.13981" lon="4.24446">
        <ele>185.67</ele>
        <time>2011-12-28T15:20:58Z</time>
      </trkpt>
      <trkpt lat="44.13979" lon="4.24448">
        <ele>185.19</ele>
        <time>2011-12-28T15:20:59Z</time>
      </trkpt>
      <trkpt lat="44.13933" lon="4.24486">
        <ele>186.15</ele>
        <time>2011-12-28T15:21:15Z</time>
      </trkpt>
      <trkpt lat="44.13889" lon="4.24508">
        <ele>187.11</ele>
        <time>2011-12-28T15:21:28Z</time>
      </trkpt>
      <trkpt lat="44.1386" lon="4.24522">
        <ele>187.11</ele>
        <time>2011-12-28T15:21:37Z</time>
      </trkpt>
      <trkpt lat="44.13839" lon="4.24528">
        <ele>187.11</ele>
        <time>2011-12-28T15:21:46Z</time>
      </trkpt>
      <trkpt lat="44.13833" lon="4.24527">
        <ele>187.11</ele>
        <time>2011-12-28T15:21:51Z</time>
      </trkpt>
      <trkpt lat="44.1383" lon="4.24525">
        <ele>187.11</ele>
        <time>2011-12-28T15:22:05Z</time>
      </trkpt>
      <trkpt lat="44.1383" lon="4.24525">
        <ele>183.75</ele>
        <time>2011-12-28T15:22:06Z</time>
      </trkpt>
      <trkpt lat="44.1383" lon="4.24525">
        <ele>187.59</ele>
        <time>2011-12-28T15:22:07Z</time>
      </trkpt>
    </trkseg>
  </trk>
</gpx>